<?xml version="1.0" encoding="UTF-8" standalone="no" ?>
<gpx xmlns="http://www.topografix.com/GPX/1/1" xmlns:xsi="http://www.w3.org/2001/XMLSchema-instance" xsi:schemaLocation="http://www.topografix.com/GPX/1/1 http://www.topografix.com/GPX/1/1/gpx.xsd" version="1.1" creator="VisuGPX - https://www.visugpx.com">
  <metadata>
    <name>moulin du quercy blanc</name>
    <desc><![CDATA[ a l\'entrée de bouloc il y a une aire emménagée pour pique-niquer]]></desc>
  </metadata>
  <trk>
    <name><![CDATA[lauzerte 2015-11-29 17:04:28]]></name>
    <trkseg>
      <trkpt lat="44.25675" lon="1.13823">
        <ele>244.31</ele>
        <time>2015-11-29T09:21:57Z</time>
      </trkpt>
      <trkpt lat="44.25671" lon="1.13825">
        <ele>240.95</ele>
        <time>2015-11-29T09:22:17Z</time>
      </trkpt>
      <trkpt lat="44.25667" lon="1.13819">
        <ele>228.45</ele>
        <time>2015-11-29T09:22:36Z</time>
      </trkpt>
      <trkpt lat="44.25665" lon="1.13819">
        <ele>227.49</ele>
        <time>2015-11-29T09:23:01Z</time>
      </trkpt>
      <trkpt lat="44.25667" lon="1.13823">
        <ele>226.53</ele>
        <time>2015-11-29T09:23:23Z</time>
      </trkpt>
      <trkpt lat="44.25667" lon="1.13823">
        <ele>226.05</ele>
        <time>2015-11-29T09:23:41Z</time>
      </trkpt>
      <trkpt lat="44.25667" lon="1.13824">
        <ele>227.49</ele>
        <time>2015-11-29T09:24:00Z</time>
      </trkpt>
      <trkpt lat="44.25668" lon="1.13824">
        <ele>227.97</ele>
        <time>2015-11-29T09:24:22Z</time>
      </trkpt>
      <trkpt lat="44.2567" lon="1.13807">
        <ele>228.45</ele>
        <time>2015-11-29T09:24:37Z</time>
      </trkpt>
      <trkpt lat="44.25665" lon="1.13802">
        <ele>228.93</ele>
        <time>2015-11-29T09:24:42Z</time>
      </trkpt>
      <trkpt lat="44.25684" lon="1.13776">
        <ele>225.09</ele>
        <time>2015-11-29T09:24:56Z</time>
      </trkpt>
      <trkpt lat="44.25694" lon="1.13758">
        <ele>223.64</ele>
        <time>2015-11-29T09:25:10Z</time>
      </trkpt>
      <trkpt lat="44.25704" lon="1.13741">
        <ele>223.64</ele>
        <time>2015-11-29T09:25:22Z</time>
      </trkpt>
      <trkpt lat="44.25705" lon="1.1374">
        <ele>223.64</ele>
        <time>2015-11-29T09:25:24Z</time>
      </trkpt>
      <trkpt lat="44.25716" lon="1.13728">
        <ele>224.12</ele>
        <time>2015-11-29T09:25:40Z</time>
      </trkpt>
      <trkpt lat="44.25718" lon="1.13724">
        <ele>220.76</ele>
        <time>2015-11-29T09:25:56Z</time>
      </trkpt>
      <trkpt lat="44.25715" lon="1.13724">
        <ele>222.68</ele>
        <time>2015-11-29T09:26:07Z</time>
      </trkpt>
      <trkpt lat="44.25719" lon="1.13734">
        <ele>219.32</ele>
        <time>2015-11-29T09:26:20Z</time>
      </trkpt>
      <trkpt lat="44.25735" lon="1.13751">
        <ele>216.91</ele>
        <time>2015-11-29T09:26:38Z</time>
      </trkpt>
      <trkpt lat="44.25748" lon="1.13766">
        <ele>212.59</ele>
        <time>2015-11-29T09:26:54Z</time>
      </trkpt>
      <trkpt lat="44.25767" lon="1.13781">
        <ele>213.55</ele>
        <time>2015-11-29T09:27:12Z</time>
      </trkpt>
      <trkpt lat="44.25779" lon="1.138">
        <ele>209.7</ele>
        <time>2015-11-29T09:27:28Z</time>
      </trkpt>
      <trkpt lat="44.2579" lon="1.13824">
        <ele>207.3</ele>
        <time>2015-11-29T09:27:45Z</time>
      </trkpt>
      <trkpt lat="44.25796" lon="1.13846">
        <ele>208.26</ele>
        <time>2015-11-29T09:28:01Z</time>
      </trkpt>
      <trkpt lat="44.25807" lon="1.13856">
        <ele>202.98</ele>
        <time>2015-11-29T09:28:20Z</time>
      </trkpt>
      <trkpt lat="44.2581" lon="1.13834">
        <ele>200.09</ele>
        <time>2015-11-29T09:28:35Z</time>
      </trkpt>
      <trkpt lat="44.25808" lon="1.13808">
        <ele>200.57</ele>
        <time>2015-11-29T09:28:49Z</time>
      </trkpt>
      <trkpt lat="44.25804" lon="1.13789">
        <ele>200.09</ele>
        <time>2015-11-29T09:29:00Z</time>
      </trkpt>
      <trkpt lat="44.25795" lon="1.13769">
        <ele>198.17</ele>
        <time>2015-11-29T09:29:14Z</time>
      </trkpt>
      <trkpt lat="44.25786" lon="1.13754">
        <ele>198.17</ele>
        <time>2015-11-29T09:29:28Z</time>
      </trkpt>
      <trkpt lat="44.25776" lon="1.13741">
        <ele>198.65</ele>
        <time>2015-11-29T09:29:42Z</time>
      </trkpt>
      <trkpt lat="44.25765" lon="1.13725">
        <ele>197.21</ele>
        <time>2015-11-29T09:29:58Z</time>
      </trkpt>
      <trkpt lat="44.25754" lon="1.13705">
        <ele>198.17</ele>
        <time>2015-11-29T09:30:12Z</time>
      </trkpt>
      <trkpt lat="44.25746" lon="1.13689">
        <ele>199.13</ele>
        <time>2015-11-29T09:30:25Z</time>
      </trkpt>
      <trkpt lat="44.25737" lon="1.13672">
        <ele>197.69</ele>
        <time>2015-11-29T09:30:40Z</time>
      </trkpt>
      <trkpt lat="44.25723" lon="1.13654">
        <ele>195.77</ele>
        <time>2015-11-29T09:30:58Z</time>
      </trkpt>
      <trkpt lat="44.25707" lon="1.13639">
        <ele>195.77</ele>
        <time>2015-11-29T09:31:14Z</time>
      </trkpt>
      <trkpt lat="44.25695" lon="1.13621">
        <ele>194.32</ele>
        <time>2015-11-29T09:31:31Z</time>
      </trkpt>
      <trkpt lat="44.25687" lon="1.13606">
        <ele>187.59</ele>
        <time>2015-11-29T09:31:47Z</time>
      </trkpt>
      <trkpt lat="44.25677" lon="1.13591">
        <ele>181.35</ele>
        <time>2015-11-29T09:32:02Z</time>
      </trkpt>
      <trkpt lat="44.2567" lon="1.13577">
        <ele>179.42</ele>
        <time>2015-11-29T09:32:16Z</time>
      </trkpt>
      <trkpt lat="44.25665" lon="1.13568">
        <ele>177.02</ele>
        <time>2015-11-29T09:32:26Z</time>
      </trkpt>
      <trkpt lat="44.25657" lon="1.1354">
        <ele>177.02</ele>
        <time>2015-11-29T09:32:45Z</time>
      </trkpt>
      <trkpt lat="44.25658" lon="1.13523">
        <ele>173.66</ele>
        <time>2015-11-29T09:33:00Z</time>
      </trkpt>
      <trkpt lat="44.25662" lon="1.13506">
        <ele>167.89</ele>
        <time>2015-11-29T09:33:15Z</time>
      </trkpt>
      <trkpt lat="44.25669" lon="1.13485">
        <ele>162.6</ele>
        <time>2015-11-29T09:33:33Z</time>
      </trkpt>
      <trkpt lat="44.25677" lon="1.13468">
        <ele>156.35</ele>
        <time>2015-11-29T09:33:48Z</time>
      </trkpt>
      <trkpt lat="44.25686" lon="1.13458">
        <ele>152.99</ele>
        <time>2015-11-29T09:34:03Z</time>
      </trkpt>
      <trkpt lat="44.25696" lon="1.13444">
        <ele>147.22</ele>
        <time>2015-11-29T09:34:19Z</time>
      </trkpt>
      <trkpt lat="44.25706" lon="1.13426">
        <ele>137.61</ele>
        <time>2015-11-29T09:34:36Z</time>
      </trkpt>
      <trkpt lat="44.25708" lon="1.13424">
        <ele>136.64</ele>
        <time>2015-11-29T09:34:38Z</time>
      </trkpt>
      <trkpt lat="44.2572" lon="1.13409">
        <ele>140.01</ele>
        <time>2015-11-29T09:34:52Z</time>
      </trkpt>
      <trkpt lat="44.25726" lon="1.13397">
        <ele>140.01</ele>
        <time>2015-11-29T09:35:01Z</time>
      </trkpt>
      <trkpt lat="44.25731" lon="1.13389">
        <ele>140.49</ele>
        <time>2015-11-29T09:35:19Z</time>
      </trkpt>
      <trkpt lat="44.25732" lon="1.13375">
        <ele>139.53</ele>
        <time>2015-11-29T09:35:35Z</time>
      </trkpt>
      <trkpt lat="44.25736" lon="1.13353">
        <ele>136.64</ele>
        <time>2015-11-29T09:35:50Z</time>
      </trkpt>
      <trkpt lat="44.25741" lon="1.13331">
        <ele>132.8</ele>
        <time>2015-11-29T09:36:05Z</time>
      </trkpt>
      <trkpt lat="44.25745" lon="1.13304">
        <ele>127.03</ele>
        <time>2015-11-29T09:36:23Z</time>
      </trkpt>
      <trkpt lat="44.25751" lon="1.13279">
        <ele>122.71</ele>
        <time>2015-11-29T09:36:40Z</time>
      </trkpt>
      <trkpt lat="44.25752" lon="1.13257">
        <ele>121.74</ele>
        <time>2015-11-29T09:36:54Z</time>
      </trkpt>
      <trkpt lat="44.25752" lon="1.13255">
        <ele>121.26</ele>
        <time>2015-11-29T09:36:55Z</time>
      </trkpt>
      <trkpt lat="44.25746" lon="1.13236">
        <ele>116.94</ele>
        <time>2015-11-29T09:37:09Z</time>
      </trkpt>
      <trkpt lat="44.25743" lon="1.1321">
        <ele>114.53</ele>
        <time>2015-11-29T09:37:26Z</time>
      </trkpt>
      <trkpt lat="44.25751" lon="1.13182">
        <ele>111.17</ele>
        <time>2015-11-29T09:37:45Z</time>
      </trkpt>
      <trkpt lat="44.25752" lon="1.13175">
        <ele>110.69</ele>
        <time>2015-11-29T09:37:49Z</time>
      </trkpt>
      <trkpt lat="44.2576" lon="1.1315">
        <ele>107.32</ele>
        <time>2015-11-29T09:38:04Z</time>
      </trkpt>
      <trkpt lat="44.2577" lon="1.13117">
        <ele>105.88</ele>
        <time>2015-11-29T09:38:24Z</time>
      </trkpt>
      <trkpt lat="44.25772" lon="1.13107">
        <ele>104.92</ele>
        <time>2015-11-29T09:38:30Z</time>
      </trkpt>
      <trkpt lat="44.25763" lon="1.13081">
        <ele>104.92</ele>
        <time>2015-11-29T09:38:48Z</time>
      </trkpt>
      <trkpt lat="44.25754" lon="1.13067">
        <ele>105.4</ele>
        <time>2015-11-29T09:39:01Z</time>
      </trkpt>
      <trkpt lat="44.25754" lon="1.13066">
        <ele>105.88</ele>
        <time>2015-11-29T09:39:02Z</time>
      </trkpt>
      <trkpt lat="44.25756" lon="1.13039">
        <ele>104.92</ele>
        <time>2015-11-29T09:39:19Z</time>
      </trkpt>
      <trkpt lat="44.25759" lon="1.1301">
        <ele>104.44</ele>
        <time>2015-11-29T09:39:37Z</time>
      </trkpt>
      <trkpt lat="44.25768" lon="1.12987">
        <ele>105.88</ele>
        <time>2015-11-29T09:39:53Z</time>
      </trkpt>
      <trkpt lat="44.2578" lon="1.12967">
        <ele>105.4</ele>
        <time>2015-11-29T09:40:08Z</time>
      </trkpt>
      <trkpt lat="44.25794" lon="1.12946">
        <ele>102.52</ele>
        <time>2015-11-29T09:40:27Z</time>
      </trkpt>
      <trkpt lat="44.25808" lon="1.12926">
        <ele>100.6</ele>
        <time>2015-11-29T09:40:46Z</time>
      </trkpt>
      <trkpt lat="44.2582" lon="1.12906">
        <ele>101.08</ele>
        <time>2015-11-29T09:41:03Z</time>
      </trkpt>
      <trkpt lat="44.25835" lon="1.12885">
        <ele>103.48</ele>
        <time>2015-11-29T09:41:22Z</time>
      </trkpt>
      <trkpt lat="44.25838" lon="1.1288">
        <ele>103.96</ele>
        <time>2015-11-29T09:41:26Z</time>
      </trkpt>
      <trkpt lat="44.25838" lon="1.12877">
        <ele>104.44</ele>
        <time>2015-11-29T09:41:28Z</time>
      </trkpt>
      <trkpt lat="44.25833" lon="1.1287">
        <ele>103.48</ele>
        <time>2015-11-29T09:41:35Z</time>
      </trkpt>
      <trkpt lat="44.2582" lon="1.12851">
        <ele>103.96</ele>
        <time>2015-11-29T09:41:53Z</time>
      </trkpt>
      <trkpt lat="44.25807" lon="1.12831">
        <ele>103</ele>
        <time>2015-11-29T09:42:12Z</time>
      </trkpt>
      <trkpt lat="44.25793" lon="1.12812">
        <ele>102.52</ele>
        <time>2015-11-29T09:42:30Z</time>
      </trkpt>
      <trkpt lat="44.25781" lon="1.12796">
        <ele>102.04</ele>
        <time>2015-11-29T09:42:45Z</time>
      </trkpt>
      <trkpt lat="44.25766" lon="1.12774">
        <ele>101.56</ele>
        <time>2015-11-29T09:43:05Z</time>
      </trkpt>
      <trkpt lat="44.2575" lon="1.12752">
        <ele>101.56</ele>
        <time>2015-11-29T09:43:25Z</time>
      </trkpt>
      <trkpt lat="44.25737" lon="1.12734">
        <ele>102.04</ele>
        <time>2015-11-29T09:43:43Z</time>
      </trkpt>
      <trkpt lat="44.25727" lon="1.12719">
        <ele>102.52</ele>
        <time>2015-11-29T09:43:58Z</time>
      </trkpt>
      <trkpt lat="44.25714" lon="1.12701">
        <ele>103</ele>
        <time>2015-11-29T09:44:15Z</time>
      </trkpt>
      <trkpt lat="44.257" lon="1.12682">
        <ele>102.52</ele>
        <time>2015-11-29T09:44:33Z</time>
      </trkpt>
      <trkpt lat="44.25685" lon="1.12664">
        <ele>103</ele>
        <time>2015-11-29T09:44:51Z</time>
      </trkpt>
      <trkpt lat="44.25674" lon="1.12652">
        <ele>102.04</ele>
        <time>2015-11-29T09:45:05Z</time>
      </trkpt>
      <trkpt lat="44.25659" lon="1.12631">
        <ele>102.04</ele>
        <time>2015-11-29T09:45:25Z</time>
      </trkpt>
      <trkpt lat="44.25643" lon="1.12613">
        <ele>101.56</ele>
        <time>2015-11-29T09:45:44Z</time>
      </trkpt>
      <trkpt lat="44.25625" lon="1.12594">
        <ele>101.56</ele>
        <time>2015-11-29T09:46:04Z</time>
      </trkpt>
      <trkpt lat="44.2561" lon="1.12578">
        <ele>100.11</ele>
        <time>2015-11-29T09:46:22Z</time>
      </trkpt>
      <trkpt lat="44.25593" lon="1.12562">
        <ele>101.08</ele>
        <time>2015-11-29T09:46:40Z</time>
      </trkpt>
      <trkpt lat="44.25576" lon="1.12546">
        <ele>102.04</ele>
        <time>2015-11-29T09:46:59Z</time>
      </trkpt>
      <trkpt lat="44.25558" lon="1.12531">
        <ele>100.6</ele>
        <time>2015-11-29T09:47:18Z</time>
      </trkpt>
      <trkpt lat="44.25542" lon="1.12517">
        <ele>100.6</ele>
        <time>2015-11-29T09:47:35Z</time>
      </trkpt>
      <trkpt lat="44.25522" lon="1.12504">
        <ele>101.08</ele>
        <time>2015-11-29T09:47:55Z</time>
      </trkpt>
      <trkpt lat="44.25504" lon="1.12491">
        <ele>101.08</ele>
        <time>2015-11-29T09:48:13Z</time>
      </trkpt>
      <trkpt lat="44.25489" lon="1.12481">
        <ele>102.04</ele>
        <time>2015-11-29T09:48:28Z</time>
      </trkpt>
      <trkpt lat="44.2547" lon="1.12467">
        <ele>102.52</ele>
        <time>2015-11-29T09:48:48Z</time>
      </trkpt>
      <trkpt lat="44.25454" lon="1.12456">
        <ele>100.6</ele>
        <time>2015-11-29T09:49:04Z</time>
      </trkpt>
      <trkpt lat="44.25437" lon="1.12443">
        <ele>101.08</ele>
        <time>2015-11-29T09:49:22Z</time>
      </trkpt>
      <trkpt lat="44.25419" lon="1.12432">
        <ele>101.08</ele>
        <time>2015-11-29T09:49:39Z</time>
      </trkpt>
      <trkpt lat="44.25415" lon="1.12429">
        <ele>101.56</ele>
        <time>2015-11-29T09:49:44Z</time>
      </trkpt>
      <trkpt lat="44.25395" lon="1.12414">
        <ele>100.6</ele>
        <time>2015-11-29T09:50:05Z</time>
      </trkpt>
      <trkpt lat="44.25376" lon="1.12401">
        <ele>100.6</ele>
        <time>2015-11-29T09:50:23Z</time>
      </trkpt>
      <trkpt lat="44.25359" lon="1.12387">
        <ele>100.6</ele>
        <time>2015-11-29T09:50:41Z</time>
      </trkpt>
      <trkpt lat="44.25341" lon="1.12374">
        <ele>101.08</ele>
        <time>2015-11-29T09:51:01Z</time>
      </trkpt>
      <trkpt lat="44.2534" lon="1.12371">
        <ele>101.56</ele>
        <time>2015-11-29T09:51:04Z</time>
      </trkpt>
      <trkpt lat="44.25346" lon="1.12345">
        <ele>102.04</ele>
        <time>2015-11-29T09:51:21Z</time>
      </trkpt>
      <trkpt lat="44.25352" lon="1.12318">
        <ele>103</ele>
        <time>2015-11-29T09:51:38Z</time>
      </trkpt>
      <trkpt lat="44.25361" lon="1.12286">
        <ele>103</ele>
        <time>2015-11-29T09:51:58Z</time>
      </trkpt>
      <trkpt lat="44.2537" lon="1.12257">
        <ele>103</ele>
        <time>2015-11-29T09:52:17Z</time>
      </trkpt>
      <trkpt lat="44.25383" lon="1.1223">
        <ele>103</ele>
        <time>2015-11-29T09:52:36Z</time>
      </trkpt>
      <trkpt lat="44.25395" lon="1.12202">
        <ele>102.52</ele>
        <time>2015-11-29T09:52:56Z</time>
      </trkpt>
      <trkpt lat="44.25406" lon="1.12181">
        <ele>103.96</ele>
        <time>2015-11-29T09:53:13Z</time>
      </trkpt>
      <trkpt lat="44.25408" lon="1.12171">
        <ele>104.92</ele>
        <time>2015-11-29T09:53:20Z</time>
      </trkpt>
      <trkpt lat="44.25394" lon="1.12167">
        <ele>102.04</ele>
        <time>2015-11-29T09:53:34Z</time>
      </trkpt>
      <trkpt lat="44.25387" lon="1.12169">
        <ele>100.6</ele>
        <time>2015-11-29T09:53:39Z</time>
      </trkpt>
      <trkpt lat="44.25365" lon="1.12164">
        <ele>99.63</ele>
        <time>2015-11-29T09:53:57Z</time>
      </trkpt>
      <trkpt lat="44.25349" lon="1.12151">
        <ele>100.6</ele>
        <time>2015-11-29T09:54:13Z</time>
      </trkpt>
      <trkpt lat="44.2533" lon="1.12139">
        <ele>102.04</ele>
        <time>2015-11-29T09:54:30Z</time>
      </trkpt>
      <trkpt lat="44.25311" lon="1.12124">
        <ele>103.96</ele>
        <time>2015-11-29T09:54:48Z</time>
      </trkpt>
      <trkpt lat="44.25297" lon="1.12111">
        <ele>104.44</ele>
        <time>2015-11-29T09:55:04Z</time>
      </trkpt>
      <trkpt lat="44.25279" lon="1.12091">
        <ele>105.4</ele>
        <time>2015-11-29T09:55:24Z</time>
      </trkpt>
      <trkpt lat="44.25267" lon="1.12074">
        <ele>107.32</ele>
        <time>2015-11-29T09:55:41Z</time>
      </trkpt>
      <trkpt lat="44.25257" lon="1.12056">
        <ele>109.73</ele>
        <time>2015-11-29T09:55:57Z</time>
      </trkpt>
      <trkpt lat="44.2525" lon="1.12038">
        <ele>113.09</ele>
        <time>2015-11-29T09:56:11Z</time>
      </trkpt>
      <trkpt lat="44.2524" lon="1.12009">
        <ele>114.53</ele>
        <time>2015-11-29T09:56:31Z</time>
      </trkpt>
      <trkpt lat="44.25231" lon="1.11978">
        <ele>113.09</ele>
        <time>2015-11-29T09:56:50Z</time>
      </trkpt>
      <trkpt lat="44.25219" lon="1.11954">
        <ele>111.17</ele>
        <time>2015-11-29T09:57:07Z</time>
      </trkpt>
      <trkpt lat="44.25207" lon="1.11934">
        <ele>111.65</ele>
        <time>2015-11-29T09:57:24Z</time>
      </trkpt>
      <trkpt lat="44.25191" lon="1.1191">
        <ele>112.61</ele>
        <time>2015-11-29T09:57:44Z</time>
      </trkpt>
      <trkpt lat="44.25177" lon="1.1189">
        <ele>114.05</ele>
        <time>2015-11-29T09:58:01Z</time>
      </trkpt>
      <trkpt lat="44.25161" lon="1.11867">
        <ele>116.46</ele>
        <time>2015-11-29T09:58:20Z</time>
      </trkpt>
      <trkpt lat="44.25146" lon="1.11843">
        <ele>116.94</ele>
        <time>2015-11-29T09:58:40Z</time>
      </trkpt>
      <trkpt lat="44.25129" lon="1.11819">
        <ele>117.42</ele>
        <time>2015-11-29T09:58:59Z</time>
      </trkpt>
      <trkpt lat="44.25115" lon="1.11799">
        <ele>117.42</ele>
        <time>2015-11-29T09:59:15Z</time>
      </trkpt>
      <trkpt lat="44.25101" lon="1.11777">
        <ele>117.9</ele>
        <time>2015-11-29T09:59:33Z</time>
      </trkpt>
      <trkpt lat="44.25098" lon="1.11763">
        <ele>117.9</ele>
        <time>2015-11-29T09:59:42Z</time>
      </trkpt>
      <trkpt lat="44.25112" lon="1.11744">
        <ele>118.38</ele>
        <time>2015-11-29T09:59:59Z</time>
      </trkpt>
      <trkpt lat="44.25126" lon="1.11724">
        <ele>119.34</ele>
        <time>2015-11-29T10:00:16Z</time>
      </trkpt>
      <trkpt lat="44.25143" lon="1.117">
        <ele>120.3</ele>
        <time>2015-11-29T10:00:36Z</time>
      </trkpt>
      <trkpt lat="44.25157" lon="1.11683">
        <ele>120.78</ele>
        <time>2015-11-29T10:00:52Z</time>
      </trkpt>
      <trkpt lat="44.25166" lon="1.11667">
        <ele>122.71</ele>
        <time>2015-11-29T10:01:05Z</time>
      </trkpt>
      <trkpt lat="44.25163" lon="1.11634">
        <ele>125.11</ele>
        <time>2015-11-29T10:01:26Z</time>
      </trkpt>
      <trkpt lat="44.2516" lon="1.11611">
        <ele>125.11</ele>
        <time>2015-11-29T10:01:40Z</time>
      </trkpt>
      <trkpt lat="44.25157" lon="1.11587">
        <ele>125.59</ele>
        <time>2015-11-29T10:01:54Z</time>
      </trkpt>
      <trkpt lat="44.25157" lon="1.11562">
        <ele>127.51</ele>
        <time>2015-11-29T10:02:09Z</time>
      </trkpt>
      <trkpt lat="44.25153" lon="1.11537">
        <ele>128.47</ele>
        <time>2015-11-29T10:02:25Z</time>
      </trkpt>
      <trkpt lat="44.25149" lon="1.11524">
        <ele>129.43</ele>
        <time>2015-11-29T10:02:34Z</time>
      </trkpt>
      <trkpt lat="44.25137" lon="1.11504">
        <ele>128.95</ele>
        <time>2015-11-29T10:02:51Z</time>
      </trkpt>
      <trkpt lat="44.2512" lon="1.11486">
        <ele>130.4</ele>
        <time>2015-11-29T10:03:09Z</time>
      </trkpt>
      <trkpt lat="44.25105" lon="1.1147">
        <ele>130.88</ele>
        <time>2015-11-29T10:03:27Z</time>
      </trkpt>
      <trkpt lat="44.25091" lon="1.11457">
        <ele>132.32</ele>
        <time>2015-11-29T10:03:43Z</time>
      </trkpt>
      <trkpt lat="44.25076" lon="1.11441">
        <ele>133.76</ele>
        <time>2015-11-29T10:04:00Z</time>
      </trkpt>
      <trkpt lat="44.2506" lon="1.11426">
        <ele>134.72</ele>
        <time>2015-11-29T10:04:18Z</time>
      </trkpt>
      <trkpt lat="44.25054" lon="1.11424">
        <ele>135.2</ele>
        <time>2015-11-29T10:04:24Z</time>
      </trkpt>
      <trkpt lat="44.25041" lon="1.11417">
        <ele>134.72</ele>
        <time>2015-11-29T10:04:38Z</time>
      </trkpt>
      <trkpt lat="44.25028" lon="1.11403">
        <ele>136.16</ele>
        <time>2015-11-29T10:04:53Z</time>
      </trkpt>
      <trkpt lat="44.25013" lon="1.11387">
        <ele>138.57</ele>
        <time>2015-11-29T10:05:11Z</time>
      </trkpt>
      <trkpt lat="44.24998" lon="1.11371">
        <ele>140.01</ele>
        <time>2015-11-29T10:05:28Z</time>
      </trkpt>
      <trkpt lat="44.24992" lon="1.11365">
        <ele>141.93</ele>
        <time>2015-11-29T10:05:42Z</time>
      </trkpt>
      <trkpt lat="44.24992" lon="1.11366">
        <ele>143.37</ele>
        <time>2015-11-29T10:06:01Z</time>
      </trkpt>
      <trkpt lat="44.24992" lon="1.11366">
        <ele>144.34</ele>
        <time>2015-11-29T10:06:26Z</time>
      </trkpt>
      <trkpt lat="44.24992" lon="1.11367">
        <ele>143.85</ele>
        <time>2015-11-29T10:06:30Z</time>
      </trkpt>
      <trkpt lat="44.24991" lon="1.11366">
        <ele>143.85</ele>
        <time>2015-11-29T10:06:45Z</time>
      </trkpt>
      <trkpt lat="44.2499" lon="1.11364">
        <ele>142.41</ele>
        <time>2015-11-29T10:06:50Z</time>
      </trkpt>
      <trkpt lat="44.24986" lon="1.11352">
        <ele>143.85</ele>
        <time>2015-11-29T10:07:04Z</time>
      </trkpt>
      <trkpt lat="44.24979" lon="1.11345">
        <ele>145.3</ele>
        <time>2015-11-29T10:07:16Z</time>
      </trkpt>
      <trkpt lat="44.24978" lon="1.11353">
        <ele>143.37</ele>
        <time>2015-11-29T10:07:34Z</time>
      </trkpt>
      <trkpt lat="44.2498" lon="1.11352">
        <ele>142.89</ele>
        <time>2015-11-29T10:07:52Z</time>
      </trkpt>
      <trkpt lat="44.24979" lon="1.11348">
        <ele>142.89</ele>
        <time>2015-11-29T10:07:56Z</time>
      </trkpt>
      <trkpt lat="44.24978" lon="1.11345">
        <ele>146.74</ele>
        <time>2015-11-29T10:08:07Z</time>
      </trkpt>
      <trkpt lat="44.24976" lon="1.11348">
        <ele>148.18</ele>
        <time>2015-11-29T10:08:30Z</time>
      </trkpt>
      <trkpt lat="44.24976" lon="1.11347">
        <ele>144.82</ele>
        <time>2015-11-29T10:08:51Z</time>
      </trkpt>
      <trkpt lat="44.24975" lon="1.11345">
        <ele>144.34</ele>
        <time>2015-11-29T10:09:07Z</time>
      </trkpt>
      <trkpt lat="44.24977" lon="1.11344">
        <ele>142.41</ele>
        <time>2015-11-29T10:09:35Z</time>
      </trkpt>
      <trkpt lat="44.24976" lon="1.11342">
        <ele>144.82</ele>
        <time>2015-11-29T10:09:50Z</time>
      </trkpt>
      <trkpt lat="44.24977" lon="1.11343">
        <ele>148.18</ele>
        <time>2015-11-29T10:10:11Z</time>
      </trkpt>
      <trkpt lat="44.24973" lon="1.11344">
        <ele>148.18</ele>
        <time>2015-11-29T10:10:26Z</time>
      </trkpt>
      <trkpt lat="44.2497" lon="1.11343">
        <ele>147.7</ele>
        <time>2015-11-29T10:10:42Z</time>
      </trkpt>
      <trkpt lat="44.2497" lon="1.11344">
        <ele>148.18</ele>
        <time>2015-11-29T10:11:01Z</time>
      </trkpt>
      <trkpt lat="44.2497" lon="1.11344">
        <ele>147.7</ele>
        <time>2015-11-29T10:11:21Z</time>
      </trkpt>
      <trkpt lat="44.24969" lon="1.11341">
        <ele>147.7</ele>
        <time>2015-11-29T10:11:41Z</time>
      </trkpt>
      <trkpt lat="44.2497" lon="1.11342">
        <ele>148.66</ele>
        <time>2015-11-29T10:12:03Z</time>
      </trkpt>
      <trkpt lat="44.24968" lon="1.11344">
        <ele>150.58</ele>
        <time>2015-11-29T10:12:23Z</time>
      </trkpt>
      <trkpt lat="44.24968" lon="1.11343">
        <ele>153.47</ele>
        <time>2015-11-29T10:12:53Z</time>
      </trkpt>
      <trkpt lat="44.24965" lon="1.11344">
        <ele>156.83</ele>
        <time>2015-11-29T10:13:18Z</time>
      </trkpt>
      <trkpt lat="44.24967" lon="1.11343">
        <ele>154.43</ele>
        <time>2015-11-29T10:13:31Z</time>
      </trkpt>
      <trkpt lat="44.24965" lon="1.11332">
        <ele>151.54</ele>
        <time>2015-11-29T10:13:43Z</time>
      </trkpt>
      <trkpt lat="44.24957" lon="1.11323">
        <ele>149.62</ele>
        <time>2015-11-29T10:13:54Z</time>
      </trkpt>
      <trkpt lat="44.24948" lon="1.11312">
        <ele>149.62</ele>
        <time>2015-11-29T10:14:07Z</time>
      </trkpt>
      <trkpt lat="44.24939" lon="1.11299">
        <ele>149.14</ele>
        <time>2015-11-29T10:14:22Z</time>
      </trkpt>
      <trkpt lat="44.24931" lon="1.11284">
        <ele>149.62</ele>
        <time>2015-11-29T10:14:38Z</time>
      </trkpt>
      <trkpt lat="44.24929" lon="1.11267">
        <ele>151.54</ele>
        <time>2015-11-29T10:14:53Z</time>
      </trkpt>
      <trkpt lat="44.24925" lon="1.11259">
        <ele>154.91</ele>
        <time>2015-11-29T10:15:07Z</time>
      </trkpt>
      <trkpt lat="44.24914" lon="1.11254">
        <ele>154.43</ele>
        <time>2015-11-29T10:15:21Z</time>
      </trkpt>
      <trkpt lat="44.24906" lon="1.11249">
        <ele>152.03</ele>
        <time>2015-11-29T10:15:32Z</time>
      </trkpt>
      <trkpt lat="44.24896" lon="1.11242">
        <ele>151.06</ele>
        <time>2015-11-29T10:15:45Z</time>
      </trkpt>
      <trkpt lat="44.24894" lon="1.1124">
        <ele>150.58</ele>
        <time>2015-11-29T10:15:48Z</time>
      </trkpt>
      <trkpt lat="44.24882" lon="1.11235">
        <ele>151.06</ele>
        <time>2015-11-29T10:16:00Z</time>
      </trkpt>
      <trkpt lat="44.2487" lon="1.11227">
        <ele>152.51</ele>
        <time>2015-11-29T10:16:12Z</time>
      </trkpt>
      <trkpt lat="44.24858" lon="1.11214">
        <ele>152.03</ele>
        <time>2015-11-29T10:16:23Z</time>
      </trkpt>
      <trkpt lat="44.24854" lon="1.11199">
        <ele>151.06</ele>
        <time>2015-11-29T10:16:34Z</time>
      </trkpt>
      <trkpt lat="44.24859" lon="1.11183">
        <ele>149.14</ele>
        <time>2015-11-29T10:16:47Z</time>
      </trkpt>
      <trkpt lat="44.24862" lon="1.1117">
        <ele>148.18</ele>
        <time>2015-11-29T10:16:58Z</time>
      </trkpt>
      <trkpt lat="44.24867" lon="1.11148">
        <ele>148.66</ele>
        <time>2015-11-29T10:17:13Z</time>
      </trkpt>
      <trkpt lat="44.2487" lon="1.11134">
        <ele>144.82</ele>
        <time>2015-11-29T10:17:27Z</time>
      </trkpt>
      <trkpt lat="44.24868" lon="1.11125">
        <ele>142.41</ele>
        <time>2015-11-29T10:17:35Z</time>
      </trkpt>
      <trkpt lat="44.24863" lon="1.11098">
        <ele>145.3</ele>
        <time>2015-11-29T10:17:50Z</time>
      </trkpt>
      <trkpt lat="44.24864" lon="1.11073">
        <ele>147.7</ele>
        <time>2015-11-29T10:18:04Z</time>
      </trkpt>
      <trkpt lat="44.24864" lon="1.11071">
        <ele>147.7</ele>
        <time>2015-11-29T10:18:06Z</time>
      </trkpt>
      <trkpt lat="44.24867" lon="1.11049">
        <ele>146.26</ele>
        <time>2015-11-29T10:18:23Z</time>
      </trkpt>
      <trkpt lat="44.24871" lon="1.11034">
        <ele>148.18</ele>
        <time>2015-11-29T10:18:41Z</time>
      </trkpt>
      <trkpt lat="44.24872" lon="1.11031">
        <ele>147.7</ele>
        <time>2015-11-29T10:18:43Z</time>
      </trkpt>
      <trkpt lat="44.24877" lon="1.11019">
        <ele>146.74</ele>
        <time>2015-11-29T10:18:51Z</time>
      </trkpt>
      <trkpt lat="44.24885" lon="1.10999">
        <ele>148.66</ele>
        <time>2015-11-29T10:19:05Z</time>
      </trkpt>
      <trkpt lat="44.24888" lon="1.10991">
        <ele>148.66</ele>
        <time>2015-11-29T10:19:11Z</time>
      </trkpt>
      <trkpt lat="44.24891" lon="1.10986">
        <ele>148.66</ele>
        <time>2015-11-29T10:19:14Z</time>
      </trkpt>
      <trkpt lat="44.24891" lon="1.10982">
        <ele>149.14</ele>
        <time>2015-11-29T10:19:16Z</time>
      </trkpt>
      <trkpt lat="44.24895" lon="1.10978">
        <ele>149.14</ele>
        <time>2015-11-29T10:19:20Z</time>
      </trkpt>
      <trkpt lat="44.24896" lon="1.10976">
        <ele>149.14</ele>
        <time>2015-11-29T10:19:22Z</time>
      </trkpt>
      <trkpt lat="44.24903" lon="1.10971">
        <ele>149.62</ele>
        <time>2015-11-29T10:19:29Z</time>
      </trkpt>
      <trkpt lat="44.24912" lon="1.10957">
        <ele>152.03</ele>
        <time>2015-11-29T10:19:41Z</time>
      </trkpt>
      <trkpt lat="44.24917" lon="1.10945">
        <ele>151.06</ele>
        <time>2015-11-29T10:19:53Z</time>
      </trkpt>
      <trkpt lat="44.24925" lon="1.10928">
        <ele>152.03</ele>
        <time>2015-11-29T10:20:07Z</time>
      </trkpt>
      <trkpt lat="44.24932" lon="1.10911">
        <ele>157.31</ele>
        <time>2015-11-29T10:20:20Z</time>
      </trkpt>
      <trkpt lat="44.24937" lon="1.10894">
        <ele>158.75</ele>
        <time>2015-11-29T10:20:33Z</time>
      </trkpt>
      <trkpt lat="44.24941" lon="1.10879">
        <ele>159.72</ele>
        <time>2015-11-29T10:20:45Z</time>
      </trkpt>
      <trkpt lat="44.24941" lon="1.10862">
        <ele>161.16</ele>
        <time>2015-11-29T10:20:58Z</time>
      </trkpt>
      <trkpt lat="44.24943" lon="1.10848">
        <ele>159.72</ele>
        <time>2015-11-29T10:21:12Z</time>
      </trkpt>
      <trkpt lat="44.24946" lon="1.10839">
        <ele>159.24</ele>
        <time>2015-11-29T10:21:25Z</time>
      </trkpt>
      <trkpt lat="44.24948" lon="1.10831">
        <ele>157.31</ele>
        <time>2015-11-29T10:21:34Z</time>
      </trkpt>
      <trkpt lat="44.24951" lon="1.10823">
        <ele>158.75</ele>
        <time>2015-11-29T10:21:46Z</time>
      </trkpt>
      <trkpt lat="44.24951" lon="1.10818">
        <ele>161.16</ele>
        <time>2015-11-29T10:22:15Z</time>
      </trkpt>
      <trkpt lat="44.24952" lon="1.10815">
        <ele>163.08</ele>
        <time>2015-11-29T10:22:28Z</time>
      </trkpt>
      <trkpt lat="44.24952" lon="1.10813">
        <ele>165.96</ele>
        <time>2015-11-29T10:22:43Z</time>
      </trkpt>
      <trkpt lat="44.24948" lon="1.10816">
        <ele>165</ele>
        <time>2015-11-29T10:23:09Z</time>
      </trkpt>
      <trkpt lat="44.24951" lon="1.10814">
        <ele>167.89</ele>
        <time>2015-11-29T10:23:34Z</time>
      </trkpt>
      <trkpt lat="44.24953" lon="1.10814">
        <ele>167.41</ele>
        <time>2015-11-29T10:24:05Z</time>
      </trkpt>
      <trkpt lat="44.24954" lon="1.10815">
        <ele>167.41</ele>
        <time>2015-11-29T10:24:24Z</time>
      </trkpt>
      <trkpt lat="44.24955" lon="1.10815">
        <ele>168.85</ele>
        <time>2015-11-29T10:24:40Z</time>
      </trkpt>
      <trkpt lat="44.24956" lon="1.1081">
        <ele>168.85</ele>
        <time>2015-11-29T10:24:44Z</time>
      </trkpt>
      <trkpt lat="44.24959" lon="1.10795">
        <ele>169.33</ele>
        <time>2015-11-29T10:24:57Z</time>
      </trkpt>
      <trkpt lat="44.24963" lon="1.10776">
        <ele>167.89</ele>
        <time>2015-11-29T10:25:12Z</time>
      </trkpt>
      <trkpt lat="44.24967" lon="1.10762">
        <ele>164.52</ele>
        <time>2015-11-29T10:25:26Z</time>
      </trkpt>
      <trkpt lat="44.24971" lon="1.10742">
        <ele>165.96</ele>
        <time>2015-11-29T10:25:40Z</time>
      </trkpt>
      <trkpt lat="44.24972" lon="1.10728">
        <ele>167.41</ele>
        <time>2015-11-29T10:25:54Z</time>
      </trkpt>
      <trkpt lat="44.24971" lon="1.10711">
        <ele>167.89</ele>
        <time>2015-11-29T10:26:08Z</time>
      </trkpt>
      <trkpt lat="44.2497" lon="1.10693">
        <ele>170.29</ele>
        <time>2015-11-29T10:26:20Z</time>
      </trkpt>
      <trkpt lat="44.2497" lon="1.10676">
        <ele>176.06</ele>
        <time>2015-11-29T10:26:32Z</time>
      </trkpt>
      <trkpt lat="44.24972" lon="1.10661">
        <ele>179.9</ele>
        <time>2015-11-29T10:26:43Z</time>
      </trkpt>
      <trkpt lat="44.24973" lon="1.10646">
        <ele>183.75</ele>
        <time>2015-11-29T10:26:56Z</time>
      </trkpt>
      <trkpt lat="44.24972" lon="1.10623">
        <ele>186.63</ele>
        <time>2015-11-29T10:27:10Z</time>
      </trkpt>
      <trkpt lat="44.24971" lon="1.1061">
        <ele>189.04</ele>
        <time>2015-11-29T10:27:23Z</time>
      </trkpt>
      <trkpt lat="44.2497" lon="1.10608">
        <ele>189.52</ele>
        <time>2015-11-29T10:27:24Z</time>
      </trkpt>
      <trkpt lat="44.24966" lon="1.1059">
        <ele>190.48</ele>
        <time>2015-11-29T10:27:38Z</time>
      </trkpt>
      <trkpt lat="44.2496" lon="1.10576">
        <ele>192.88</ele>
        <time>2015-11-29T10:27:50Z</time>
      </trkpt>
      <trkpt lat="44.24951" lon="1.10558">
        <ele>195.28</ele>
        <time>2015-11-29T10:28:03Z</time>
      </trkpt>
      <trkpt lat="44.24942" lon="1.10551">
        <ele>196.73</ele>
        <time>2015-11-29T10:28:15Z</time>
      </trkpt>
      <trkpt lat="44.24933" lon="1.10541">
        <ele>196.25</ele>
        <time>2015-11-29T10:28:38Z</time>
      </trkpt>
      <trkpt lat="44.24926" lon="1.10529">
        <ele>198.65</ele>
        <time>2015-11-29T10:28:50Z</time>
      </trkpt>
      <trkpt lat="44.2492" lon="1.10523">
        <ele>198.65</ele>
        <time>2015-11-29T10:29:01Z</time>
      </trkpt>
      <trkpt lat="44.24921" lon="1.10522">
        <ele>199.13</ele>
        <time>2015-11-29T10:29:16Z</time>
      </trkpt>
      <trkpt lat="44.24922" lon="1.10522">
        <ele>197.69</ele>
        <time>2015-11-29T10:29:44Z</time>
      </trkpt>
      <trkpt lat="44.24919" lon="1.10523">
        <ele>198.65</ele>
        <time>2015-11-29T10:30:11Z</time>
      </trkpt>
      <trkpt lat="44.24921" lon="1.10522">
        <ele>198.17</ele>
        <time>2015-11-29T10:30:39Z</time>
      </trkpt>
      <trkpt lat="44.24922" lon="1.10523">
        <ele>199.13</ele>
        <time>2015-11-29T10:31:00Z</time>
      </trkpt>
      <trkpt lat="44.24922" lon="1.10523">
        <ele>198.17</ele>
        <time>2015-11-29T10:31:27Z</time>
      </trkpt>
      <trkpt lat="44.24923" lon="1.10525">
        <ele>199.61</ele>
        <time>2015-11-29T10:31:53Z</time>
      </trkpt>
      <trkpt lat="44.24921" lon="1.10521">
        <ele>200.57</ele>
        <time>2015-11-29T10:32:05Z</time>
      </trkpt>
      <trkpt lat="44.2492" lon="1.10519">
        <ele>200.09</ele>
        <time>2015-11-29T10:32:24Z</time>
      </trkpt>
      <trkpt lat="44.24919" lon="1.10517">
        <ele>200.09</ele>
        <time>2015-11-29T10:32:44Z</time>
      </trkpt>
      <trkpt lat="44.24919" lon="1.10518">
        <ele>200.57</ele>
        <time>2015-11-29T10:33:05Z</time>
      </trkpt>
      <trkpt lat="44.24923" lon="1.10524">
        <ele>201.53</ele>
        <time>2015-11-29T10:33:33Z</time>
      </trkpt>
      <trkpt lat="44.24933" lon="1.10522">
        <ele>202.49</ele>
        <time>2015-11-29T10:33:48Z</time>
      </trkpt>
      <trkpt lat="44.24943" lon="1.10524">
        <ele>202.01</ele>
        <time>2015-11-29T10:34:02Z</time>
      </trkpt>
      <trkpt lat="44.24955" lon="1.10527">
        <ele>202.49</ele>
        <time>2015-11-29T10:34:16Z</time>
      </trkpt>
      <trkpt lat="44.24965" lon="1.10536">
        <ele>205.86</ele>
        <time>2015-11-29T10:34:29Z</time>
      </trkpt>
      <trkpt lat="44.24977" lon="1.10545">
        <ele>206.34</ele>
        <time>2015-11-29T10:34:42Z</time>
      </trkpt>
      <trkpt lat="44.24989" lon="1.10556">
        <ele>207.3</ele>
        <time>2015-11-29T10:34:55Z</time>
      </trkpt>
      <trkpt lat="44.2499" lon="1.10558">
        <ele>207.3</ele>
        <time>2015-11-29T10:34:57Z</time>
      </trkpt>
      <trkpt lat="44.24998" lon="1.10567">
        <ele>207.3</ele>
        <time>2015-11-29T10:35:06Z</time>
      </trkpt>
      <trkpt lat="44.25011" lon="1.10576">
        <ele>208.74</ele>
        <time>2015-11-29T10:35:19Z</time>
      </trkpt>
      <trkpt lat="44.25028" lon="1.10583">
        <ele>210.67</ele>
        <time>2015-11-29T10:35:33Z</time>
      </trkpt>
      <trkpt lat="44.25034" lon="1.10586">
        <ele>210.19</ele>
        <time>2015-11-29T10:35:41Z</time>
      </trkpt>
      <trkpt lat="44.25037" lon="1.10589">
        <ele>210.19</ele>
        <time>2015-11-29T10:35:44Z</time>
      </trkpt>
      <trkpt lat="44.25046" lon="1.10607">
        <ele>209.22</ele>
        <time>2015-11-29T10:35:58Z</time>
      </trkpt>
      <trkpt lat="44.25053" lon="1.10625">
        <ele>211.63</ele>
        <time>2015-11-29T10:36:11Z</time>
      </trkpt>
      <trkpt lat="44.25065" lon="1.10646">
        <ele>211.63</ele>
        <time>2015-11-29T10:36:28Z</time>
      </trkpt>
      <trkpt lat="44.25083" lon="1.10659">
        <ele>213.07</ele>
        <time>2015-11-29T10:36:45Z</time>
      </trkpt>
      <trkpt lat="44.25097" lon="1.10667">
        <ele>214.03</ele>
        <time>2015-11-29T10:36:58Z</time>
      </trkpt>
      <trkpt lat="44.25113" lon="1.10673">
        <ele>215.95</ele>
        <time>2015-11-29T10:37:13Z</time>
      </trkpt>
      <trkpt lat="44.25128" lon="1.10679">
        <ele>214.51</ele>
        <time>2015-11-29T10:37:26Z</time>
      </trkpt>
      <trkpt lat="44.25131" lon="1.10681">
        <ele>214.51</ele>
        <time>2015-11-29T10:37:29Z</time>
      </trkpt>
      <trkpt lat="44.25134" lon="1.10681">
        <ele>215.95</ele>
        <time>2015-11-29T10:37:34Z</time>
      </trkpt>
      <trkpt lat="44.25136" lon="1.10682">
        <ele>216.91</ele>
        <time>2015-11-29T10:37:37Z</time>
      </trkpt>
      <trkpt lat="44.2515" lon="1.10684">
        <ele>217.4</ele>
        <time>2015-11-29T10:37:48Z</time>
      </trkpt>
      <trkpt lat="44.25164" lon="1.10689">
        <ele>217.88</ele>
        <time>2015-11-29T10:38:02Z</time>
      </trkpt>
      <trkpt lat="44.25171" lon="1.10689">
        <ele>217.88</ele>
        <time>2015-11-29T10:38:06Z</time>
      </trkpt>
      <trkpt lat="44.25172" lon="1.10688">
        <ele>217.4</ele>
        <time>2015-11-29T10:38:07Z</time>
      </trkpt>
      <trkpt lat="44.25182" lon="1.10682">
        <ele>215.47</ele>
        <time>2015-11-29T10:38:16Z</time>
      </trkpt>
      <trkpt lat="44.25196" lon="1.10694">
        <ele>214.99</ele>
        <time>2015-11-29T10:38:26Z</time>
      </trkpt>
      <trkpt lat="44.25209" lon="1.10694">
        <ele>213.55</ele>
        <time>2015-11-29T10:38:39Z</time>
      </trkpt>
      <trkpt lat="44.25217" lon="1.10694">
        <ele>214.03</ele>
        <time>2015-11-29T10:38:46Z</time>
      </trkpt>
      <trkpt lat="44.2523" lon="1.10695">
        <ele>214.51</ele>
        <time>2015-11-29T10:38:58Z</time>
      </trkpt>
      <trkpt lat="44.25247" lon="1.10693">
        <ele>214.99</ele>
        <time>2015-11-29T10:39:12Z</time>
      </trkpt>
      <trkpt lat="44.25253" lon="1.10692">
        <ele>215.47</ele>
        <time>2015-11-29T10:39:18Z</time>
      </trkpt>
      <trkpt lat="44.25273" lon="1.10692">
        <ele>213.55</ele>
        <time>2015-11-29T10:39:34Z</time>
      </trkpt>
      <trkpt lat="44.25285" lon="1.10693">
        <ele>214.99</ele>
        <time>2015-11-29T10:39:44Z</time>
      </trkpt>
      <trkpt lat="44.25286" lon="1.10692">
        <ele>214.99</ele>
        <time>2015-11-29T10:39:45Z</time>
      </trkpt>
      <trkpt lat="44.25304" lon="1.10692">
        <ele>216.43</ele>
        <time>2015-11-29T10:39:59Z</time>
      </trkpt>
      <trkpt lat="44.25305" lon="1.10691">
        <ele>216.43</ele>
        <time>2015-11-29T10:40:00Z</time>
      </trkpt>
      <trkpt lat="44.25322" lon="1.10692">
        <ele>216.43</ele>
        <time>2015-11-29T10:40:15Z</time>
      </trkpt>
      <trkpt lat="44.2533" lon="1.10692">
        <ele>217.4</ele>
        <time>2015-11-29T10:40:23Z</time>
      </trkpt>
      <trkpt lat="44.25332" lon="1.10693">
        <ele>216.91</ele>
        <time>2015-11-29T10:40:25Z</time>
      </trkpt>
      <trkpt lat="44.25334" lon="1.10693">
        <ele>216.91</ele>
        <time>2015-11-29T10:40:26Z</time>
      </trkpt>
      <trkpt lat="44.25335" lon="1.10693">
        <ele>216.43</ele>
        <time>2015-11-29T10:40:27Z</time>
      </trkpt>
      <trkpt lat="44.25337" lon="1.10693">
        <ele>216.43</ele>
        <time>2015-11-29T10:40:28Z</time>
      </trkpt>
      <trkpt lat="44.25349" lon="1.10695">
        <ele>216.91</ele>
        <time>2015-11-29T10:40:38Z</time>
      </trkpt>
      <trkpt lat="44.25351" lon="1.10695">
        <ele>217.4</ele>
        <time>2015-11-29T10:40:40Z</time>
      </trkpt>
      <trkpt lat="44.25354" lon="1.10695">
        <ele>217.4</ele>
        <time>2015-11-29T10:40:43Z</time>
      </trkpt>
      <trkpt lat="44.25356" lon="1.10695">
        <ele>217.4</ele>
        <time>2015-11-29T10:40:44Z</time>
      </trkpt>
      <trkpt lat="44.25368" lon="1.10698">
        <ele>218.36</ele>
        <time>2015-11-29T10:40:52Z</time>
      </trkpt>
      <trkpt lat="44.25369" lon="1.10699">
        <ele>218.36</ele>
        <time>2015-11-29T10:40:53Z</time>
      </trkpt>
      <trkpt lat="44.25371" lon="1.10699">
        <ele>218.36</ele>
        <time>2015-11-29T10:40:54Z</time>
      </trkpt>
      <trkpt lat="44.25372" lon="1.10698">
        <ele>218.36</ele>
        <time>2015-11-29T10:40:55Z</time>
      </trkpt>
      <trkpt lat="44.25373" lon="1.10698">
        <ele>218.36</ele>
        <time>2015-11-29T10:40:56Z</time>
      </trkpt>
      <trkpt lat="44.25383" lon="1.10701">
        <ele>218.36</ele>
        <time>2015-11-29T10:41:05Z</time>
      </trkpt>
      <trkpt lat="44.2539" lon="1.10701">
        <ele>218.36</ele>
        <time>2015-11-29T10:41:11Z</time>
      </trkpt>
      <trkpt lat="44.25391" lon="1.10701">
        <ele>218.36</ele>
        <time>2015-11-29T10:41:12Z</time>
      </trkpt>
      <trkpt lat="44.25392" lon="1.10702">
        <ele>218.36</ele>
        <time>2015-11-29T10:41:13Z</time>
      </trkpt>
      <trkpt lat="44.25408" lon="1.10704">
        <ele>216.91</ele>
        <time>2015-11-29T10:41:26Z</time>
      </trkpt>
      <trkpt lat="44.25425" lon="1.10705">
        <ele>215.47</ele>
        <time>2015-11-29T10:41:40Z</time>
      </trkpt>
      <trkpt lat="44.25439" lon="1.10707">
        <ele>216.91</ele>
        <time>2015-11-29T10:41:52Z</time>
      </trkpt>
      <trkpt lat="44.25459" lon="1.10714">
        <ele>218.36</ele>
        <time>2015-11-29T10:42:08Z</time>
      </trkpt>
      <trkpt lat="44.25469" lon="1.10718">
        <ele>219.32</ele>
        <time>2015-11-29T10:42:16Z</time>
      </trkpt>
      <trkpt lat="44.2547" lon="1.10719">
        <ele>219.8</ele>
        <time>2015-11-29T10:42:17Z</time>
      </trkpt>
      <trkpt lat="44.25472" lon="1.1072">
        <ele>219.8</ele>
        <time>2015-11-29T10:42:18Z</time>
      </trkpt>
      <trkpt lat="44.25473" lon="1.1072">
        <ele>220.28</ele>
        <time>2015-11-29T10:42:19Z</time>
      </trkpt>
      <trkpt lat="44.25475" lon="1.1072">
        <ele>220.28</ele>
        <time>2015-11-29T10:42:20Z</time>
      </trkpt>
      <trkpt lat="44.25476" lon="1.1072">
        <ele>220.28</ele>
        <time>2015-11-29T10:42:21Z</time>
      </trkpt>
      <trkpt lat="44.25488" lon="1.10722">
        <ele>219.8</ele>
        <time>2015-11-29T10:42:32Z</time>
      </trkpt>
      <trkpt lat="44.25501" lon="1.10721">
        <ele>220.28</ele>
        <time>2015-11-29T10:42:44Z</time>
      </trkpt>
      <trkpt lat="44.25517" lon="1.10716">
        <ele>220.28</ele>
        <time>2015-11-29T10:42:55Z</time>
      </trkpt>
      <trkpt lat="44.25526" lon="1.10713">
        <ele>221.24</ele>
        <time>2015-11-29T10:43:06Z</time>
      </trkpt>
      <trkpt lat="44.25528" lon="1.10714">
        <ele>220.76</ele>
        <time>2015-11-29T10:43:07Z</time>
      </trkpt>
      <trkpt lat="44.25546" lon="1.10723">
        <ele>217.88</ele>
        <time>2015-11-29T10:43:22Z</time>
      </trkpt>
      <trkpt lat="44.2556" lon="1.10732">
        <ele>217.4</ele>
        <time>2015-11-29T10:43:34Z</time>
      </trkpt>
      <trkpt lat="44.25561" lon="1.10733">
        <ele>217.4</ele>
        <time>2015-11-29T10:43:35Z</time>
      </trkpt>
      <trkpt lat="44.25563" lon="1.10733">
        <ele>216.91</ele>
        <time>2015-11-29T10:43:37Z</time>
      </trkpt>
      <trkpt lat="44.25577" lon="1.10741">
        <ele>215.47</ele>
        <time>2015-11-29T10:43:50Z</time>
      </trkpt>
      <trkpt lat="44.25578" lon="1.10741">
        <ele>214.99</ele>
        <time>2015-11-29T10:43:51Z</time>
      </trkpt>
      <trkpt lat="44.25596" lon="1.10752">
        <ele>214.03</ele>
        <time>2015-11-29T10:44:06Z</time>
      </trkpt>
      <trkpt lat="44.25614" lon="1.10761">
        <ele>214.99</ele>
        <time>2015-11-29T10:44:21Z</time>
      </trkpt>
      <trkpt lat="44.25631" lon="1.10769">
        <ele>214.51</ele>
        <time>2015-11-29T10:44:35Z</time>
      </trkpt>
      <trkpt lat="44.25647" lon="1.10779">
        <ele>215.47</ele>
        <time>2015-11-29T10:44:50Z</time>
      </trkpt>
      <trkpt lat="44.25673" lon="1.10794">
        <ele>215.47</ele>
        <time>2015-11-29T10:45:12Z</time>
      </trkpt>
      <trkpt lat="44.25686" lon="1.10805">
        <ele>215.95</ele>
        <time>2015-11-29T10:45:25Z</time>
      </trkpt>
      <trkpt lat="44.25702" lon="1.10814">
        <ele>214.03</ele>
        <time>2015-11-29T10:45:41Z</time>
      </trkpt>
      <trkpt lat="44.25704" lon="1.10814">
        <ele>214.03</ele>
        <time>2015-11-29T10:45:42Z</time>
      </trkpt>
      <trkpt lat="44.25705" lon="1.10814">
        <ele>214.03</ele>
        <time>2015-11-29T10:45:43Z</time>
      </trkpt>
      <trkpt lat="44.25726" lon="1.10809">
        <ele>213.55</ele>
        <time>2015-11-29T10:46:01Z</time>
      </trkpt>
      <trkpt lat="44.2574" lon="1.10812">
        <ele>214.51</ele>
        <time>2015-11-29T10:46:13Z</time>
      </trkpt>
      <trkpt lat="44.25749" lon="1.10817">
        <ele>214.51</ele>
        <time>2015-11-29T10:46:21Z</time>
      </trkpt>
      <trkpt lat="44.2575" lon="1.10818">
        <ele>214.03</ele>
        <time>2015-11-29T10:46:22Z</time>
      </trkpt>
      <trkpt lat="44.25752" lon="1.10819">
        <ele>214.03</ele>
        <time>2015-11-29T10:46:23Z</time>
      </trkpt>
      <trkpt lat="44.25771" lon="1.10828">
        <ele>214.03</ele>
        <time>2015-11-29T10:46:39Z</time>
      </trkpt>
      <trkpt lat="44.25786" lon="1.10835">
        <ele>214.03</ele>
        <time>2015-11-29T10:46:52Z</time>
      </trkpt>
      <trkpt lat="44.25805" lon="1.10845">
        <ele>213.07</ele>
        <time>2015-11-29T10:47:09Z</time>
      </trkpt>
      <trkpt lat="44.25814" lon="1.10852">
        <ele>213.07</ele>
        <time>2015-11-29T10:47:18Z</time>
      </trkpt>
      <trkpt lat="44.25815" lon="1.10854">
        <ele>213.07</ele>
        <time>2015-11-29T10:47:19Z</time>
      </trkpt>
      <trkpt lat="44.25816" lon="1.10855">
        <ele>212.59</ele>
        <time>2015-11-29T10:47:20Z</time>
      </trkpt>
      <trkpt lat="44.25817" lon="1.10856">
        <ele>212.59</ele>
        <time>2015-11-29T10:47:21Z</time>
      </trkpt>
      <trkpt lat="44.25818" lon="1.10857">
        <ele>212.11</ele>
        <time>2015-11-29T10:47:22Z</time>
      </trkpt>
      <trkpt lat="44.25822" lon="1.1086">
        <ele>209.22</ele>
        <time>2015-11-29T10:47:35Z</time>
      </trkpt>
      <trkpt lat="44.25827" lon="1.10858">
        <ele>210.67</ele>
        <time>2015-11-29T10:47:45Z</time>
      </trkpt>
      <trkpt lat="44.25839" lon="1.10853">
        <ele>211.15</ele>
        <time>2015-11-29T10:47:56Z</time>
      </trkpt>
      <trkpt lat="44.25854" lon="1.10853">
        <ele>214.03</ele>
        <time>2015-11-29T10:48:10Z</time>
      </trkpt>
      <trkpt lat="44.25868" lon="1.10848">
        <ele>214.51</ele>
        <time>2015-11-29T10:48:23Z</time>
      </trkpt>
      <trkpt lat="44.25886" lon="1.10843">
        <ele>215.47</ele>
        <time>2015-11-29T10:48:38Z</time>
      </trkpt>
      <trkpt lat="44.25905" lon="1.1084">
        <ele>216.91</ele>
        <time>2015-11-29T10:48:55Z</time>
      </trkpt>
      <trkpt lat="44.25922" lon="1.1084">
        <ele>216.43</ele>
        <time>2015-11-29T10:49:10Z</time>
      </trkpt>
      <trkpt lat="44.25934" lon="1.10838">
        <ele>216.43</ele>
        <time>2015-11-29T10:49:20Z</time>
      </trkpt>
      <trkpt lat="44.25935" lon="1.10838">
        <ele>216.43</ele>
        <time>2015-11-29T10:49:21Z</time>
      </trkpt>
      <trkpt lat="44.25942" lon="1.10837">
        <ele>217.4</ele>
        <time>2015-11-29T10:49:28Z</time>
      </trkpt>
      <trkpt lat="44.25962" lon="1.10831">
        <ele>217.88</ele>
        <time>2015-11-29T10:49:45Z</time>
      </trkpt>
      <trkpt lat="44.25978" lon="1.10824">
        <ele>218.84</ele>
        <time>2015-11-29T10:50:00Z</time>
      </trkpt>
      <trkpt lat="44.25995" lon="1.10814">
        <ele>220.28</ele>
        <time>2015-11-29T10:50:17Z</time>
      </trkpt>
      <trkpt lat="44.26013" lon="1.10804">
        <ele>219.32</ele>
        <time>2015-11-29T10:50:34Z</time>
      </trkpt>
      <trkpt lat="44.26029" lon="1.108">
        <ele>218.84</ele>
        <time>2015-11-29T10:50:48Z</time>
      </trkpt>
      <trkpt lat="44.26041" lon="1.10803">
        <ele>218.84</ele>
        <time>2015-11-29T10:51:01Z</time>
      </trkpt>
      <trkpt lat="44.26055" lon="1.10809">
        <ele>215.95</ele>
        <time>2015-11-29T10:51:17Z</time>
      </trkpt>
      <trkpt lat="44.26071" lon="1.1081">
        <ele>214.99</ele>
        <time>2015-11-29T10:51:31Z</time>
      </trkpt>
      <trkpt lat="44.26086" lon="1.10813">
        <ele>216.43</ele>
        <time>2015-11-29T10:51:44Z</time>
      </trkpt>
      <trkpt lat="44.26101" lon="1.10817">
        <ele>217.88</ele>
        <time>2015-11-29T10:51:58Z</time>
      </trkpt>
      <trkpt lat="44.26114" lon="1.10819">
        <ele>217.4</ele>
        <time>2015-11-29T10:52:12Z</time>
      </trkpt>
      <trkpt lat="44.2613" lon="1.10823">
        <ele>217.4</ele>
        <time>2015-11-29T10:52:27Z</time>
      </trkpt>
      <trkpt lat="44.2614" lon="1.10825">
        <ele>215.95</ele>
        <time>2015-11-29T10:52:41Z</time>
      </trkpt>
      <trkpt lat="44.26151" lon="1.10827">
        <ele>213.07</ele>
        <time>2015-11-29T10:52:53Z</time>
      </trkpt>
      <trkpt lat="44.26165" lon="1.10831">
        <ele>210.19</ele>
        <time>2015-11-29T10:53:05Z</time>
      </trkpt>
      <trkpt lat="44.26182" lon="1.10837">
        <ele>211.63</ele>
        <time>2015-11-29T10:53:20Z</time>
      </trkpt>
      <trkpt lat="44.26197" lon="1.10841">
        <ele>212.11</ele>
        <time>2015-11-29T10:53:33Z</time>
      </trkpt>
      <trkpt lat="44.26219" lon="1.10845">
        <ele>210.67</ele>
        <time>2015-11-29T10:53:49Z</time>
      </trkpt>
      <trkpt lat="44.26238" lon="1.10847">
        <ele>210.19</ele>
        <time>2015-11-29T10:54:04Z</time>
      </trkpt>
      <trkpt lat="44.26263" lon="1.10845">
        <ele>213.55</ele>
        <time>2015-11-29T10:54:21Z</time>
      </trkpt>
      <trkpt lat="44.26269" lon="1.10843">
        <ele>214.51</ele>
        <time>2015-11-29T10:54:26Z</time>
      </trkpt>
      <trkpt lat="44.26271" lon="1.10842">
        <ele>214.51</ele>
        <time>2015-11-29T10:54:27Z</time>
      </trkpt>
      <trkpt lat="44.26276" lon="1.10844">
        <ele>214.51</ele>
        <time>2015-11-29T10:54:32Z</time>
      </trkpt>
      <trkpt lat="44.26294" lon="1.10851">
        <ele>213.55</ele>
        <time>2015-11-29T10:54:47Z</time>
      </trkpt>
      <trkpt lat="44.26311" lon="1.10855">
        <ele>214.99</ele>
        <time>2015-11-29T10:55:00Z</time>
      </trkpt>
      <trkpt lat="44.26329" lon="1.10857">
        <ele>216.91</ele>
        <time>2015-11-29T10:55:15Z</time>
      </trkpt>
      <trkpt lat="44.26346" lon="1.10861">
        <ele>217.88</ele>
        <time>2015-11-29T10:55:30Z</time>
      </trkpt>
      <trkpt lat="44.26364" lon="1.10863">
        <ele>218.84</ele>
        <time>2015-11-29T10:55:46Z</time>
      </trkpt>
      <trkpt lat="44.26381" lon="1.10863">
        <ele>220.28</ele>
        <time>2015-11-29T10:56:00Z</time>
      </trkpt>
      <trkpt lat="44.264" lon="1.10862">
        <ele>221.72</ele>
        <time>2015-11-29T10:56:17Z</time>
      </trkpt>
      <trkpt lat="44.26414" lon="1.10861">
        <ele>222.68</ele>
        <time>2015-11-29T10:56:30Z</time>
      </trkpt>
      <trkpt lat="44.26436" lon="1.10858">
        <ele>222.2</ele>
        <time>2015-11-29T10:56:48Z</time>
      </trkpt>
      <trkpt lat="44.26455" lon="1.10854">
        <ele>221.72</ele>
        <time>2015-11-29T10:57:05Z</time>
      </trkpt>
      <trkpt lat="44.2646" lon="1.10852">
        <ele>221.24</ele>
        <time>2015-11-29T10:57:09Z</time>
      </trkpt>
      <trkpt lat="44.26461" lon="1.10852">
        <ele>221.24</ele>
        <time>2015-11-29T10:57:10Z</time>
      </trkpt>
      <trkpt lat="44.26462" lon="1.10852">
        <ele>221.24</ele>
        <time>2015-11-29T10:57:11Z</time>
      </trkpt>
      <trkpt lat="44.26463" lon="1.10852">
        <ele>221.24</ele>
        <time>2015-11-29T10:57:12Z</time>
      </trkpt>
      <trkpt lat="44.26465" lon="1.10852">
        <ele>221.24</ele>
        <time>2015-11-29T10:57:13Z</time>
      </trkpt>
      <trkpt lat="44.26483" lon="1.10848">
        <ele>220.76</ele>
        <time>2015-11-29T10:57:29Z</time>
      </trkpt>
      <trkpt lat="44.26502" lon="1.10844">
        <ele>220.28</ele>
        <time>2015-11-29T10:57:45Z</time>
      </trkpt>
      <trkpt lat="44.26518" lon="1.1084">
        <ele>219.32</ele>
        <time>2015-11-29T10:57:59Z</time>
      </trkpt>
      <trkpt lat="44.26537" lon="1.10832">
        <ele>218.36</ele>
        <time>2015-11-29T10:58:15Z</time>
      </trkpt>
      <trkpt lat="44.26553" lon="1.10825">
        <ele>217.4</ele>
        <time>2015-11-29T10:58:30Z</time>
      </trkpt>
      <trkpt lat="44.26567" lon="1.10813">
        <ele>216.91</ele>
        <time>2015-11-29T10:58:44Z</time>
      </trkpt>
      <trkpt lat="44.2658" lon="1.10802">
        <ele>215.95</ele>
        <time>2015-11-29T10:58:59Z</time>
      </trkpt>
      <trkpt lat="44.26594" lon="1.10788">
        <ele>214.03</ele>
        <time>2015-11-29T10:59:15Z</time>
      </trkpt>
      <trkpt lat="44.26609" lon="1.1077">
        <ele>214.51</ele>
        <time>2015-11-29T10:59:31Z</time>
      </trkpt>
      <trkpt lat="44.26622" lon="1.10756">
        <ele>215.95</ele>
        <time>2015-11-29T10:59:45Z</time>
      </trkpt>
      <trkpt lat="44.26634" lon="1.10744">
        <ele>216.43</ele>
        <time>2015-11-29T10:59:57Z</time>
      </trkpt>
      <trkpt lat="44.26649" lon="1.10732">
        <ele>217.4</ele>
        <time>2015-11-29T11:00:12Z</time>
      </trkpt>
      <trkpt lat="44.26665" lon="1.10721">
        <ele>217.4</ele>
        <time>2015-11-29T11:00:27Z</time>
      </trkpt>
      <trkpt lat="44.2668" lon="1.10712">
        <ele>217.4</ele>
        <time>2015-11-29T11:00:41Z</time>
      </trkpt>
      <trkpt lat="44.26695" lon="1.10703">
        <ele>218.36</ele>
        <time>2015-11-29T11:00:56Z</time>
      </trkpt>
      <trkpt lat="44.26709" lon="1.10697">
        <ele>219.8</ele>
        <time>2015-11-29T11:01:10Z</time>
      </trkpt>
      <trkpt lat="44.26723" lon="1.10691">
        <ele>219.32</ele>
        <time>2015-11-29T11:01:26Z</time>
      </trkpt>
      <trkpt lat="44.26736" lon="1.10686">
        <ele>219.32</ele>
        <time>2015-11-29T11:01:39Z</time>
      </trkpt>
      <trkpt lat="44.26749" lon="1.10681">
        <ele>219.32</ele>
        <time>2015-11-29T11:01:52Z</time>
      </trkpt>
      <trkpt lat="44.26758" lon="1.10676">
        <ele>218.84</ele>
        <time>2015-11-29T11:02:02Z</time>
      </trkpt>
      <trkpt lat="44.26772" lon="1.1067">
        <ele>220.28</ele>
        <time>2015-11-29T11:02:16Z</time>
      </trkpt>
      <trkpt lat="44.26785" lon="1.10664">
        <ele>220.76</ele>
        <time>2015-11-29T11:02:30Z</time>
      </trkpt>
      <trkpt lat="44.26799" lon="1.10656">
        <ele>221.24</ele>
        <time>2015-11-29T11:02:45Z</time>
      </trkpt>
      <trkpt lat="44.26813" lon="1.1065">
        <ele>221.24</ele>
        <time>2015-11-29T11:02:59Z</time>
      </trkpt>
      <trkpt lat="44.26827" lon="1.10643">
        <ele>221.72</ele>
        <time>2015-11-29T11:03:13Z</time>
      </trkpt>
      <trkpt lat="44.26841" lon="1.10637">
        <ele>222.68</ele>
        <time>2015-11-29T11:03:26Z</time>
      </trkpt>
      <trkpt lat="44.26854" lon="1.1063">
        <ele>222.68</ele>
        <time>2015-11-29T11:03:40Z</time>
      </trkpt>
      <trkpt lat="44.26869" lon="1.10623">
        <ele>222.68</ele>
        <time>2015-11-29T11:03:54Z</time>
      </trkpt>
      <trkpt lat="44.26883" lon="1.10616">
        <ele>223.16</ele>
        <time>2015-11-29T11:04:08Z</time>
      </trkpt>
      <trkpt lat="44.26894" lon="1.10609">
        <ele>223.16</ele>
        <time>2015-11-29T11:04:21Z</time>
      </trkpt>
      <trkpt lat="44.26907" lon="1.10604">
        <ele>223.16</ele>
        <time>2015-11-29T11:04:34Z</time>
      </trkpt>
      <trkpt lat="44.26915" lon="1.10608">
        <ele>222.2</ele>
        <time>2015-11-29T11:04:46Z</time>
      </trkpt>
      <trkpt lat="44.26917" lon="1.10612">
        <ele>222.2</ele>
        <time>2015-11-29T11:05:00Z</time>
      </trkpt>
      <trkpt lat="44.26917" lon="1.10614">
        <ele>223.16</ele>
        <time>2015-11-29T11:05:29Z</time>
      </trkpt>
      <trkpt lat="44.26916" lon="1.10614">
        <ele>223.64</ele>
        <time>2015-11-29T11:05:45Z</time>
      </trkpt>
      <trkpt lat="44.26916" lon="1.10615">
        <ele>222.68</ele>
        <time>2015-11-29T11:06:02Z</time>
      </trkpt>
      <trkpt lat="44.26916" lon="1.10613">
        <ele>222.2</ele>
        <time>2015-11-29T11:06:20Z</time>
      </trkpt>
      <trkpt lat="44.26918" lon="1.10617">
        <ele>222.2</ele>
        <time>2015-11-29T11:06:41Z</time>
      </trkpt>
      <trkpt lat="44.26917" lon="1.10615">
        <ele>221.72</ele>
        <time>2015-11-29T11:06:59Z</time>
      </trkpt>
      <trkpt lat="44.26916" lon="1.10614">
        <ele>221.24</ele>
        <time>2015-11-29T11:07:35Z</time>
      </trkpt>
      <trkpt lat="44.26917" lon="1.10615">
        <ele>221.72</ele>
        <time>2015-11-29T11:07:54Z</time>
      </trkpt>
      <trkpt lat="44.26917" lon="1.10615">
        <ele>223.16</ele>
        <time>2015-11-29T11:08:21Z</time>
      </trkpt>
      <trkpt lat="44.26917" lon="1.10618">
        <ele>223.64</ele>
        <time>2015-11-29T11:08:51Z</time>
      </trkpt>
      <trkpt lat="44.26919" lon="1.10622">
        <ele>223.64</ele>
        <time>2015-11-29T11:08:56Z</time>
      </trkpt>
      <trkpt lat="44.2692" lon="1.10623">
        <ele>223.64</ele>
        <time>2015-11-29T11:08:57Z</time>
      </trkpt>
      <trkpt lat="44.2692" lon="1.10625">
        <ele>223.64</ele>
        <time>2015-11-29T11:08:58Z</time>
      </trkpt>
      <trkpt lat="44.2693" lon="1.10647">
        <ele>221.24</ele>
        <time>2015-11-29T11:09:15Z</time>
      </trkpt>
      <trkpt lat="44.26932" lon="1.10648">
        <ele>220.28</ele>
        <time>2015-11-29T11:09:17Z</time>
      </trkpt>
      <trkpt lat="44.26936" lon="1.10651">
        <ele>219.32</ele>
        <time>2015-11-29T11:09:21Z</time>
      </trkpt>
      <trkpt lat="44.26944" lon="1.10665">
        <ele>221.72</ele>
        <time>2015-11-29T11:09:32Z</time>
      </trkpt>
      <trkpt lat="44.26961" lon="1.10684">
        <ele>221.24</ele>
        <time>2015-11-29T11:09:49Z</time>
      </trkpt>
      <trkpt lat="44.26982" lon="1.10705">
        <ele>220.28</ele>
        <time>2015-11-29T11:10:12Z</time>
      </trkpt>
      <trkpt lat="44.26988" lon="1.1071">
        <ele>219.32</ele>
        <time>2015-11-29T11:10:16Z</time>
      </trkpt>
      <trkpt lat="44.26989" lon="1.10711">
        <ele>219.32</ele>
        <time>2015-11-29T11:10:17Z</time>
      </trkpt>
      <trkpt lat="44.27002" lon="1.10723">
        <ele>219.8</ele>
        <time>2015-11-29T11:10:31Z</time>
      </trkpt>
      <trkpt lat="44.27018" lon="1.10736">
        <ele>221.72</ele>
        <time>2015-11-29T11:10:46Z</time>
      </trkpt>
      <trkpt lat="44.27029" lon="1.10744">
        <ele>222.68</ele>
        <time>2015-11-29T11:10:58Z</time>
      </trkpt>
      <trkpt lat="44.27046" lon="1.10758">
        <ele>221.72</ele>
        <time>2015-11-29T11:11:13Z</time>
      </trkpt>
      <trkpt lat="44.27062" lon="1.10775">
        <ele>220.76</ele>
        <time>2015-11-29T11:11:31Z</time>
      </trkpt>
      <trkpt lat="44.27064" lon="1.10779">
        <ele>220.76</ele>
        <time>2015-11-29T11:11:34Z</time>
      </trkpt>
      <trkpt lat="44.27065" lon="1.1078">
        <ele>220.76</ele>
        <time>2015-11-29T11:11:35Z</time>
      </trkpt>
      <trkpt lat="44.27067" lon="1.10781">
        <ele>220.28</ele>
        <time>2015-11-29T11:11:36Z</time>
      </trkpt>
      <trkpt lat="44.27068" lon="1.10783">
        <ele>220.28</ele>
        <time>2015-11-29T11:11:37Z</time>
      </trkpt>
      <trkpt lat="44.27069" lon="1.10784">
        <ele>220.28</ele>
        <time>2015-11-29T11:11:38Z</time>
      </trkpt>
      <trkpt lat="44.27086" lon="1.10804">
        <ele>218.36</ele>
        <time>2015-11-29T11:11:54Z</time>
      </trkpt>
      <trkpt lat="44.27096" lon="1.10819">
        <ele>217.88</ele>
        <time>2015-11-29T11:12:08Z</time>
      </trkpt>
      <trkpt lat="44.27107" lon="1.10829">
        <ele>220.76</ele>
        <time>2015-11-29T11:12:22Z</time>
      </trkpt>
      <trkpt lat="44.27125" lon="1.10842">
        <ele>221.24</ele>
        <time>2015-11-29T11:12:38Z</time>
      </trkpt>
      <trkpt lat="44.27143" lon="1.10857">
        <ele>221.72</ele>
        <time>2015-11-29T11:12:57Z</time>
      </trkpt>
      <trkpt lat="44.27163" lon="1.10872">
        <ele>220.76</ele>
        <time>2015-11-29T11:13:12Z</time>
      </trkpt>
      <trkpt lat="44.27179" lon="1.10888">
        <ele>222.2</ele>
        <time>2015-11-29T11:13:27Z</time>
      </trkpt>
      <trkpt lat="44.27194" lon="1.10905">
        <ele>223.64</ele>
        <time>2015-11-29T11:13:43Z</time>
      </trkpt>
      <trkpt lat="44.27212" lon="1.10927">
        <ele>224.12</ele>
        <time>2015-11-29T11:14:01Z</time>
      </trkpt>
      <trkpt lat="44.2723" lon="1.10945">
        <ele>224.61</ele>
        <time>2015-11-29T11:14:19Z</time>
      </trkpt>
      <trkpt lat="44.27247" lon="1.10964">
        <ele>224.61</ele>
        <time>2015-11-29T11:14:37Z</time>
      </trkpt>
      <trkpt lat="44.27265" lon="1.10983">
        <ele>225.09</ele>
        <time>2015-11-29T11:14:55Z</time>
      </trkpt>
      <trkpt lat="44.27285" lon="1.11003">
        <ele>225.57</ele>
        <time>2015-11-29T11:15:15Z</time>
      </trkpt>
      <trkpt lat="44.27302" lon="1.11015">
        <ele>228.45</ele>
        <time>2015-11-29T11:15:31Z</time>
      </trkpt>
      <trkpt lat="44.27316" lon="1.11026">
        <ele>230.37</ele>
        <time>2015-11-29T11:15:46Z</time>
      </trkpt>
      <trkpt lat="44.27321" lon="1.11029">
        <ele>230.37</ele>
        <time>2015-11-29T11:15:50Z</time>
      </trkpt>
      <trkpt lat="44.27322" lon="1.1103">
        <ele>230.37</ele>
        <time>2015-11-29T11:15:51Z</time>
      </trkpt>
      <trkpt lat="44.27324" lon="1.1103">
        <ele>230.37</ele>
        <time>2015-11-29T11:15:52Z</time>
      </trkpt>
      <trkpt lat="44.27327" lon="1.11033">
        <ele>230.37</ele>
        <time>2015-11-29T11:15:55Z</time>
      </trkpt>
      <trkpt lat="44.27328" lon="1.11034">
        <ele>230.37</ele>
        <time>2015-11-29T11:15:56Z</time>
      </trkpt>
      <trkpt lat="44.27344" lon="1.11043">
        <ele>230.37</ele>
        <time>2015-11-29T11:16:10Z</time>
      </trkpt>
      <trkpt lat="44.27359" lon="1.1105">
        <ele>232.3</ele>
        <time>2015-11-29T11:16:24Z</time>
      </trkpt>
      <trkpt lat="44.27377" lon="1.11058">
        <ele>232.78</ele>
        <time>2015-11-29T11:16:40Z</time>
      </trkpt>
      <trkpt lat="44.27393" lon="1.11066">
        <ele>234.22</ele>
        <time>2015-11-29T11:16:55Z</time>
      </trkpt>
      <trkpt lat="44.27405" lon="1.11074">
        <ele>234.22</ele>
        <time>2015-11-29T11:17:09Z</time>
      </trkpt>
      <trkpt lat="44.27406" lon="1.11075">
        <ele>234.22</ele>
        <time>2015-11-29T11:17:10Z</time>
      </trkpt>
      <trkpt lat="44.27423" lon="1.1108">
        <ele>234.7</ele>
        <time>2015-11-29T11:17:25Z</time>
      </trkpt>
      <trkpt lat="44.27436" lon="1.11087">
        <ele>234.22</ele>
        <time>2015-11-29T11:17:40Z</time>
      </trkpt>
      <trkpt lat="44.27437" lon="1.11087">
        <ele>234.22</ele>
        <time>2015-11-29T11:17:57Z</time>
      </trkpt>
      <trkpt lat="44.27451" lon="1.11091">
        <ele>233.74</ele>
        <time>2015-11-29T11:18:10Z</time>
      </trkpt>
      <trkpt lat="44.27473" lon="1.11102">
        <ele>230.85</ele>
        <time>2015-11-29T11:18:28Z</time>
      </trkpt>
      <trkpt lat="44.27495" lon="1.11114">
        <ele>230.85</ele>
        <time>2015-11-29T11:18:44Z</time>
      </trkpt>
      <trkpt lat="44.27519" lon="1.11132">
        <ele>231.81</ele>
        <time>2015-11-29T11:19:05Z</time>
      </trkpt>
      <trkpt lat="44.27525" lon="1.11137">
        <ele>231.81</ele>
        <time>2015-11-29T11:19:10Z</time>
      </trkpt>
      <trkpt lat="44.2755" lon="1.11154">
        <ele>232.3</ele>
        <time>2015-11-29T11:19:30Z</time>
      </trkpt>
      <trkpt lat="44.27573" lon="1.11172">
        <ele>231.81</ele>
        <time>2015-11-29T11:19:48Z</time>
      </trkpt>
      <trkpt lat="44.27598" lon="1.11192">
        <ele>233.26</ele>
        <time>2015-11-29T11:20:08Z</time>
      </trkpt>
      <trkpt lat="44.27622" lon="1.11211">
        <ele>234.22</ele>
        <time>2015-11-29T11:20:29Z</time>
      </trkpt>
      <trkpt lat="44.27642" lon="1.11228">
        <ele>237.1</ele>
        <time>2015-11-29T11:20:48Z</time>
      </trkpt>
      <trkpt lat="44.27661" lon="1.11244">
        <ele>238.06</ele>
        <time>2015-11-29T11:21:07Z</time>
      </trkpt>
      <trkpt lat="44.27675" lon="1.11257">
        <ele>238.54</ele>
        <time>2015-11-29T11:21:23Z</time>
      </trkpt>
      <trkpt lat="44.27683" lon="1.11262">
        <ele>239.02</ele>
        <time>2015-11-29T11:21:37Z</time>
      </trkpt>
      <trkpt lat="44.27697" lon="1.11271">
        <ele>238.06</ele>
        <time>2015-11-29T11:21:52Z</time>
      </trkpt>
      <trkpt lat="44.27721" lon="1.11286">
        <ele>237.58</ele>
        <time>2015-11-29T11:22:13Z</time>
      </trkpt>
      <trkpt lat="44.27738" lon="1.11299">
        <ele>235.66</ele>
        <time>2015-11-29T11:22:29Z</time>
      </trkpt>
      <trkpt lat="44.27754" lon="1.11315">
        <ele>233.74</ele>
        <time>2015-11-29T11:22:45Z</time>
      </trkpt>
      <trkpt lat="44.27755" lon="1.11316">
        <ele>233.74</ele>
        <time>2015-11-29T11:22:46Z</time>
      </trkpt>
      <trkpt lat="44.27756" lon="1.11317">
        <ele>233.74</ele>
        <time>2015-11-29T11:22:47Z</time>
      </trkpt>
      <trkpt lat="44.27756" lon="1.11318">
        <ele>233.74</ele>
        <time>2015-11-29T11:22:48Z</time>
      </trkpt>
      <trkpt lat="44.27757" lon="1.11319">
        <ele>233.74</ele>
        <time>2015-11-29T11:22:49Z</time>
      </trkpt>
      <trkpt lat="44.27758" lon="1.1132">
        <ele>233.26</ele>
        <time>2015-11-29T11:22:50Z</time>
      </trkpt>
      <trkpt lat="44.27776" lon="1.11338">
        <ele>232.78</ele>
        <time>2015-11-29T11:23:07Z</time>
      </trkpt>
      <trkpt lat="44.27793" lon="1.11355">
        <ele>232.3</ele>
        <time>2015-11-29T11:23:23Z</time>
      </trkpt>
      <trkpt lat="44.27817" lon="1.11369">
        <ele>231.81</ele>
        <time>2015-11-29T11:23:45Z</time>
      </trkpt>
      <trkpt lat="44.27829" lon="1.11373">
        <ele>233.26</ele>
        <time>2015-11-29T11:24:02Z</time>
      </trkpt>
      <trkpt lat="44.27829" lon="1.11377">
        <ele>232.78</ele>
        <time>2015-11-29T11:24:19Z</time>
      </trkpt>
      <trkpt lat="44.27839" lon="1.11376">
        <ele>232.3</ele>
        <time>2015-11-29T11:24:36Z</time>
      </trkpt>
      <trkpt lat="44.27864" lon="1.11377">
        <ele>231.81</ele>
        <time>2015-11-29T11:24:57Z</time>
      </trkpt>
      <trkpt lat="44.2789" lon="1.1138">
        <ele>232.3</ele>
        <time>2015-11-29T11:25:18Z</time>
      </trkpt>
      <trkpt lat="44.27916" lon="1.11377">
        <ele>228.93</ele>
        <time>2015-11-29T11:25:39Z</time>
      </trkpt>
      <trkpt lat="44.27942" lon="1.11366">
        <ele>229.41</ele>
        <time>2015-11-29T11:26:01Z</time>
      </trkpt>
      <trkpt lat="44.27971" lon="1.11367">
        <ele>227.97</ele>
        <time>2015-11-29T11:26:23Z</time>
      </trkpt>
      <trkpt lat="44.27997" lon="1.11376">
        <ele>227.01</ele>
        <time>2015-11-29T11:26:45Z</time>
      </trkpt>
      <trkpt lat="44.28017" lon="1.11385">
        <ele>226.05</ele>
        <time>2015-11-29T11:27:04Z</time>
      </trkpt>
      <trkpt lat="44.28034" lon="1.1139">
        <ele>226.05</ele>
        <time>2015-11-29T11:27:19Z</time>
      </trkpt>
      <trkpt lat="44.28042" lon="1.11392">
        <ele>225.57</ele>
        <time>2015-11-29T11:27:34Z</time>
      </trkpt>
      <trkpt lat="44.2806" lon="1.11399">
        <ele>223.16</ele>
        <time>2015-11-29T11:27:51Z</time>
      </trkpt>
      <trkpt lat="44.28079" lon="1.11405">
        <ele>223.16</ele>
        <time>2015-11-29T11:28:07Z</time>
      </trkpt>
      <trkpt lat="44.28093" lon="1.11411">
        <ele>219.8</ele>
        <time>2015-11-29T11:28:21Z</time>
      </trkpt>
      <trkpt lat="44.28106" lon="1.11415">
        <ele>219.8</ele>
        <time>2015-11-29T11:28:33Z</time>
      </trkpt>
      <trkpt lat="44.28126" lon="1.11422">
        <ele>221.24</ele>
        <time>2015-11-29T11:28:48Z</time>
      </trkpt>
      <trkpt lat="44.28145" lon="1.1143">
        <ele>221.72</ele>
        <time>2015-11-29T11:29:04Z</time>
      </trkpt>
      <trkpt lat="44.2816" lon="1.11436">
        <ele>221.24</ele>
        <time>2015-11-29T11:29:17Z</time>
      </trkpt>
      <trkpt lat="44.2818" lon="1.11444">
        <ele>223.16</ele>
        <time>2015-11-29T11:29:33Z</time>
      </trkpt>
      <trkpt lat="44.28199" lon="1.11453">
        <ele>223.64</ele>
        <time>2015-11-29T11:29:48Z</time>
      </trkpt>
      <trkpt lat="44.28215" lon="1.11461">
        <ele>223.16</ele>
        <time>2015-11-29T11:30:04Z</time>
      </trkpt>
      <trkpt lat="44.28232" lon="1.11471">
        <ele>223.16</ele>
        <time>2015-11-29T11:30:18Z</time>
      </trkpt>
      <trkpt lat="44.28249" lon="1.11483">
        <ele>224.61</ele>
        <time>2015-11-29T11:30:34Z</time>
      </trkpt>
      <trkpt lat="44.28271" lon="1.11497">
        <ele>225.09</ele>
        <time>2015-11-29T11:30:52Z</time>
      </trkpt>
      <trkpt lat="44.28292" lon="1.11512">
        <ele>227.49</ele>
        <time>2015-11-29T11:31:11Z</time>
      </trkpt>
      <trkpt lat="44.28311" lon="1.11526">
        <ele>227.97</ele>
        <time>2015-11-29T11:31:29Z</time>
      </trkpt>
      <trkpt lat="44.28329" lon="1.11542">
        <ele>227.01</ele>
        <time>2015-11-29T11:31:46Z</time>
      </trkpt>
      <trkpt lat="44.28351" lon="1.11561">
        <ele>228.45</ele>
        <time>2015-11-29T11:32:07Z</time>
      </trkpt>
      <trkpt lat="44.2837" lon="1.11577">
        <ele>228.93</ele>
        <time>2015-11-29T11:32:26Z</time>
      </trkpt>
      <trkpt lat="44.28391" lon="1.11594">
        <ele>229.41</ele>
        <time>2015-11-29T11:32:47Z</time>
      </trkpt>
      <trkpt lat="44.2841" lon="1.1161">
        <ele>229.89</ele>
        <time>2015-11-29T11:33:06Z</time>
      </trkpt>
      <trkpt lat="44.28428" lon="1.11627">
        <ele>231.33</ele>
        <time>2015-11-29T11:33:26Z</time>
      </trkpt>
      <trkpt lat="44.28446" lon="1.1164">
        <ele>233.26</ele>
        <time>2015-11-29T11:33:43Z</time>
      </trkpt>
      <trkpt lat="44.28462" lon="1.11649">
        <ele>234.7</ele>
        <time>2015-11-29T11:33:58Z</time>
      </trkpt>
      <trkpt lat="44.28483" lon="1.11662">
        <ele>235.18</ele>
        <time>2015-11-29T11:34:17Z</time>
      </trkpt>
      <trkpt lat="44.28503" lon="1.11675">
        <ele>235.66</ele>
        <time>2015-11-29T11:34:36Z</time>
      </trkpt>
      <trkpt lat="44.28524" lon="1.11691">
        <ele>235.18</ele>
        <time>2015-11-29T11:34:57Z</time>
      </trkpt>
      <trkpt lat="44.28543" lon="1.11705">
        <ele>235.18</ele>
        <time>2015-11-29T11:35:15Z</time>
      </trkpt>
      <trkpt lat="44.28563" lon="1.11719">
        <ele>236.62</ele>
        <time>2015-11-29T11:35:34Z</time>
      </trkpt>
      <trkpt lat="44.28581" lon="1.11732">
        <ele>237.58</ele>
        <time>2015-11-29T11:35:52Z</time>
      </trkpt>
      <trkpt lat="44.28596" lon="1.11741">
        <ele>238.06</ele>
        <time>2015-11-29T11:36:07Z</time>
      </trkpt>
      <trkpt lat="44.28611" lon="1.1175">
        <ele>236.62</ele>
        <time>2015-11-29T11:36:22Z</time>
      </trkpt>
      <trkpt lat="44.28618" lon="1.11768">
        <ele>235.18</ele>
        <time>2015-11-29T11:36:38Z</time>
      </trkpt>
      <trkpt lat="44.28616" lon="1.11772">
        <ele>235.18</ele>
        <time>2015-11-29T11:36:41Z</time>
      </trkpt>
      <trkpt lat="44.28615" lon="1.11775">
        <ele>235.66</ele>
        <time>2015-11-29T11:36:44Z</time>
      </trkpt>
      <trkpt lat="44.28609" lon="1.11794">
        <ele>234.7</ele>
        <time>2015-11-29T11:36:59Z</time>
      </trkpt>
      <trkpt lat="44.28603" lon="1.11816">
        <ele>233.26</ele>
        <time>2015-11-29T11:37:15Z</time>
      </trkpt>
      <trkpt lat="44.28597" lon="1.11838">
        <ele>229.41</ele>
        <time>2015-11-29T11:37:32Z</time>
      </trkpt>
      <trkpt lat="44.2859" lon="1.11857">
        <ele>229.89</ele>
        <time>2015-11-29T11:37:47Z</time>
      </trkpt>
      <trkpt lat="44.28587" lon="1.11867">
        <ele>234.22</ele>
        <time>2015-11-29T11:38:06Z</time>
      </trkpt>
      <trkpt lat="44.28587" lon="1.11869">
        <ele>237.58</ele>
        <time>2015-11-29T11:38:28Z</time>
      </trkpt>
      <trkpt lat="44.28588" lon="1.1187">
        <ele>234.7</ele>
        <time>2015-11-29T12:28:09Z</time>
      </trkpt>
      <trkpt lat="44.28596" lon="1.1186">
        <ele>235.66</ele>
        <time>2015-11-29T12:28:23Z</time>
      </trkpt>
      <trkpt lat="44.28603" lon="1.1185">
        <ele>233.26</ele>
        <time>2015-11-29T12:28:37Z</time>
      </trkpt>
      <trkpt lat="44.28606" lon="1.11849">
        <ele>234.22</ele>
        <time>2015-11-29T12:29:08Z</time>
      </trkpt>
      <trkpt lat="44.28614" lon="1.1184">
        <ele>238.54</ele>
        <time>2015-11-29T12:29:47Z</time>
      </trkpt>
      <trkpt lat="44.28603" lon="1.11844">
        <ele>238.06</ele>
        <time>2015-11-29T12:30:03Z</time>
      </trkpt>
      <trkpt lat="44.28602" lon="1.11845">
        <ele>238.06</ele>
        <time>2015-11-29T12:30:04Z</time>
      </trkpt>
      <trkpt lat="44.28598" lon="1.11852">
        <ele>238.06</ele>
        <time>2015-11-29T12:30:07Z</time>
      </trkpt>
      <trkpt lat="44.28592" lon="1.11862">
        <ele>234.22</ele>
        <time>2015-11-29T12:30:16Z</time>
      </trkpt>
      <trkpt lat="44.28589" lon="1.11865">
        <ele>233.74</ele>
        <time>2015-11-29T12:30:20Z</time>
      </trkpt>
      <trkpt lat="44.28589" lon="1.11868">
        <ele>230.85</ele>
        <time>2015-11-29T12:30:33Z</time>
      </trkpt>
      <trkpt lat="44.2859" lon="1.11869">
        <ele>232.3</ele>
        <time>2015-11-29T12:30:45Z</time>
      </trkpt>
      <trkpt lat="44.28589" lon="1.11868">
        <ele>232.78</ele>
        <time>2015-11-29T12:31:09Z</time>
      </trkpt>
      <trkpt lat="44.2859" lon="1.11869">
        <ele>231.81</ele>
        <time>2015-11-29T12:31:31Z</time>
      </trkpt>
      <trkpt lat="44.28588" lon="1.11868">
        <ele>231.81</ele>
        <time>2015-11-29T12:31:52Z</time>
      </trkpt>
      <trkpt lat="44.2859" lon="1.11867">
        <ele>231.81</ele>
        <time>2015-11-29T12:32:15Z</time>
      </trkpt>
      <trkpt lat="44.28589" lon="1.11867">
        <ele>234.22</ele>
        <time>2015-11-29T12:32:44Z</time>
      </trkpt>
      <trkpt lat="44.28591" lon="1.1186">
        <ele>233.26</ele>
        <time>2015-11-29T12:32:58Z</time>
      </trkpt>
      <trkpt lat="44.2859" lon="1.11865">
        <ele>233.26</ele>
        <time>2015-11-29T12:33:09Z</time>
      </trkpt>
      <trkpt lat="44.28597" lon="1.1184">
        <ele>235.66</ele>
        <time>2015-11-29T12:33:25Z</time>
      </trkpt>
      <trkpt lat="44.28602" lon="1.11819">
        <ele>237.1</ele>
        <time>2015-11-29T12:33:39Z</time>
      </trkpt>
      <trkpt lat="44.2861" lon="1.11797">
        <ele>239.99</ele>
        <time>2015-11-29T12:33:55Z</time>
      </trkpt>
      <trkpt lat="44.28618" lon="1.11772">
        <ele>241.43</ele>
        <time>2015-11-29T12:34:13Z</time>
      </trkpt>
      <trkpt lat="44.28625" lon="1.11761">
        <ele>239.51</ele>
        <time>2015-11-29T12:34:21Z</time>
      </trkpt>
      <trkpt lat="44.28631" lon="1.11753">
        <ele>238.54</ele>
        <time>2015-11-29T12:34:29Z</time>
      </trkpt>
      <trkpt lat="44.28634" lon="1.11747">
        <ele>238.06</ele>
        <time>2015-11-29T12:34:45Z</time>
      </trkpt>
      <trkpt lat="44.28638" lon="1.11736">
        <ele>236.14</ele>
        <time>2015-11-29T12:34:54Z</time>
      </trkpt>
      <trkpt lat="44.2865" lon="1.11714">
        <ele>234.7</ele>
        <time>2015-11-29T12:35:10Z</time>
      </trkpt>
      <trkpt lat="44.28651" lon="1.1171">
        <ele>234.7</ele>
        <time>2015-11-29T12:35:13Z</time>
      </trkpt>
      <trkpt lat="44.28661" lon="1.11691">
        <ele>234.22</ele>
        <time>2015-11-29T12:35:26Z</time>
      </trkpt>
      <trkpt lat="44.28678" lon="1.11658">
        <ele>238.06</ele>
        <time>2015-11-29T12:35:50Z</time>
      </trkpt>
      <trkpt lat="44.28696" lon="1.11628">
        <ele>239.99</ele>
        <time>2015-11-29T12:36:12Z</time>
      </trkpt>
      <trkpt lat="44.28709" lon="1.11605">
        <ele>239.51</ele>
        <time>2015-11-29T12:36:29Z</time>
      </trkpt>
      <trkpt lat="44.28724" lon="1.11578">
        <ele>239.51</ele>
        <time>2015-11-29T12:36:49Z</time>
      </trkpt>
      <trkpt lat="44.28738" lon="1.11547">
        <ele>237.1</ele>
        <time>2015-11-29T12:37:11Z</time>
      </trkpt>
      <trkpt lat="44.28752" lon="1.11519">
        <ele>235.18</ele>
        <time>2015-11-29T12:37:31Z</time>
      </trkpt>
      <trkpt lat="44.28763" lon="1.11495">
        <ele>233.74</ele>
        <time>2015-11-29T12:37:48Z</time>
      </trkpt>
      <trkpt lat="44.28773" lon="1.11471">
        <ele>234.22</ele>
        <time>2015-11-29T12:38:04Z</time>
      </trkpt>
      <trkpt lat="44.28787" lon="1.1144">
        <ele>234.22</ele>
        <time>2015-11-29T12:38:23Z</time>
      </trkpt>
      <trkpt lat="44.28798" lon="1.11412">
        <ele>233.26</ele>
        <time>2015-11-29T12:38:41Z</time>
      </trkpt>
      <trkpt lat="44.2881" lon="1.11381">
        <ele>231.33</ele>
        <time>2015-11-29T12:39:00Z</time>
      </trkpt>
      <trkpt lat="44.28819" lon="1.11356">
        <ele>232.3</ele>
        <time>2015-11-29T12:39:15Z</time>
      </trkpt>
      <trkpt lat="44.28829" lon="1.11332">
        <ele>237.1</ele>
        <time>2015-11-29T12:39:31Z</time>
      </trkpt>
      <trkpt lat="44.28841" lon="1.113">
        <ele>236.62</ele>
        <time>2015-11-29T12:39:52Z</time>
      </trkpt>
      <trkpt lat="44.28855" lon="1.11273">
        <ele>236.62</ele>
        <time>2015-11-29T12:40:11Z</time>
      </trkpt>
      <trkpt lat="44.2887" lon="1.1125">
        <ele>235.18</ele>
        <time>2015-11-29T12:40:28Z</time>
      </trkpt>
      <trkpt lat="44.28882" lon="1.11233">
        <ele>234.22</ele>
        <time>2015-11-29T12:40:41Z</time>
      </trkpt>
      <trkpt lat="44.28892" lon="1.11211">
        <ele>232.78</ele>
        <time>2015-11-29T12:40:57Z</time>
      </trkpt>
      <trkpt lat="44.28897" lon="1.11202">
        <ele>232.78</ele>
        <time>2015-11-29T12:41:04Z</time>
      </trkpt>
      <trkpt lat="44.28902" lon="1.11194">
        <ele>233.74</ele>
        <time>2015-11-29T12:41:09Z</time>
      </trkpt>
      <trkpt lat="44.28912" lon="1.11168">
        <ele>233.74</ele>
        <time>2015-11-29T12:41:25Z</time>
      </trkpt>
      <trkpt lat="44.28919" lon="1.11146">
        <ele>235.18</ele>
        <time>2015-11-29T12:41:39Z</time>
      </trkpt>
      <trkpt lat="44.28928" lon="1.11119">
        <ele>235.18</ele>
        <time>2015-11-29T12:41:55Z</time>
      </trkpt>
      <trkpt lat="44.28938" lon="1.11096">
        <ele>233.74</ele>
        <time>2015-11-29T12:42:10Z</time>
      </trkpt>
      <trkpt lat="44.28944" lon="1.11082">
        <ele>233.26</ele>
        <time>2015-11-29T12:42:19Z</time>
      </trkpt>
      <trkpt lat="44.28958" lon="1.1106">
        <ele>232.78</ele>
        <time>2015-11-29T12:42:35Z</time>
      </trkpt>
      <trkpt lat="44.28973" lon="1.11037">
        <ele>228.93</ele>
        <time>2015-11-29T12:42:53Z</time>
      </trkpt>
      <trkpt lat="44.28988" lon="1.11011">
        <ele>228.93</ele>
        <time>2015-11-29T12:43:12Z</time>
      </trkpt>
      <trkpt lat="44.29" lon="1.10993">
        <ele>226.53</ele>
        <time>2015-11-29T12:43:29Z</time>
      </trkpt>
      <trkpt lat="44.29015" lon="1.10971">
        <ele>225.09</ele>
        <time>2015-11-29T12:43:45Z</time>
      </trkpt>
      <trkpt lat="44.2903" lon="1.10949">
        <ele>225.09</ele>
        <time>2015-11-29T12:44:01Z</time>
      </trkpt>
      <trkpt lat="44.29047" lon="1.10925">
        <ele>227.97</ele>
        <time>2015-11-29T12:44:20Z</time>
      </trkpt>
      <trkpt lat="44.29054" lon="1.10919">
        <ele>228.45</ele>
        <time>2015-11-29T12:44:34Z</time>
      </trkpt>
      <trkpt lat="44.29059" lon="1.10913">
        <ele>230.85</ele>
        <time>2015-11-29T12:44:46Z</time>
      </trkpt>
      <trkpt lat="44.29062" lon="1.10908">
        <ele>230.85</ele>
        <time>2015-11-29T12:44:55Z</time>
      </trkpt>
      <trkpt lat="44.29079" lon="1.10889">
        <ele>229.41</ele>
        <time>2015-11-29T12:45:14Z</time>
      </trkpt>
      <trkpt lat="44.29096" lon="1.1087">
        <ele>228.93</ele>
        <time>2015-11-29T12:45:32Z</time>
      </trkpt>
      <trkpt lat="44.29108" lon="1.10849">
        <ele>223.64</ele>
        <time>2015-11-29T12:45:48Z</time>
      </trkpt>
      <trkpt lat="44.2912" lon="1.10833">
        <ele>221.24</ele>
        <time>2015-11-29T12:46:01Z</time>
      </trkpt>
      <trkpt lat="44.29131" lon="1.10811">
        <ele>220.28</ele>
        <time>2015-11-29T12:46:17Z</time>
      </trkpt>
      <trkpt lat="44.29142" lon="1.10788">
        <ele>221.24</ele>
        <time>2015-11-29T12:46:33Z</time>
      </trkpt>
      <trkpt lat="44.29158" lon="1.10767">
        <ele>219.8</ele>
        <time>2015-11-29T12:46:50Z</time>
      </trkpt>
      <trkpt lat="44.29171" lon="1.1075">
        <ele>214.99</ele>
        <time>2015-11-29T12:47:06Z</time>
      </trkpt>
      <trkpt lat="44.29187" lon="1.10735">
        <ele>212.11</ele>
        <time>2015-11-29T12:47:23Z</time>
      </trkpt>
      <trkpt lat="44.29205" lon="1.10721">
        <ele>209.7</ele>
        <time>2015-11-29T12:47:39Z</time>
      </trkpt>
      <trkpt lat="44.29206" lon="1.10721">
        <ele>209.7</ele>
        <time>2015-11-29T12:47:40Z</time>
      </trkpt>
      <trkpt lat="44.29225" lon="1.10703">
        <ele>209.22</ele>
        <time>2015-11-29T12:47:56Z</time>
      </trkpt>
      <trkpt lat="44.29249" lon="1.10683">
        <ele>220.76</ele>
        <time>2015-11-29T12:48:14Z</time>
      </trkpt>
      <trkpt lat="44.29264" lon="1.10662">
        <ele>222.2</ele>
        <time>2015-11-29T12:48:31Z</time>
      </trkpt>
      <trkpt lat="44.29274" lon="1.10643">
        <ele>221.24</ele>
        <time>2015-11-29T12:48:45Z</time>
      </trkpt>
      <trkpt lat="44.29275" lon="1.10641">
        <ele>221.24</ele>
        <time>2015-11-29T12:48:46Z</time>
      </trkpt>
      <trkpt lat="44.29278" lon="1.10632">
        <ele>221.24</ele>
        <time>2015-11-29T12:48:53Z</time>
      </trkpt>
      <trkpt lat="44.29284" lon="1.10611">
        <ele>219.32</ele>
        <time>2015-11-29T12:49:07Z</time>
      </trkpt>
      <trkpt lat="44.29294" lon="1.10582">
        <ele>217.4</ele>
        <time>2015-11-29T12:49:24Z</time>
      </trkpt>
      <trkpt lat="44.29307" lon="1.10559">
        <ele>212.11</ele>
        <time>2015-11-29T12:49:41Z</time>
      </trkpt>
      <trkpt lat="44.2932" lon="1.10532">
        <ele>210.67</ele>
        <time>2015-11-29T12:50:00Z</time>
      </trkpt>
      <trkpt lat="44.29323" lon="1.10529">
        <ele>210.67</ele>
        <time>2015-11-29T12:50:04Z</time>
      </trkpt>
      <trkpt lat="44.2932" lon="1.10532">
        <ele>211.63</ele>
        <time>2015-11-29T12:50:13Z</time>
      </trkpt>
      <trkpt lat="44.29307" lon="1.1051">
        <ele>212.59</ele>
        <time>2015-11-29T12:50:31Z</time>
      </trkpt>
      <trkpt lat="44.2929" lon="1.10492">
        <ele>217.88</ele>
        <time>2015-11-29T12:50:48Z</time>
      </trkpt>
      <trkpt lat="44.29275" lon="1.10471">
        <ele>218.84</ele>
        <time>2015-11-29T12:51:05Z</time>
      </trkpt>
      <trkpt lat="44.29263" lon="1.10448">
        <ele>220.76</ele>
        <time>2015-11-29T12:51:20Z</time>
      </trkpt>
      <trkpt lat="44.2925" lon="1.10438">
        <ele>218.84</ele>
        <time>2015-11-29T12:51:34Z</time>
      </trkpt>
      <trkpt lat="44.29237" lon="1.10441">
        <ele>216.91</ele>
        <time>2015-11-29T12:51:48Z</time>
      </trkpt>
      <trkpt lat="44.29221" lon="1.10444">
        <ele>219.8</ele>
        <time>2015-11-29T12:52:02Z</time>
      </trkpt>
      <trkpt lat="44.29209" lon="1.10434">
        <ele>216.91</ele>
        <time>2015-11-29T12:52:17Z</time>
      </trkpt>
      <trkpt lat="44.29211" lon="1.10417">
        <ele>215.95</ele>
        <time>2015-11-29T12:52:32Z</time>
      </trkpt>
      <trkpt lat="44.29218" lon="1.104">
        <ele>213.55</ele>
        <time>2015-11-29T12:52:47Z</time>
      </trkpt>
      <trkpt lat="44.29229" lon="1.10385">
        <ele>211.63</ele>
        <time>2015-11-29T12:53:03Z</time>
      </trkpt>
      <trkpt lat="44.29244" lon="1.10371">
        <ele>210.67</ele>
        <time>2015-11-29T12:53:20Z</time>
      </trkpt>
      <trkpt lat="44.29254" lon="1.10356">
        <ele>209.7</ele>
        <time>2015-11-29T12:53:37Z</time>
      </trkpt>
      <trkpt lat="44.29262" lon="1.10338">
        <ele>206.34</ele>
        <time>2015-11-29T12:53:53Z</time>
      </trkpt>
      <trkpt lat="44.29265" lon="1.10331">
        <ele>204.9</ele>
        <time>2015-11-29T12:53:58Z</time>
      </trkpt>
      <trkpt lat="44.29275" lon="1.10311">
        <ele>204.9</ele>
        <time>2015-11-29T12:54:14Z</time>
      </trkpt>
      <trkpt lat="44.29284" lon="1.103">
        <ele>203.46</ele>
        <time>2015-11-29T12:54:27Z</time>
      </trkpt>
      <trkpt lat="44.29293" lon="1.10285">
        <ele>198.65</ele>
        <time>2015-11-29T12:54:40Z</time>
      </trkpt>
      <trkpt lat="44.29298" lon="1.10271">
        <ele>196.25</ele>
        <time>2015-11-29T12:54:56Z</time>
      </trkpt>
      <trkpt lat="44.29305" lon="1.10278">
        <ele>194.8</ele>
        <time>2015-11-29T12:55:11Z</time>
      </trkpt>
      <trkpt lat="44.29305" lon="1.1029">
        <ele>191.44</ele>
        <time>2015-11-29T12:55:24Z</time>
      </trkpt>
      <trkpt lat="44.29308" lon="1.10318">
        <ele>190.48</ele>
        <time>2015-11-29T12:55:40Z</time>
      </trkpt>
      <trkpt lat="44.29315" lon="1.10325">
        <ele>184.23</ele>
        <time>2015-11-29T12:55:55Z</time>
      </trkpt>
      <trkpt lat="44.29327" lon="1.10322">
        <ele>178.94</ele>
        <time>2015-11-29T12:56:09Z</time>
      </trkpt>
      <trkpt lat="44.29346" lon="1.1031">
        <ele>171.25</ele>
        <time>2015-11-29T12:56:28Z</time>
      </trkpt>
      <trkpt lat="44.29359" lon="1.10292">
        <ele>171.73</ele>
        <time>2015-11-29T12:56:42Z</time>
      </trkpt>
      <trkpt lat="44.29372" lon="1.10276">
        <ele>173.17</ele>
        <time>2015-11-29T12:56:58Z</time>
      </trkpt>
      <trkpt lat="44.29386" lon="1.10265">
        <ele>170.77</ele>
        <time>2015-11-29T12:57:13Z</time>
      </trkpt>
      <trkpt lat="44.29402" lon="1.1025">
        <ele>165.48</ele>
        <time>2015-11-29T12:57:31Z</time>
      </trkpt>
      <trkpt lat="44.29416" lon="1.10241">
        <ele>162.6</ele>
        <time>2015-11-29T12:57:48Z</time>
      </trkpt>
      <trkpt lat="44.2943" lon="1.10231">
        <ele>160.68</ele>
        <time>2015-11-29T12:58:03Z</time>
      </trkpt>
      <trkpt lat="44.29445" lon="1.10214">
        <ele>160.68</ele>
        <time>2015-11-29T12:58:19Z</time>
      </trkpt>
      <trkpt lat="44.29458" lon="1.10205">
        <ele>159.72</ele>
        <time>2015-11-29T12:58:35Z</time>
      </trkpt>
      <trkpt lat="44.29464" lon="1.10194">
        <ele>166.45</ele>
        <time>2015-11-29T12:58:54Z</time>
      </trkpt>
      <trkpt lat="44.29478" lon="1.10181">
        <ele>166.45</ele>
        <time>2015-11-29T12:59:11Z</time>
      </trkpt>
      <trkpt lat="44.29491" lon="1.10166">
        <ele>164.52</ele>
        <time>2015-11-29T12:59:27Z</time>
      </trkpt>
      <trkpt lat="44.29496" lon="1.1015">
        <ele>165</ele>
        <time>2015-11-29T12:59:39Z</time>
      </trkpt>
      <trkpt lat="44.29509" lon="1.10135">
        <ele>164.52</ele>
        <time>2015-11-29T12:59:53Z</time>
      </trkpt>
      <trkpt lat="44.29524" lon="1.10117">
        <ele>165.48</ele>
        <time>2015-11-29T13:00:10Z</time>
      </trkpt>
      <trkpt lat="44.2954" lon="1.10094">
        <ele>166.93</ele>
        <time>2015-11-29T13:00:29Z</time>
      </trkpt>
      <trkpt lat="44.29555" lon="1.10079">
        <ele>165.48</ele>
        <time>2015-11-29T13:00:45Z</time>
      </trkpt>
      <trkpt lat="44.2957" lon="1.10066">
        <ele>159.24</ele>
        <time>2015-11-29T13:01:02Z</time>
      </trkpt>
      <trkpt lat="44.29574" lon="1.10065">
        <ele>155.87</ele>
        <time>2015-11-29T13:01:07Z</time>
      </trkpt>
      <trkpt lat="44.29588" lon="1.10063">
        <ele>145.78</ele>
        <time>2015-11-29T13:01:21Z</time>
      </trkpt>
      <trkpt lat="44.29604" lon="1.1006">
        <ele>133.28</ele>
        <time>2015-11-29T13:01:36Z</time>
      </trkpt>
      <trkpt lat="44.29624" lon="1.10052">
        <ele>136.16</ele>
        <time>2015-11-29T13:01:50Z</time>
      </trkpt>
      <trkpt lat="44.29642" lon="1.10043">
        <ele>137.13</ele>
        <time>2015-11-29T13:02:05Z</time>
      </trkpt>
      <trkpt lat="44.29654" lon="1.10031">
        <ele>146.26</ele>
        <time>2015-11-29T13:02:19Z</time>
      </trkpt>
      <trkpt lat="44.29671" lon="1.1002">
        <ele>149.62</ele>
        <time>2015-11-29T13:02:36Z</time>
      </trkpt>
      <trkpt lat="44.29687" lon="1.10014">
        <ele>149.14</ele>
        <time>2015-11-29T13:02:50Z</time>
      </trkpt>
      <trkpt lat="44.29708" lon="1.10005">
        <ele>145.78</ele>
        <time>2015-11-29T13:03:09Z</time>
      </trkpt>
      <trkpt lat="44.29724" lon="1.10001">
        <ele>146.26</ele>
        <time>2015-11-29T13:03:22Z</time>
      </trkpt>
      <trkpt lat="44.29735" lon="1.09998">
        <ele>149.14</ele>
        <time>2015-11-29T13:03:31Z</time>
      </trkpt>
      <trkpt lat="44.29751" lon="1.09985">
        <ele>150.58</ele>
        <time>2015-11-29T13:03:46Z</time>
      </trkpt>
      <trkpt lat="44.29755" lon="1.09967">
        <ele>150.58</ele>
        <time>2015-11-29T13:04:01Z</time>
      </trkpt>
      <trkpt lat="44.29754" lon="1.09935">
        <ele>152.99</ele>
        <time>2015-11-29T13:04:19Z</time>
      </trkpt>
      <trkpt lat="44.29759" lon="1.09918">
        <ele>156.83</ele>
        <time>2015-11-29T13:04:35Z</time>
      </trkpt>
      <trkpt lat="44.29761" lon="1.09925">
        <ele>157.31</ele>
        <time>2015-11-29T13:04:47Z</time>
      </trkpt>
      <trkpt lat="44.29763" lon="1.09929">
        <ele>156.83</ele>
        <time>2015-11-29T13:05:10Z</time>
      </trkpt>
      <trkpt lat="44.29757" lon="1.09941">
        <ele>159.24</ele>
        <time>2015-11-29T13:05:35Z</time>
      </trkpt>
      <trkpt lat="44.29764" lon="1.09919">
        <ele>162.12</ele>
        <time>2015-11-29T13:06:15Z</time>
      </trkpt>
      <trkpt lat="44.29759" lon="1.09915">
        <ele>172.69</ele>
        <time>2015-11-29T13:06:43Z</time>
      </trkpt>
      <trkpt lat="44.29765" lon="1.09915">
        <ele>163.08</ele>
        <time>2015-11-29T13:06:56Z</time>
      </trkpt>
      <trkpt lat="44.2978" lon="1.09917">
        <ele>158.27</ele>
        <time>2015-11-29T13:07:11Z</time>
      </trkpt>
      <trkpt lat="44.298" lon="1.09916">
        <ele>154.43</ele>
        <time>2015-11-29T13:07:29Z</time>
      </trkpt>
      <trkpt lat="44.29819" lon="1.09913">
        <ele>154.43</ele>
        <time>2015-11-29T13:07:45Z</time>
      </trkpt>
      <trkpt lat="44.29842" lon="1.0991">
        <ele>156.35</ele>
        <time>2015-11-29T13:08:04Z</time>
      </trkpt>
      <trkpt lat="44.29858" lon="1.09907">
        <ele>158.75</ele>
        <time>2015-11-29T13:08:22Z</time>
      </trkpt>
      <trkpt lat="44.29862" lon="1.09896">
        <ele>159.24</ele>
        <time>2015-11-29T13:08:35Z</time>
      </trkpt>
      <trkpt lat="44.29865" lon="1.09893">
        <ele>161.16</ele>
        <time>2015-11-29T13:08:51Z</time>
      </trkpt>
      <trkpt lat="44.29867" lon="1.09895">
        <ele>161.16</ele>
        <time>2015-11-29T13:08:55Z</time>
      </trkpt>
      <trkpt lat="44.2987" lon="1.09902">
        <ele>161.16</ele>
        <time>2015-11-29T13:09:01Z</time>
      </trkpt>
      <trkpt lat="44.29872" lon="1.0993">
        <ele>162.12</ele>
        <time>2015-11-29T13:09:19Z</time>
      </trkpt>
      <trkpt lat="44.29873" lon="1.09959">
        <ele>164.52</ele>
        <time>2015-11-29T13:09:39Z</time>
      </trkpt>
      <trkpt lat="44.29875" lon="1.09989">
        <ele>165.48</ele>
        <time>2015-11-29T13:09:59Z</time>
      </trkpt>
      <trkpt lat="44.29876" lon="1.10019">
        <ele>166.93</ele>
        <time>2015-11-29T13:10:16Z</time>
      </trkpt>
      <trkpt lat="44.29878" lon="1.10056">
        <ele>165</ele>
        <time>2015-11-29T13:10:37Z</time>
      </trkpt>
      <trkpt lat="44.29878" lon="1.10087">
        <ele>165.48</ele>
        <time>2015-11-29T13:10:56Z</time>
      </trkpt>
      <trkpt lat="44.29873" lon="1.10116">
        <ele>164.04</ele>
        <time>2015-11-29T13:11:13Z</time>
      </trkpt>
      <trkpt lat="44.29862" lon="1.10145">
        <ele>162.12</ele>
        <time>2015-11-29T13:11:33Z</time>
      </trkpt>
      <trkpt lat="44.29848" lon="1.10167">
        <ele>161.64</ele>
        <time>2015-11-29T13:11:52Z</time>
      </trkpt>
      <trkpt lat="44.29851" lon="1.10174">
        <ele>160.2</ele>
        <time>2015-11-29T13:12:04Z</time>
      </trkpt>
      <trkpt lat="44.29851" lon="1.10173">
        <ele>161.16</ele>
        <time>2015-11-29T13:12:37Z</time>
      </trkpt>
      <trkpt lat="44.29851" lon="1.10172">
        <ele>165.48</ele>
        <time>2015-11-29T13:13:10Z</time>
      </trkpt>
      <trkpt lat="44.2985" lon="1.10176">
        <ele>165.96</ele>
        <time>2015-11-29T13:13:30Z</time>
      </trkpt>
      <trkpt lat="44.29853" lon="1.10178">
        <ele>165</ele>
        <time>2015-11-29T13:13:40Z</time>
      </trkpt>
      <trkpt lat="44.29868" lon="1.10184">
        <ele>164.52</ele>
        <time>2015-11-29T13:13:56Z</time>
      </trkpt>
      <trkpt lat="44.29883" lon="1.10184">
        <ele>166.45</ele>
        <time>2015-11-29T13:14:12Z</time>
      </trkpt>
      <trkpt lat="44.29896" lon="1.10179">
        <ele>167.41</ele>
        <time>2015-11-29T13:14:27Z</time>
      </trkpt>
      <trkpt lat="44.29907" lon="1.10178">
        <ele>168.37</ele>
        <time>2015-11-29T13:14:42Z</time>
      </trkpt>
      <trkpt lat="44.29913" lon="1.10186">
        <ele>169.81</ele>
        <time>2015-11-29T13:14:55Z</time>
      </trkpt>
      <trkpt lat="44.29913" lon="1.10188">
        <ele>169.81</ele>
        <time>2015-11-29T13:14:57Z</time>
      </trkpt>
      <trkpt lat="44.2991" lon="1.10216">
        <ele>172.69</ele>
        <time>2015-11-29T13:15:16Z</time>
      </trkpt>
      <trkpt lat="44.29904" lon="1.1024">
        <ele>170.77</ele>
        <time>2015-11-29T13:15:33Z</time>
      </trkpt>
      <trkpt lat="44.29897" lon="1.10251">
        <ele>169.33</ele>
        <time>2015-11-29T13:15:43Z</time>
      </trkpt>
      <trkpt lat="44.29896" lon="1.10276">
        <ele>170.29</ele>
        <time>2015-11-29T13:16:01Z</time>
      </trkpt>
      <trkpt lat="44.29897" lon="1.10293">
        <ele>170.77</ele>
        <time>2015-11-29T13:16:16Z</time>
      </trkpt>
      <trkpt lat="44.29899" lon="1.10311">
        <ele>172.21</ele>
        <time>2015-11-29T13:16:30Z</time>
      </trkpt>
      <trkpt lat="44.29899" lon="1.10329">
        <ele>174.62</ele>
        <time>2015-11-29T13:16:45Z</time>
      </trkpt>
      <trkpt lat="44.29903" lon="1.10348">
        <ele>175.58</ele>
        <time>2015-11-29T13:17:01Z</time>
      </trkpt>
      <trkpt lat="44.29905" lon="1.10359">
        <ele>176.54</ele>
        <time>2015-11-29T13:17:15Z</time>
      </trkpt>
      <trkpt lat="44.29902" lon="1.10364">
        <ele>181.83</ele>
        <time>2015-11-29T13:17:34Z</time>
      </trkpt>
      <trkpt lat="44.29898" lon="1.10376">
        <ele>183.27</ele>
        <time>2015-11-29T13:17:52Z</time>
      </trkpt>
      <trkpt lat="44.29896" lon="1.10388">
        <ele>184.23</ele>
        <time>2015-11-29T13:17:59Z</time>
      </trkpt>
      <trkpt lat="44.29896" lon="1.10395">
        <ele>184.23</ele>
        <time>2015-11-29T13:18:04Z</time>
      </trkpt>
      <trkpt lat="44.29885" lon="1.10418">
        <ele>185.19</ele>
        <time>2015-11-29T13:18:21Z</time>
      </trkpt>
      <trkpt lat="44.29882" lon="1.10437">
        <ele>183.27</ele>
        <time>2015-11-29T13:18:36Z</time>
      </trkpt>
      <trkpt lat="44.29883" lon="1.1045">
        <ele>185.67</ele>
        <time>2015-11-29T13:18:51Z</time>
      </trkpt>
      <trkpt lat="44.29878" lon="1.10466">
        <ele>189.04</ele>
        <time>2015-11-29T13:19:04Z</time>
      </trkpt>
      <trkpt lat="44.29868" lon="1.10486">
        <ele>189.52</ele>
        <time>2015-11-29T13:19:20Z</time>
      </trkpt>
      <trkpt lat="44.29856" lon="1.10501">
        <ele>186.15</ele>
        <time>2015-11-29T13:19:36Z</time>
      </trkpt>
      <trkpt lat="44.29845" lon="1.10519">
        <ele>185.19</ele>
        <time>2015-11-29T13:19:52Z</time>
      </trkpt>
      <trkpt lat="44.29835" lon="1.10536">
        <ele>185.67</ele>
        <time>2015-11-29T13:20:07Z</time>
      </trkpt>
      <trkpt lat="44.29824" lon="1.10555">
        <ele>188.08</ele>
        <time>2015-11-29T13:20:23Z</time>
      </trkpt>
      <trkpt lat="44.29813" lon="1.10572">
        <ele>189.52</ele>
        <time>2015-11-29T13:20:39Z</time>
      </trkpt>
      <trkpt lat="44.29805" lon="1.10585">
        <ele>186.15</ele>
        <time>2015-11-29T13:20:56Z</time>
      </trkpt>
      <trkpt lat="44.29801" lon="1.10597">
        <ele>183.75</ele>
        <time>2015-11-29T13:21:09Z</time>
      </trkpt>
      <trkpt lat="44.2979" lon="1.10622">
        <ele>187.11</ele>
        <time>2015-11-29T13:21:26Z</time>
      </trkpt>
      <trkpt lat="44.29785" lon="1.10638">
        <ele>190</ele>
        <time>2015-11-29T13:21:41Z</time>
      </trkpt>
      <trkpt lat="44.29781" lon="1.10652">
        <ele>189.52</ele>
        <time>2015-11-29T13:21:53Z</time>
      </trkpt>
      <trkpt lat="44.29772" lon="1.1067">
        <ele>189.04</ele>
        <time>2015-11-29T13:22:06Z</time>
      </trkpt>
      <trkpt lat="44.29768" lon="1.10689">
        <ele>187.59</ele>
        <time>2015-11-29T13:22:21Z</time>
      </trkpt>
      <trkpt lat="44.29767" lon="1.10703">
        <ele>187.11</ele>
        <time>2015-11-29T13:22:34Z</time>
      </trkpt>
      <trkpt lat="44.2977" lon="1.10717">
        <ele>189.52</ele>
        <time>2015-11-29T13:22:47Z</time>
      </trkpt>
      <trkpt lat="44.2977" lon="1.10736">
        <ele>191.92</ele>
        <time>2015-11-29T13:23:02Z</time>
      </trkpt>
      <trkpt lat="44.29777" lon="1.10756">
        <ele>192.4</ele>
        <time>2015-11-29T13:23:17Z</time>
      </trkpt>
      <trkpt lat="44.29781" lon="1.10771">
        <ele>193.84</ele>
        <time>2015-11-29T13:23:29Z</time>
      </trkpt>
      <trkpt lat="44.29789" lon="1.10784">
        <ele>194.8</ele>
        <time>2015-11-29T13:23:42Z</time>
      </trkpt>
      <trkpt lat="44.29791" lon="1.10796">
        <ele>197.21</ele>
        <time>2015-11-29T13:23:57Z</time>
      </trkpt>
      <trkpt lat="44.29792" lon="1.10797">
        <ele>197.21</ele>
        <time>2015-11-29T13:24:11Z</time>
      </trkpt>
      <trkpt lat="44.29789" lon="1.10812">
        <ele>201.05</ele>
        <time>2015-11-29T13:24:33Z</time>
      </trkpt>
      <trkpt lat="44.29785" lon="1.10819">
        <ele>202.98</ele>
        <time>2015-11-29T13:24:46Z</time>
      </trkpt>
      <trkpt lat="44.29781" lon="1.10833">
        <ele>202.49</ele>
        <time>2015-11-29T13:25:01Z</time>
      </trkpt>
      <trkpt lat="44.29775" lon="1.1085">
        <ele>206.34</ele>
        <time>2015-11-29T13:25:16Z</time>
      </trkpt>
      <trkpt lat="44.29782" lon="1.10862">
        <ele>207.78</ele>
        <time>2015-11-29T13:25:29Z</time>
      </trkpt>
      <trkpt lat="44.29792" lon="1.10861">
        <ele>206.34</ele>
        <time>2015-11-29T13:25:43Z</time>
      </trkpt>
      <trkpt lat="44.29803" lon="1.10866">
        <ele>209.22</ele>
        <time>2015-11-29T13:25:58Z</time>
      </trkpt>
      <trkpt lat="44.29812" lon="1.10874">
        <ele>212.11</ele>
        <time>2015-11-29T13:26:13Z</time>
      </trkpt>
      <trkpt lat="44.29822" lon="1.10884">
        <ele>213.55</ele>
        <time>2015-11-29T13:26:29Z</time>
      </trkpt>
      <trkpt lat="44.29833" lon="1.10899">
        <ele>216.91</ele>
        <time>2015-11-29T13:26:45Z</time>
      </trkpt>
      <trkpt lat="44.29835" lon="1.10902">
        <ele>217.4</ele>
        <time>2015-11-29T13:26:48Z</time>
      </trkpt>
      <trkpt lat="44.29848" lon="1.1091">
        <ele>217.88</ele>
        <time>2015-11-29T13:27:04Z</time>
      </trkpt>
      <trkpt lat="44.29863" lon="1.10917">
        <ele>217.4</ele>
        <time>2015-11-29T13:27:18Z</time>
      </trkpt>
      <trkpt lat="44.29876" lon="1.10915">
        <ele>216.43</ele>
        <time>2015-11-29T13:27:32Z</time>
      </trkpt>
      <trkpt lat="44.29888" lon="1.10917">
        <ele>218.84</ele>
        <time>2015-11-29T13:27:45Z</time>
      </trkpt>
      <trkpt lat="44.29897" lon="1.10931">
        <ele>221.72</ele>
        <time>2015-11-29T13:27:59Z</time>
      </trkpt>
      <trkpt lat="44.29902" lon="1.10948">
        <ele>223.16</ele>
        <time>2015-11-29T13:28:14Z</time>
      </trkpt>
      <trkpt lat="44.29907" lon="1.10961">
        <ele>222.68</ele>
        <time>2015-11-29T13:28:28Z</time>
      </trkpt>
      <trkpt lat="44.29908" lon="1.10965">
        <ele>223.64</ele>
        <time>2015-11-29T13:28:32Z</time>
      </trkpt>
      <trkpt lat="44.29909" lon="1.1099">
        <ele>224.61</ele>
        <time>2015-11-29T13:28:50Z</time>
      </trkpt>
      <trkpt lat="44.29909" lon="1.11012">
        <ele>224.12</ele>
        <time>2015-11-29T13:29:05Z</time>
      </trkpt>
      <trkpt lat="44.2991" lon="1.11033">
        <ele>225.09</ele>
        <time>2015-11-29T13:29:19Z</time>
      </trkpt>
      <trkpt lat="44.2991" lon="1.11053">
        <ele>226.05</ele>
        <time>2015-11-29T13:29:33Z</time>
      </trkpt>
      <trkpt lat="44.29912" lon="1.11076">
        <ele>226.53</ele>
        <time>2015-11-29T13:29:47Z</time>
      </trkpt>
      <trkpt lat="44.29914" lon="1.11098">
        <ele>227.97</ele>
        <time>2015-11-29T13:30:02Z</time>
      </trkpt>
      <trkpt lat="44.29913" lon="1.1112">
        <ele>229.89</ele>
        <time>2015-11-29T13:30:16Z</time>
      </trkpt>
      <trkpt lat="44.29913" lon="1.11145">
        <ele>230.85</ele>
        <time>2015-11-29T13:30:31Z</time>
      </trkpt>
      <trkpt lat="44.29916" lon="1.11166">
        <ele>230.37</ele>
        <time>2015-11-29T13:30:45Z</time>
      </trkpt>
      <trkpt lat="44.29917" lon="1.11177">
        <ele>230.37</ele>
        <time>2015-11-29T13:31:01Z</time>
      </trkpt>
      <trkpt lat="44.29919" lon="1.11187">
        <ele>230.37</ele>
        <time>2015-11-29T13:31:14Z</time>
      </trkpt>
      <trkpt lat="44.29919" lon="1.11187">
        <ele>230.37</ele>
        <time>2015-11-29T13:31:29Z</time>
      </trkpt>
      <trkpt lat="44.29916" lon="1.11188">
        <ele>230.37</ele>
        <time>2015-11-29T13:31:47Z</time>
      </trkpt>
      <trkpt lat="44.29915" lon="1.11189">
        <ele>230.85</ele>
        <time>2015-11-29T13:32:06Z</time>
      </trkpt>
      <trkpt lat="44.29916" lon="1.11191">
        <ele>229.89</ele>
        <time>2015-11-29T13:32:23Z</time>
      </trkpt>
      <trkpt lat="44.29916" lon="1.1119">
        <ele>229.41</ele>
        <time>2015-11-29T13:32:40Z</time>
      </trkpt>
      <trkpt lat="44.29915" lon="1.11189">
        <ele>230.37</ele>
        <time>2015-11-29T13:32:58Z</time>
      </trkpt>
      <trkpt lat="44.29911" lon="1.112">
        <ele>229.89</ele>
        <time>2015-11-29T13:33:13Z</time>
      </trkpt>
      <trkpt lat="44.29911" lon="1.11202">
        <ele>230.37</ele>
        <time>2015-11-29T13:33:15Z</time>
      </trkpt>
      <trkpt lat="44.29899" lon="1.1123">
        <ele>229.89</ele>
        <time>2015-11-29T13:33:33Z</time>
      </trkpt>
      <trkpt lat="44.29883" lon="1.11265">
        <ele>230.37</ele>
        <time>2015-11-29T13:33:53Z</time>
      </trkpt>
      <trkpt lat="44.29874" lon="1.11295">
        <ele>226.53</ele>
        <time>2015-11-29T13:34:13Z</time>
      </trkpt>
      <trkpt lat="44.29866" lon="1.11326">
        <ele>225.09</ele>
        <time>2015-11-29T13:34:32Z</time>
      </trkpt>
      <trkpt lat="44.29857" lon="1.11357">
        <ele>225.57</ele>
        <time>2015-11-29T13:34:50Z</time>
      </trkpt>
      <trkpt lat="44.2985" lon="1.11381">
        <ele>226.53</ele>
        <time>2015-11-29T13:35:04Z</time>
      </trkpt>
      <trkpt lat="44.29841" lon="1.11411">
        <ele>227.01</ele>
        <time>2015-11-29T13:35:20Z</time>
      </trkpt>
      <trkpt lat="44.29835" lon="1.11434">
        <ele>227.01</ele>
        <time>2015-11-29T13:35:37Z</time>
      </trkpt>
      <trkpt lat="44.29831" lon="1.11464">
        <ele>227.97</ele>
        <time>2015-11-29T13:35:53Z</time>
      </trkpt>
      <trkpt lat="44.2983" lon="1.11488">
        <ele>228.93</ele>
        <time>2015-11-29T13:36:10Z</time>
      </trkpt>
      <trkpt lat="44.29829" lon="1.11515">
        <ele>227.97</ele>
        <time>2015-11-29T13:36:25Z</time>
      </trkpt>
      <trkpt lat="44.29829" lon="1.11517">
        <ele>227.97</ele>
        <time>2015-11-29T13:36:26Z</time>
      </trkpt>
      <trkpt lat="44.29827" lon="1.11531">
        <ele>228.93</ele>
        <time>2015-11-29T13:36:41Z</time>
      </trkpt>
      <trkpt lat="44.29824" lon="1.11534">
        <ele>229.89</ele>
        <time>2015-11-29T13:37:16Z</time>
      </trkpt>
      <trkpt lat="44.29826" lon="1.11548">
        <ele>227.97</ele>
        <time>2015-11-29T13:37:31Z</time>
      </trkpt>
      <trkpt lat="44.29827" lon="1.11581">
        <ele>227.49</ele>
        <time>2015-11-29T13:37:50Z</time>
      </trkpt>
      <trkpt lat="44.29826" lon="1.11612">
        <ele>227.49</ele>
        <time>2015-11-29T13:38:09Z</time>
      </trkpt>
      <trkpt lat="44.29826" lon="1.11641">
        <ele>228.93</ele>
        <time>2015-11-29T13:38:26Z</time>
      </trkpt>
      <trkpt lat="44.29825" lon="1.11671">
        <ele>231.33</ele>
        <time>2015-11-29T13:38:43Z</time>
      </trkpt>
      <trkpt lat="44.29825" lon="1.11702">
        <ele>231.81</ele>
        <time>2015-11-29T13:39:00Z</time>
      </trkpt>
      <trkpt lat="44.29829" lon="1.11745">
        <ele>229.89</ele>
        <time>2015-11-29T13:39:19Z</time>
      </trkpt>
      <trkpt lat="44.29836" lon="1.11787">
        <ele>231.81</ele>
        <time>2015-11-29T13:39:41Z</time>
      </trkpt>
      <trkpt lat="44.2984" lon="1.11828">
        <ele>231.33</ele>
        <time>2015-11-29T13:40:02Z</time>
      </trkpt>
      <trkpt lat="44.29845" lon="1.11867">
        <ele>230.85</ele>
        <time>2015-11-29T13:40:22Z</time>
      </trkpt>
      <trkpt lat="44.29848" lon="1.11899">
        <ele>229.89</ele>
        <time>2015-11-29T13:40:39Z</time>
      </trkpt>
      <trkpt lat="44.29851" lon="1.11938">
        <ele>229.89</ele>
        <time>2015-11-29T13:40:58Z</time>
      </trkpt>
      <trkpt lat="44.29855" lon="1.11975">
        <ele>231.33</ele>
        <time>2015-11-29T13:41:18Z</time>
      </trkpt>
      <trkpt lat="44.29862" lon="1.12023">
        <ele>231.81</ele>
        <time>2015-11-29T13:41:42Z</time>
      </trkpt>
      <trkpt lat="44.29865" lon="1.12054">
        <ele>231.33</ele>
        <time>2015-11-29T13:41:57Z</time>
      </trkpt>
      <trkpt lat="44.29868" lon="1.12095">
        <ele>231.33</ele>
        <time>2015-11-29T13:42:17Z</time>
      </trkpt>
      <trkpt lat="44.2987" lon="1.12126">
        <ele>230.85</ele>
        <time>2015-11-29T13:42:34Z</time>
      </trkpt>
      <trkpt lat="44.29872" lon="1.12162">
        <ele>231.81</ele>
        <time>2015-11-29T13:42:54Z</time>
      </trkpt>
      <trkpt lat="44.29875" lon="1.12196">
        <ele>230.85</ele>
        <time>2015-11-29T13:43:15Z</time>
      </trkpt>
      <trkpt lat="44.29874" lon="1.12233">
        <ele>230.85</ele>
        <time>2015-11-29T13:43:36Z</time>
      </trkpt>
      <trkpt lat="44.29874" lon="1.12273">
        <ele>231.33</ele>
        <time>2015-11-29T13:43:57Z</time>
      </trkpt>
      <trkpt lat="44.29873" lon="1.12304">
        <ele>232.78</ele>
        <time>2015-11-29T13:44:14Z</time>
      </trkpt>
      <trkpt lat="44.2988" lon="1.12326">
        <ele>234.7</ele>
        <time>2015-11-29T13:44:30Z</time>
      </trkpt>
      <trkpt lat="44.29879" lon="1.12326">
        <ele>235.66</ele>
        <time>2015-11-29T13:44:57Z</time>
      </trkpt>
      <trkpt lat="44.2988" lon="1.12328">
        <ele>239.02</ele>
        <time>2015-11-29T13:45:30Z</time>
      </trkpt>
      <trkpt lat="44.2988" lon="1.12327">
        <ele>239.51</ele>
        <time>2015-11-29T13:45:52Z</time>
      </trkpt>
      <trkpt lat="44.29882" lon="1.12327">
        <ele>241.91</ele>
        <time>2015-11-29T13:46:14Z</time>
      </trkpt>
      <trkpt lat="44.2989" lon="1.12331">
        <ele>239.51</ele>
        <time>2015-11-29T13:46:30Z</time>
      </trkpt>
      <trkpt lat="44.29906" lon="1.12336">
        <ele>239.02</ele>
        <time>2015-11-29T13:46:48Z</time>
      </trkpt>
      <trkpt lat="44.29935" lon="1.12342">
        <ele>239.02</ele>
        <time>2015-11-29T13:47:09Z</time>
      </trkpt>
      <trkpt lat="44.29962" lon="1.12341">
        <ele>240.95</ele>
        <time>2015-11-29T13:47:30Z</time>
      </trkpt>
      <trkpt lat="44.29985" lon="1.12332">
        <ele>242.39</ele>
        <time>2015-11-29T13:47:49Z</time>
      </trkpt>
      <trkpt lat="44.30005" lon="1.1233">
        <ele>242.87</ele>
        <time>2015-11-29T13:48:06Z</time>
      </trkpt>
      <trkpt lat="44.3002" lon="1.12332">
        <ele>243.35</ele>
        <time>2015-11-29T13:48:22Z</time>
      </trkpt>
      <trkpt lat="44.30042" lon="1.12342">
        <ele>239.99</ele>
        <time>2015-11-29T13:48:40Z</time>
      </trkpt>
      <trkpt lat="44.30068" lon="1.12355">
        <ele>242.39</ele>
        <time>2015-11-29T13:48:59Z</time>
      </trkpt>
      <trkpt lat="44.30084" lon="1.12364">
        <ele>242.39</ele>
        <time>2015-11-29T13:49:12Z</time>
      </trkpt>
      <trkpt lat="44.30091" lon="1.12371">
        <ele>242.39</ele>
        <time>2015-11-29T13:49:21Z</time>
      </trkpt>
      <trkpt lat="44.30092" lon="1.12375">
        <ele>242.87</ele>
        <time>2015-11-29T13:49:24Z</time>
      </trkpt>
      <trkpt lat="44.30089" lon="1.12386">
        <ele>242.87</ele>
        <time>2015-11-29T13:49:34Z</time>
      </trkpt>
      <trkpt lat="44.30086" lon="1.12414">
        <ele>241.91</ele>
        <time>2015-11-29T13:49:53Z</time>
      </trkpt>
      <trkpt lat="44.30084" lon="1.12424">
        <ele>243.35</ele>
        <time>2015-11-29T13:50:10Z</time>
      </trkpt>
      <trkpt lat="44.30068" lon="1.12442">
        <ele>244.31</ele>
        <time>2015-11-29T13:50:29Z</time>
      </trkpt>
      <trkpt lat="44.3005" lon="1.1246">
        <ele>244.31</ele>
        <time>2015-11-29T13:50:48Z</time>
      </trkpt>
      <trkpt lat="44.30032" lon="1.12479">
        <ele>242.87</ele>
        <time>2015-11-29T13:51:06Z</time>
      </trkpt>
      <trkpt lat="44.30017" lon="1.12499">
        <ele>241.91</ele>
        <time>2015-11-29T13:51:23Z</time>
      </trkpt>
      <trkpt lat="44.30009" lon="1.12508">
        <ele>242.87</ele>
        <time>2015-11-29T13:51:29Z</time>
      </trkpt>
      <trkpt lat="44.29994" lon="1.12522">
        <ele>240.47</ele>
        <time>2015-11-29T13:51:45Z</time>
      </trkpt>
      <trkpt lat="44.29978" lon="1.12539">
        <ele>242.39</ele>
        <time>2015-11-29T13:52:01Z</time>
      </trkpt>
      <trkpt lat="44.29972" lon="1.12552">
        <ele>243.83</ele>
        <time>2015-11-29T13:52:13Z</time>
      </trkpt>
      <trkpt lat="44.29967" lon="1.12563">
        <ele>244.31</ele>
        <time>2015-11-29T13:52:27Z</time>
      </trkpt>
      <trkpt lat="44.29966" lon="1.12565">
        <ele>243.83</ele>
        <time>2015-11-29T13:52:29Z</time>
      </trkpt>
      <trkpt lat="44.29952" lon="1.1258">
        <ele>241.91</ele>
        <time>2015-11-29T13:52:46Z</time>
      </trkpt>
      <trkpt lat="44.29946" lon="1.12582">
        <ele>241.43</ele>
        <time>2015-11-29T13:52:52Z</time>
      </trkpt>
      <trkpt lat="44.29946" lon="1.12585">
        <ele>240.95</ele>
        <time>2015-11-29T13:52:55Z</time>
      </trkpt>
      <trkpt lat="44.29935" lon="1.12596">
        <ele>239.99</ele>
        <time>2015-11-29T13:53:12Z</time>
      </trkpt>
      <trkpt lat="44.29934" lon="1.12596">
        <ele>240.95</ele>
        <time>2015-11-29T13:53:25Z</time>
      </trkpt>
      <trkpt lat="44.29933" lon="1.12596">
        <ele>242.87</ele>
        <time>2015-11-29T13:53:47Z</time>
      </trkpt>
      <trkpt lat="44.29929" lon="1.12604">
        <ele>242.39</ele>
        <time>2015-11-29T13:54:07Z</time>
      </trkpt>
      <trkpt lat="44.29903" lon="1.12616">
        <ele>244.79</ele>
        <time>2015-11-29T13:54:28Z</time>
      </trkpt>
      <trkpt lat="44.29889" lon="1.12618">
        <ele>243.83</ele>
        <time>2015-11-29T13:54:43Z</time>
      </trkpt>
      <trkpt lat="44.29869" lon="1.12623">
        <ele>243.35</ele>
        <time>2015-11-29T13:55:00Z</time>
      </trkpt>
      <trkpt lat="44.29853" lon="1.12629">
        <ele>242.39</ele>
        <time>2015-11-29T13:55:14Z</time>
      </trkpt>
      <trkpt lat="44.29831" lon="1.12636">
        <ele>240.95</ele>
        <time>2015-11-29T13:55:32Z</time>
      </trkpt>
      <trkpt lat="44.2981" lon="1.12644">
        <ele>236.62</ele>
        <time>2015-11-29T13:55:51Z</time>
      </trkpt>
      <trkpt lat="44.29789" lon="1.12665">
        <ele>237.1</ele>
        <time>2015-11-29T13:56:10Z</time>
      </trkpt>
      <trkpt lat="44.29772" lon="1.12691">
        <ele>237.58</ele>
        <time>2015-11-29T13:56:29Z</time>
      </trkpt>
      <trkpt lat="44.29769" lon="1.12693">
        <ele>237.1</ele>
        <time>2015-11-29T13:56:36Z</time>
      </trkpt>
      <trkpt lat="44.29754" lon="1.1271">
        <ele>235.66</ele>
        <time>2015-11-29T13:56:52Z</time>
      </trkpt>
      <trkpt lat="44.2973" lon="1.12727">
        <ele>235.66</ele>
        <time>2015-11-29T13:57:12Z</time>
      </trkpt>
      <trkpt lat="44.29707" lon="1.12745">
        <ele>234.7</ele>
        <time>2015-11-29T13:57:32Z</time>
      </trkpt>
      <trkpt lat="44.29683" lon="1.12753">
        <ele>234.22</ele>
        <time>2015-11-29T13:57:49Z</time>
      </trkpt>
      <trkpt lat="44.29662" lon="1.12745">
        <ele>233.26</ele>
        <time>2015-11-29T13:58:06Z</time>
      </trkpt>
      <trkpt lat="44.29634" lon="1.12743">
        <ele>231.81</ele>
        <time>2015-11-29T13:58:26Z</time>
      </trkpt>
      <trkpt lat="44.29609" lon="1.12747">
        <ele>228.93</ele>
        <time>2015-11-29T13:58:47Z</time>
      </trkpt>
      <trkpt lat="44.2959" lon="1.12749">
        <ele>227.49</ele>
        <time>2015-11-29T13:59:04Z</time>
      </trkpt>
      <trkpt lat="44.29584" lon="1.1275">
        <ele>227.49</ele>
        <time>2015-11-29T13:59:19Z</time>
      </trkpt>
      <trkpt lat="44.2958" lon="1.12741">
        <ele>227.97</ele>
        <time>2015-11-29T13:59:37Z</time>
      </trkpt>
      <trkpt lat="44.29576" lon="1.12731">
        <ele>226.05</ele>
        <time>2015-11-29T13:59:47Z</time>
      </trkpt>
      <trkpt lat="44.29563" lon="1.12704">
        <ele>225.57</ele>
        <time>2015-11-29T14:00:03Z</time>
      </trkpt>
      <trkpt lat="44.29553" lon="1.12681">
        <ele>223.64</ele>
        <time>2015-11-29T14:00:20Z</time>
      </trkpt>
      <trkpt lat="44.29541" lon="1.12654">
        <ele>223.64</ele>
        <time>2015-11-29T14:00:40Z</time>
      </trkpt>
      <trkpt lat="44.29532" lon="1.12636">
        <ele>225.09</ele>
        <time>2015-11-29T14:00:55Z</time>
      </trkpt>
      <trkpt lat="44.29524" lon="1.1262">
        <ele>226.05</ele>
        <time>2015-11-29T14:01:06Z</time>
      </trkpt>
      <trkpt lat="44.29517" lon="1.12617">
        <ele>224.12</ele>
        <time>2015-11-29T14:01:21Z</time>
      </trkpt>
      <trkpt lat="44.29522" lon="1.12615">
        <ele>225.09</ele>
        <time>2015-11-29T14:01:42Z</time>
      </trkpt>
      <trkpt lat="44.29521" lon="1.12616">
        <ele>224.61</ele>
        <time>2015-11-29T14:02:00Z</time>
      </trkpt>
      <trkpt lat="44.29517" lon="1.12613">
        <ele>228.93</ele>
        <time>2015-11-29T14:02:38Z</time>
      </trkpt>
      <trkpt lat="44.2951" lon="1.1262">
        <ele>227.97</ele>
        <time>2015-11-29T14:02:58Z</time>
      </trkpt>
      <trkpt lat="44.29501" lon="1.1263">
        <ele>223.16</ele>
        <time>2015-11-29T14:03:15Z</time>
      </trkpt>
      <trkpt lat="44.29482" lon="1.12642">
        <ele>219.32</ele>
        <time>2015-11-29T14:03:31Z</time>
      </trkpt>
      <trkpt lat="44.29468" lon="1.12645">
        <ele>217.4</ele>
        <time>2015-11-29T14:03:45Z</time>
      </trkpt>
      <trkpt lat="44.29464" lon="1.12648">
        <ele>217.4</ele>
        <time>2015-11-29T14:04:00Z</time>
      </trkpt>
      <trkpt lat="44.29449" lon="1.12655">
        <ele>219.32</ele>
        <time>2015-11-29T14:04:15Z</time>
      </trkpt>
      <trkpt lat="44.29431" lon="1.12662">
        <ele>222.2</ele>
        <time>2015-11-29T14:04:31Z</time>
      </trkpt>
      <trkpt lat="44.29422" lon="1.12664">
        <ele>224.61</ele>
        <time>2015-11-29T14:04:46Z</time>
      </trkpt>
      <trkpt lat="44.29406" lon="1.12667">
        <ele>217.4</ele>
        <time>2015-11-29T14:05:00Z</time>
      </trkpt>
      <trkpt lat="44.29393" lon="1.12671">
        <ele>210.19</ele>
        <time>2015-11-29T14:05:14Z</time>
      </trkpt>
      <trkpt lat="44.29372" lon="1.12677">
        <ele>207.3</ele>
        <time>2015-11-29T14:05:29Z</time>
      </trkpt>
      <trkpt lat="44.29356" lon="1.12683">
        <ele>204.9</ele>
        <time>2015-11-29T14:05:44Z</time>
      </trkpt>
      <trkpt lat="44.29348" lon="1.12681">
        <ele>204.9</ele>
        <time>2015-11-29T14:05:58Z</time>
      </trkpt>
      <trkpt lat="44.2933" lon="1.12673">
        <ele>216.43</ele>
        <time>2015-11-29T14:06:14Z</time>
      </trkpt>
      <trkpt lat="44.29324" lon="1.12662">
        <ele>219.8</ele>
        <time>2015-11-29T14:06:22Z</time>
      </trkpt>
      <trkpt lat="44.29307" lon="1.12643">
        <ele>220.28</ele>
        <time>2015-11-29T14:06:41Z</time>
      </trkpt>
      <trkpt lat="44.29301" lon="1.12642">
        <ele>219.8</ele>
        <time>2015-11-29T14:06:47Z</time>
      </trkpt>
      <trkpt lat="44.29278" lon="1.12644">
        <ele>221.72</ele>
        <time>2015-11-29T14:07:04Z</time>
      </trkpt>
      <trkpt lat="44.29256" lon="1.12651">
        <ele>222.2</ele>
        <time>2015-11-29T14:07:23Z</time>
      </trkpt>
      <trkpt lat="44.29236" lon="1.12658">
        <ele>220.76</ele>
        <time>2015-11-29T14:07:42Z</time>
      </trkpt>
      <trkpt lat="44.29207" lon="1.12667">
        <ele>224.12</ele>
        <time>2015-11-29T14:08:02Z</time>
      </trkpt>
      <trkpt lat="44.29192" lon="1.12671">
        <ele>223.16</ele>
        <time>2015-11-29T14:08:17Z</time>
      </trkpt>
      <trkpt lat="44.29176" lon="1.12674">
        <ele>220.28</ele>
        <time>2015-11-29T14:08:32Z</time>
      </trkpt>
      <trkpt lat="44.29167" lon="1.12676">
        <ele>220.28</ele>
        <time>2015-11-29T14:08:48Z</time>
      </trkpt>
      <trkpt lat="44.29161" lon="1.12678">
        <ele>221.24</ele>
        <time>2015-11-29T14:09:02Z</time>
      </trkpt>
      <trkpt lat="44.29153" lon="1.12682">
        <ele>219.32</ele>
        <time>2015-11-29T14:09:16Z</time>
      </trkpt>
      <trkpt lat="44.29143" lon="1.12679">
        <ele>218.84</ele>
        <time>2015-11-29T14:09:31Z</time>
      </trkpt>
      <trkpt lat="44.29134" lon="1.12659">
        <ele>217.4</ele>
        <time>2015-11-29T14:09:47Z</time>
      </trkpt>
      <trkpt lat="44.29125" lon="1.12639">
        <ele>217.4</ele>
        <time>2015-11-29T14:10:02Z</time>
      </trkpt>
      <trkpt lat="44.29119" lon="1.1261">
        <ele>215.95</ele>
        <time>2015-11-29T14:10:20Z</time>
      </trkpt>
      <trkpt lat="44.29109" lon="1.12586">
        <ele>210.67</ele>
        <time>2015-11-29T14:10:35Z</time>
      </trkpt>
      <trkpt lat="44.291" lon="1.12574">
        <ele>213.07</ele>
        <time>2015-11-29T14:10:48Z</time>
      </trkpt>
      <trkpt lat="44.29096" lon="1.12564">
        <ele>215.47</ele>
        <time>2015-11-29T14:11:01Z</time>
      </trkpt>
      <trkpt lat="44.29088" lon="1.12548">
        <ele>212.59</ele>
        <time>2015-11-29T14:11:15Z</time>
      </trkpt>
      <trkpt lat="44.29079" lon="1.12532">
        <ele>209.7</ele>
        <time>2015-11-29T14:11:30Z</time>
      </trkpt>
      <trkpt lat="44.29068" lon="1.12524">
        <ele>202.98</ele>
        <time>2015-11-29T14:11:45Z</time>
      </trkpt>
      <trkpt lat="44.29057" lon="1.12519">
        <ele>196.73</ele>
        <time>2015-11-29T14:11:58Z</time>
      </trkpt>
      <trkpt lat="44.29045" lon="1.12511">
        <ele>196.25</ele>
        <time>2015-11-29T14:12:12Z</time>
      </trkpt>
      <trkpt lat="44.29034" lon="1.12508">
        <ele>194.8</ele>
        <time>2015-11-29T14:12:26Z</time>
      </trkpt>
      <trkpt lat="44.29027" lon="1.12505">
        <ele>192.88</ele>
        <time>2015-11-29T14:12:41Z</time>
      </trkpt>
      <trkpt lat="44.29016" lon="1.125">
        <ele>193.84</ele>
        <time>2015-11-29T14:13:00Z</time>
      </trkpt>
      <trkpt lat="44.29013" lon="1.12499">
        <ele>193.84</ele>
        <time>2015-11-29T14:13:17Z</time>
      </trkpt>
      <trkpt lat="44.29011" lon="1.12499">
        <ele>196.73</ele>
        <time>2015-11-29T14:13:38Z</time>
      </trkpt>
      <trkpt lat="44.29" lon="1.12492">
        <ele>192.88</ele>
        <time>2015-11-29T14:13:52Z</time>
      </trkpt>
      <trkpt lat="44.28995" lon="1.12494">
        <ele>189.04</ele>
        <time>2015-11-29T14:14:07Z</time>
      </trkpt>
      <trkpt lat="44.28985" lon="1.12496">
        <ele>184.23</ele>
        <time>2015-11-29T14:14:29Z</time>
      </trkpt>
      <trkpt lat="44.2897" lon="1.12503">
        <ele>180.87</ele>
        <time>2015-11-29T14:14:45Z</time>
      </trkpt>
      <trkpt lat="44.2896" lon="1.12505">
        <ele>182.31</ele>
        <time>2015-11-29T14:14:54Z</time>
      </trkpt>
      <trkpt lat="44.28943" lon="1.12504">
        <ele>183.75</ele>
        <time>2015-11-29T14:15:11Z</time>
      </trkpt>
      <trkpt lat="44.28925" lon="1.125">
        <ele>185.67</ele>
        <time>2015-11-29T14:15:26Z</time>
      </trkpt>
      <trkpt lat="44.2891" lon="1.12497">
        <ele>183.75</ele>
        <time>2015-11-29T14:15:45Z</time>
      </trkpt>
      <trkpt lat="44.289" lon="1.12491">
        <ele>178.94</ele>
        <time>2015-11-29T14:16:11Z</time>
      </trkpt>
      <trkpt lat="44.28883" lon="1.12488">
        <ele>177.02</ele>
        <time>2015-11-29T14:16:27Z</time>
      </trkpt>
      <trkpt lat="44.28874" lon="1.12483">
        <ele>177.5</ele>
        <time>2015-11-29T14:16:41Z</time>
      </trkpt>
      <trkpt lat="44.28869" lon="1.12484">
        <ele>177.02</ele>
        <time>2015-11-29T14:16:57Z</time>
      </trkpt>
      <trkpt lat="44.28861" lon="1.1248">
        <ele>172.69</ele>
        <time>2015-11-29T14:17:13Z</time>
      </trkpt>
      <trkpt lat="44.28848" lon="1.12475">
        <ele>167.41</ele>
        <time>2015-11-29T14:17:28Z</time>
      </trkpt>
      <trkpt lat="44.28835" lon="1.12465">
        <ele>166.45</ele>
        <time>2015-11-29T14:17:42Z</time>
      </trkpt>
      <trkpt lat="44.28828" lon="1.1246">
        <ele>166.45</ele>
        <time>2015-11-29T14:17:55Z</time>
      </trkpt>
      <trkpt lat="44.28816" lon="1.12462">
        <ele>165</ele>
        <time>2015-11-29T14:18:10Z</time>
      </trkpt>
      <trkpt lat="44.28801" lon="1.12479">
        <ele>164.52</ele>
        <time>2015-11-29T14:18:27Z</time>
      </trkpt>
      <trkpt lat="44.28785" lon="1.12484">
        <ele>167.89</ele>
        <time>2015-11-29T14:18:41Z</time>
      </trkpt>
      <trkpt lat="44.28778" lon="1.12468">
        <ele>170.77</ele>
        <time>2015-11-29T14:18:58Z</time>
      </trkpt>
      <trkpt lat="44.28778" lon="1.12466">
        <ele>170.77</ele>
        <time>2015-11-29T14:18:59Z</time>
      </trkpt>
      <trkpt lat="44.28776" lon="1.12448">
        <ele>173.17</ele>
        <time>2015-11-29T14:19:13Z</time>
      </trkpt>
      <trkpt lat="44.28771" lon="1.12433">
        <ele>177.98</ele>
        <time>2015-11-29T14:19:27Z</time>
      </trkpt>
      <trkpt lat="44.28768" lon="1.12435">
        <ele>181.35</ele>
        <time>2015-11-29T14:19:37Z</time>
      </trkpt>
      <trkpt lat="44.28761" lon="1.12447">
        <ele>181.35</ele>
        <time>2015-11-29T14:19:48Z</time>
      </trkpt>
      <trkpt lat="44.28758" lon="1.12448">
        <ele>181.83</ele>
        <time>2015-11-29T14:19:50Z</time>
      </trkpt>
      <trkpt lat="44.28751" lon="1.12464">
        <ele>182.31</ele>
        <time>2015-11-29T14:20:03Z</time>
      </trkpt>
      <trkpt lat="44.28739" lon="1.12476">
        <ele>184.23</ele>
        <time>2015-11-29T14:20:15Z</time>
      </trkpt>
      <trkpt lat="44.28737" lon="1.12481">
        <ele>184.23</ele>
        <time>2015-11-29T14:20:18Z</time>
      </trkpt>
      <trkpt lat="44.28715" lon="1.12486">
        <ele>187.11</ele>
        <time>2015-11-29T14:20:39Z</time>
      </trkpt>
      <trkpt lat="44.28708" lon="1.12486">
        <ele>192.88</ele>
        <time>2015-11-29T14:20:54Z</time>
      </trkpt>
      <trkpt lat="44.28698" lon="1.12483">
        <ele>195.77</ele>
        <time>2015-11-29T14:21:21Z</time>
      </trkpt>
      <trkpt lat="44.28683" lon="1.12483">
        <ele>195.77</ele>
        <time>2015-11-29T14:21:36Z</time>
      </trkpt>
      <trkpt lat="44.28672" lon="1.12482">
        <ele>193.36</ele>
        <time>2015-11-29T14:21:49Z</time>
      </trkpt>
      <trkpt lat="44.28671" lon="1.12482">
        <ele>192.88</ele>
        <time>2015-11-29T14:21:50Z</time>
      </trkpt>
      <trkpt lat="44.28656" lon="1.12487">
        <ele>192.4</ele>
        <time>2015-11-29T14:22:05Z</time>
      </trkpt>
      <trkpt lat="44.28646" lon="1.12495">
        <ele>192.4</ele>
        <time>2015-11-29T14:22:14Z</time>
      </trkpt>
      <trkpt lat="44.28638" lon="1.12507">
        <ele>192.88</ele>
        <time>2015-11-29T14:22:25Z</time>
      </trkpt>
      <trkpt lat="44.28631" lon="1.12527">
        <ele>192.88</ele>
        <time>2015-11-29T14:22:36Z</time>
      </trkpt>
      <trkpt lat="44.28628" lon="1.1254">
        <ele>190.48</ele>
        <time>2015-11-29T14:22:44Z</time>
      </trkpt>
      <trkpt lat="44.28628" lon="1.1255">
        <ele>190.48</ele>
        <time>2015-11-29T14:22:49Z</time>
      </trkpt>
      <trkpt lat="44.28628" lon="1.12559">
        <ele>190</ele>
        <time>2015-11-29T14:22:54Z</time>
      </trkpt>
      <trkpt lat="44.28619" lon="1.12586">
        <ele>193.36</ele>
        <time>2015-11-29T14:23:10Z</time>
      </trkpt>
      <trkpt lat="44.28608" lon="1.12603">
        <ele>187.11</ele>
        <time>2015-11-29T14:23:26Z</time>
      </trkpt>
      <trkpt lat="44.28606" lon="1.12607">
        <ele>186.63</ele>
        <time>2015-11-29T14:23:29Z</time>
      </trkpt>
      <trkpt lat="44.28596" lon="1.12626">
        <ele>186.15</ele>
        <time>2015-11-29T14:23:44Z</time>
      </trkpt>
      <trkpt lat="44.28581" lon="1.12642">
        <ele>187.11</ele>
        <time>2015-11-29T14:24:00Z</time>
      </trkpt>
      <trkpt lat="44.28564" lon="1.12654">
        <ele>191.92</ele>
        <time>2015-11-29T14:24:16Z</time>
      </trkpt>
      <trkpt lat="44.28552" lon="1.12666">
        <ele>194.8</ele>
        <time>2015-11-29T14:24:30Z</time>
      </trkpt>
      <trkpt lat="44.28548" lon="1.12688">
        <ele>191.92</ele>
        <time>2015-11-29T14:24:44Z</time>
      </trkpt>
      <trkpt lat="44.2855" lon="1.12692">
        <ele>191.44</ele>
        <time>2015-11-29T14:24:47Z</time>
      </trkpt>
      <trkpt lat="44.28552" lon="1.12702">
        <ele>193.36</ele>
        <time>2015-11-29T14:25:04Z</time>
      </trkpt>
      <trkpt lat="44.2855" lon="1.12705">
        <ele>202.01</ele>
        <time>2015-11-29T14:25:29Z</time>
      </trkpt>
      <trkpt lat="44.28549" lon="1.12703">
        <ele>202.49</ele>
        <time>2015-11-29T14:26:01Z</time>
      </trkpt>
      <trkpt lat="44.28553" lon="1.1271">
        <ele>205.86</ele>
        <time>2015-11-29T14:26:16Z</time>
      </trkpt>
      <trkpt lat="44.28552" lon="1.1271">
        <ele>207.78</ele>
        <time>2015-11-29T14:26:36Z</time>
      </trkpt>
      <trkpt lat="44.28561" lon="1.12721">
        <ele>206.82</ele>
        <time>2015-11-29T14:26:58Z</time>
      </trkpt>
      <trkpt lat="44.28567" lon="1.12732">
        <ele>206.82</ele>
        <time>2015-11-29T14:27:09Z</time>
      </trkpt>
      <trkpt lat="44.28571" lon="1.1274">
        <ele>206.34</ele>
        <time>2015-11-29T14:27:27Z</time>
      </trkpt>
      <trkpt lat="44.28571" lon="1.1274">
        <ele>209.22</ele>
        <time>2015-11-29T14:27:50Z</time>
      </trkpt>
      <trkpt lat="44.28571" lon="1.12741">
        <ele>208.26</ele>
        <time>2015-11-29T14:28:13Z</time>
      </trkpt>
      <trkpt lat="44.28573" lon="1.12739">
        <ele>206.82</ele>
        <time>2015-11-29T14:28:34Z</time>
      </trkpt>
      <trkpt lat="44.28571" lon="1.12741">
        <ele>208.26</ele>
        <time>2015-11-29T14:28:58Z</time>
      </trkpt>
      <trkpt lat="44.28564" lon="1.12759">
        <ele>209.22</ele>
        <time>2015-11-29T14:29:20Z</time>
      </trkpt>
      <trkpt lat="44.28555" lon="1.12786">
        <ele>212.11</ele>
        <time>2015-11-29T14:29:41Z</time>
      </trkpt>
      <trkpt lat="44.28548" lon="1.12813">
        <ele>214.03</ele>
        <time>2015-11-29T14:30:05Z</time>
      </trkpt>
      <trkpt lat="44.28539" lon="1.12846">
        <ele>214.99</ele>
        <time>2015-11-29T14:30:28Z</time>
      </trkpt>
      <trkpt lat="44.2853" lon="1.12855">
        <ele>216.91</ele>
        <time>2015-11-29T14:30:41Z</time>
      </trkpt>
      <trkpt lat="44.28533" lon="1.12861">
        <ele>218.84</ele>
        <time>2015-11-29T14:31:01Z</time>
      </trkpt>
      <trkpt lat="44.28513" lon="1.12868">
        <ele>220.28</ele>
        <time>2015-11-29T14:31:21Z</time>
      </trkpt>
      <trkpt lat="44.28511" lon="1.12868">
        <ele>220.28</ele>
        <time>2015-11-29T14:31:22Z</time>
      </trkpt>
      <trkpt lat="44.28484" lon="1.12855">
        <ele>219.8</ele>
        <time>2015-11-29T14:31:43Z</time>
      </trkpt>
      <trkpt lat="44.28458" lon="1.12848">
        <ele>222.2</ele>
        <time>2015-11-29T14:32:06Z</time>
      </trkpt>
      <trkpt lat="44.28435" lon="1.12841">
        <ele>222.68</ele>
        <time>2015-11-29T14:32:27Z</time>
      </trkpt>
      <trkpt lat="44.28405" lon="1.12834">
        <ele>223.16</ele>
        <time>2015-11-29T14:32:55Z</time>
      </trkpt>
      <trkpt lat="44.2838" lon="1.12826">
        <ele>225.57</ele>
        <time>2015-11-29T14:33:15Z</time>
      </trkpt>
      <trkpt lat="44.28349" lon="1.12839">
        <ele>227.49</ele>
        <time>2015-11-29T14:33:40Z</time>
      </trkpt>
      <trkpt lat="44.28333" lon="1.12832">
        <ele>225.57</ele>
        <time>2015-11-29T14:33:58Z</time>
      </trkpt>
      <trkpt lat="44.28314" lon="1.12793">
        <ele>225.09</ele>
        <time>2015-11-29T14:38:15Z</time>
      </trkpt>
      <trkpt lat="44.28309" lon="1.12751">
        <ele>226.53</ele>
        <time>2015-11-29T14:38:39Z</time>
      </trkpt>
      <trkpt lat="44.28302" lon="1.12707">
        <ele>228.45</ele>
        <time>2015-11-29T14:50:37Z</time>
      </trkpt>
      <trkpt lat="44.28302" lon="1.12705">
        <ele>227.97</ele>
        <time>2015-11-29T14:51:04Z</time>
      </trkpt>
      <trkpt lat="44.28299" lon="1.12671">
        <ele>231.33</ele>
        <time>2015-11-29T14:51:26Z</time>
      </trkpt>
      <trkpt lat="44.28306" lon="1.1264">
        <ele>233.74</ele>
        <time>2015-11-29T14:51:47Z</time>
      </trkpt>
      <trkpt lat="44.28317" lon="1.12619">
        <ele>233.26</ele>
        <time>2015-11-29T14:52:06Z</time>
      </trkpt>
      <trkpt lat="44.28314" lon="1.12616">
        <ele>230.85</ele>
        <time>2015-11-29T14:52:34Z</time>
      </trkpt>
      <trkpt lat="44.28314" lon="1.1262">
        <ele>229.89</ele>
        <time>2015-11-29T14:53:05Z</time>
      </trkpt>
      <trkpt lat="44.28287" lon="1.12601">
        <ele>227.97</ele>
        <time>2015-11-29T14:53:28Z</time>
      </trkpt>
      <trkpt lat="44.28268" lon="1.12594">
        <ele>226.05</ele>
        <time>2015-11-29T14:53:42Z</time>
      </trkpt>
      <trkpt lat="44.28242" lon="1.126">
        <ele>225.57</ele>
        <time>2015-11-29T14:54:02Z</time>
      </trkpt>
      <trkpt lat="44.28217" lon="1.12625">
        <ele>224.61</ele>
        <time>2015-11-29T14:54:26Z</time>
      </trkpt>
      <trkpt lat="44.28193" lon="1.12643">
        <ele>225.57</ele>
        <time>2015-11-29T14:54:47Z</time>
      </trkpt>
      <trkpt lat="44.28172" lon="1.12665">
        <ele>224.61</ele>
        <time>2015-11-29T14:55:07Z</time>
      </trkpt>
      <trkpt lat="44.28148" lon="1.1269">
        <ele>225.57</ele>
        <time>2015-11-29T14:55:31Z</time>
      </trkpt>
      <trkpt lat="44.28124" lon="1.12713">
        <ele>222.68</ele>
        <time>2015-11-29T14:55:57Z</time>
      </trkpt>
      <trkpt lat="44.28105" lon="1.12731">
        <ele>221.72</ele>
        <time>2015-11-29T14:56:17Z</time>
      </trkpt>
      <trkpt lat="44.28081" lon="1.12755">
        <ele>220.28</ele>
        <time>2015-11-29T14:56:39Z</time>
      </trkpt>
      <trkpt lat="44.28056" lon="1.12779">
        <ele>220.76</ele>
        <time>2015-11-29T14:57:03Z</time>
      </trkpt>
      <trkpt lat="44.28035" lon="1.12805">
        <ele>224.61</ele>
        <time>2015-11-29T14:57:25Z</time>
      </trkpt>
      <trkpt lat="44.28013" lon="1.12832">
        <ele>225.57</ele>
        <time>2015-11-29T14:57:47Z</time>
      </trkpt>
      <trkpt lat="44.27987" lon="1.12863">
        <ele>226.05</ele>
        <time>2015-11-29T14:58:12Z</time>
      </trkpt>
      <trkpt lat="44.27965" lon="1.12902">
        <ele>226.53</ele>
        <time>2015-11-29T14:58:38Z</time>
      </trkpt>
      <trkpt lat="44.27949" lon="1.12945">
        <ele>227.49</ele>
        <time>2015-11-29T14:59:06Z</time>
      </trkpt>
      <trkpt lat="44.27936" lon="1.12981">
        <ele>227.01</ele>
        <time>2015-11-29T14:59:29Z</time>
      </trkpt>
      <trkpt lat="44.27913" lon="1.13018">
        <ele>227.01</ele>
        <time>2015-11-29T14:59:56Z</time>
      </trkpt>
      <trkpt lat="44.27889" lon="1.13051">
        <ele>224.61</ele>
        <time>2015-11-29T15:00:22Z</time>
      </trkpt>
      <trkpt lat="44.27867" lon="1.1309">
        <ele>222.68</ele>
        <time>2015-11-29T15:00:49Z</time>
      </trkpt>
      <trkpt lat="44.27848" lon="1.13121">
        <ele>222.2</ele>
        <time>2015-11-29T15:01:11Z</time>
      </trkpt>
      <trkpt lat="44.27828" lon="1.13158">
        <ele>222.68</ele>
        <time>2015-11-29T15:01:36Z</time>
      </trkpt>
      <trkpt lat="44.2781" lon="1.13193">
        <ele>224.12</ele>
        <time>2015-11-29T15:02:00Z</time>
      </trkpt>
      <trkpt lat="44.27795" lon="1.13226">
        <ele>224.12</ele>
        <time>2015-11-29T15:02:21Z</time>
      </trkpt>
      <trkpt lat="44.27782" lon="1.13265">
        <ele>223.16</ele>
        <time>2015-11-29T15:02:43Z</time>
      </trkpt>
      <trkpt lat="44.27766" lon="1.13294">
        <ele>220.28</ele>
        <time>2015-11-29T15:03:04Z</time>
      </trkpt>
      <trkpt lat="44.27765" lon="1.13316">
        <ele>216.43</ele>
        <time>2015-11-29T15:03:20Z</time>
      </trkpt>
      <trkpt lat="44.27766" lon="1.13315">
        <ele>217.4</ele>
        <time>2015-11-29T15:03:39Z</time>
      </trkpt>
      <trkpt lat="44.27768" lon="1.13319">
        <ele>218.36</ele>
        <time>2015-11-29T15:03:49Z</time>
      </trkpt>
      <trkpt lat="44.27779" lon="1.13328">
        <ele>217.4</ele>
        <time>2015-11-29T15:04:03Z</time>
      </trkpt>
      <trkpt lat="44.27783" lon="1.13329">
        <ele>216.91</ele>
        <time>2015-11-29T15:04:12Z</time>
      </trkpt>
      <trkpt lat="44.27793" lon="1.13329">
        <ele>215.95</ele>
        <time>2015-11-29T15:04:26Z</time>
      </trkpt>
      <trkpt lat="44.27792" lon="1.13332">
        <ele>215.95</ele>
        <time>2015-11-29T15:04:31Z</time>
      </trkpt>
      <trkpt lat="44.278" lon="1.13341">
        <ele>215.47</ele>
        <time>2015-11-29T15:04:40Z</time>
      </trkpt>
      <trkpt lat="44.27807" lon="1.13345">
        <ele>216.91</ele>
        <time>2015-11-29T15:04:53Z</time>
      </trkpt>
      <trkpt lat="44.27805" lon="1.13345">
        <ele>217.4</ele>
        <time>2015-11-29T15:05:01Z</time>
      </trkpt>
      <trkpt lat="44.27802" lon="1.13343">
        <ele>217.4</ele>
        <time>2015-11-29T15:05:05Z</time>
      </trkpt>
      <trkpt lat="44.27797" lon="1.13336">
        <ele>217.4</ele>
        <time>2015-11-29T15:05:12Z</time>
      </trkpt>
      <trkpt lat="44.27799" lon="1.13328">
        <ele>216.91</ele>
        <time>2015-11-29T15:05:20Z</time>
      </trkpt>
      <trkpt lat="44.27816" lon="1.1332">
        <ele>214.99</ele>
        <time>2015-11-29T15:05:37Z</time>
      </trkpt>
      <trkpt lat="44.27822" lon="1.13315">
        <ele>215.47</ele>
        <time>2015-11-29T15:05:43Z</time>
      </trkpt>
      <trkpt lat="44.27833" lon="1.13298">
        <ele>212.59</ele>
        <time>2015-11-29T15:06:00Z</time>
      </trkpt>
      <trkpt lat="44.27845" lon="1.13279">
        <ele>212.11</ele>
        <time>2015-11-29T15:06:16Z</time>
      </trkpt>
      <trkpt lat="44.27846" lon="1.13275">
        <ele>213.07</ele>
        <time>2015-11-29T15:06:30Z</time>
      </trkpt>
      <trkpt lat="44.27846" lon="1.13276">
        <ele>213.55</ele>
        <time>2015-11-29T15:06:33Z</time>
      </trkpt>
      <trkpt lat="44.27844" lon="1.13278">
        <ele>213.07</ele>
        <time>2015-11-29T15:06:35Z</time>
      </trkpt>
      <trkpt lat="44.27849" lon="1.1327">
        <ele>213.07</ele>
        <time>2015-11-29T15:06:42Z</time>
      </trkpt>
      <trkpt lat="44.27863" lon="1.13244">
        <ele>212.59</ele>
        <time>2015-11-29T15:07:00Z</time>
      </trkpt>
      <trkpt lat="44.27873" lon="1.13224">
        <ele>208.74</ele>
        <time>2015-11-29T15:07:15Z</time>
      </trkpt>
      <trkpt lat="44.27883" lon="1.13208">
        <ele>210.19</ele>
        <time>2015-11-29T15:07:31Z</time>
      </trkpt>
      <trkpt lat="44.27895" lon="1.13194">
        <ele>213.07</ele>
        <time>2015-11-29T15:07:45Z</time>
      </trkpt>
      <trkpt lat="44.27909" lon="1.1318">
        <ele>208.74</ele>
        <time>2015-11-29T15:08:00Z</time>
      </trkpt>
      <trkpt lat="44.27919" lon="1.13178">
        <ele>207.78</ele>
        <time>2015-11-29T15:08:12Z</time>
      </trkpt>
      <trkpt lat="44.27919" lon="1.13174">
        <ele>208.74</ele>
        <time>2015-11-29T15:08:33Z</time>
      </trkpt>
      <trkpt lat="44.27917" lon="1.13182">
        <ele>206.82</ele>
        <time>2015-11-29T15:08:49Z</time>
      </trkpt>
      <trkpt lat="44.27912" lon="1.13195">
        <ele>201.53</ele>
        <time>2015-11-29T15:09:03Z</time>
      </trkpt>
      <trkpt lat="44.27904" lon="1.13215">
        <ele>192.88</ele>
        <time>2015-11-29T15:09:20Z</time>
      </trkpt>
      <trkpt lat="44.279" lon="1.13231">
        <ele>185.67</ele>
        <time>2015-11-29T15:09:33Z</time>
      </trkpt>
      <trkpt lat="44.27897" lon="1.13245">
        <ele>182.31</ele>
        <time>2015-11-29T15:09:52Z</time>
      </trkpt>
      <trkpt lat="44.27889" lon="1.1326">
        <ele>181.35</ele>
        <time>2015-11-29T15:10:06Z</time>
      </trkpt>
      <trkpt lat="44.27884" lon="1.1327">
        <ele>177.98</ele>
        <time>2015-11-29T15:10:17Z</time>
      </trkpt>
      <trkpt lat="44.27881" lon="1.13279">
        <ele>176.06</ele>
        <time>2015-11-29T15:10:24Z</time>
      </trkpt>
      <trkpt lat="44.27879" lon="1.13301">
        <ele>175.58</ele>
        <time>2015-11-29T15:10:37Z</time>
      </trkpt>
      <trkpt lat="44.27876" lon="1.13332">
        <ele>174.62</ele>
        <time>2015-11-29T15:10:53Z</time>
      </trkpt>
      <trkpt lat="44.27876" lon="1.13362">
        <ele>177.5</ele>
        <time>2015-11-29T15:11:09Z</time>
      </trkpt>
      <trkpt lat="44.2788" lon="1.13389">
        <ele>173.17</ele>
        <time>2015-11-29T15:11:26Z</time>
      </trkpt>
      <trkpt lat="44.27876" lon="1.13413">
        <ele>170.29</ele>
        <time>2015-11-29T15:11:40Z</time>
      </trkpt>
      <trkpt lat="44.2787" lon="1.13431">
        <ele>164.52</ele>
        <time>2015-11-29T15:11:56Z</time>
      </trkpt>
      <trkpt lat="44.27862" lon="1.13451">
        <ele>161.16</ele>
        <time>2015-11-29T15:12:12Z</time>
      </trkpt>
      <trkpt lat="44.27851" lon="1.13475">
        <ele>160.68</ele>
        <time>2015-11-29T15:12:28Z</time>
      </trkpt>
      <trkpt lat="44.2784" lon="1.13504">
        <ele>160.2</ele>
        <time>2015-11-29T15:12:44Z</time>
      </trkpt>
      <trkpt lat="44.27837" lon="1.13512">
        <ele>160.68</ele>
        <time>2015-11-29T15:12:49Z</time>
      </trkpt>
      <trkpt lat="44.2783" lon="1.13527">
        <ele>160.68</ele>
        <time>2015-11-29T15:13:04Z</time>
      </trkpt>
      <trkpt lat="44.27827" lon="1.13543">
        <ele>162.6</ele>
        <time>2015-11-29T15:13:18Z</time>
      </trkpt>
      <trkpt lat="44.27829" lon="1.13549">
        <ele>173.66</ele>
        <time>2015-11-29T15:13:42Z</time>
      </trkpt>
      <trkpt lat="44.27828" lon="1.13553">
        <ele>173.17</ele>
        <time>2015-11-29T15:13:46Z</time>
      </trkpt>
      <trkpt lat="44.27822" lon="1.1358">
        <ele>173.66</ele>
        <time>2015-11-29T15:14:03Z</time>
      </trkpt>
      <trkpt lat="44.27822" lon="1.13605">
        <ele>170.77</ele>
        <time>2015-11-29T15:14:18Z</time>
      </trkpt>
      <trkpt lat="44.27826" lon="1.13631">
        <ele>168.85</ele>
        <time>2015-11-29T15:14:34Z</time>
      </trkpt>
      <trkpt lat="44.27825" lon="1.13663">
        <ele>166.45</ele>
        <time>2015-11-29T15:14:53Z</time>
      </trkpt>
      <trkpt lat="44.27812" lon="1.13704">
        <ele>163.56</ele>
        <time>2015-11-29T15:15:20Z</time>
      </trkpt>
      <trkpt lat="44.27793" lon="1.13748">
        <ele>160.68</ele>
        <time>2015-11-29T15:15:50Z</time>
      </trkpt>
      <trkpt lat="44.27773" lon="1.1377">
        <ele>158.75</ele>
        <time>2015-11-29T15:16:11Z</time>
      </trkpt>
      <trkpt lat="44.27742" lon="1.13803">
        <ele>155.39</ele>
        <time>2015-11-29T15:16:42Z</time>
      </trkpt>
      <trkpt lat="44.27724" lon="1.13826">
        <ele>151.54</ele>
        <time>2015-11-29T15:17:02Z</time>
      </trkpt>
      <trkpt lat="44.27721" lon="1.13827">
        <ele>150.58</ele>
        <time>2015-11-29T15:17:05Z</time>
      </trkpt>
      <trkpt lat="44.27694" lon="1.13826">
        <ele>146.74</ele>
        <time>2015-11-29T15:17:26Z</time>
      </trkpt>
      <trkpt lat="44.27687" lon="1.13815">
        <ele>145.3</ele>
        <time>2015-11-29T15:17:33Z</time>
      </trkpt>
      <trkpt lat="44.27664" lon="1.13791">
        <ele>141.45</ele>
        <time>2015-11-29T15:17:57Z</time>
      </trkpt>
      <trkpt lat="44.27659" lon="1.13791">
        <ele>140.01</ele>
        <time>2015-11-29T15:18:01Z</time>
      </trkpt>
      <trkpt lat="44.27634" lon="1.13811">
        <ele>138.57</ele>
        <time>2015-11-29T15:18:24Z</time>
      </trkpt>
      <trkpt lat="44.27618" lon="1.13831">
        <ele>136.64</ele>
        <time>2015-11-29T15:18:45Z</time>
      </trkpt>
      <trkpt lat="44.27615" lon="1.13845">
        <ele>135.68</ele>
        <time>2015-11-29T15:18:54Z</time>
      </trkpt>
      <trkpt lat="44.27597" lon="1.13874">
        <ele>130.88</ele>
        <time>2015-11-29T15:19:17Z</time>
      </trkpt>
      <trkpt lat="44.27574" lon="1.13907">
        <ele>127.03</ele>
        <time>2015-11-29T15:19:42Z</time>
      </trkpt>
      <trkpt lat="44.27553" lon="1.13929">
        <ele>123.67</ele>
        <time>2015-11-29T15:20:04Z</time>
      </trkpt>
      <trkpt lat="44.2752" lon="1.13921">
        <ele>120.78</ele>
        <time>2015-11-29T15:20:30Z</time>
      </trkpt>
      <trkpt lat="44.27495" lon="1.13949">
        <ele>122.22</ele>
        <time>2015-11-29T15:20:54Z</time>
      </trkpt>
      <trkpt lat="44.27478" lon="1.13984">
        <ele>120.3</ele>
        <time>2015-11-29T15:21:17Z</time>
      </trkpt>
      <trkpt lat="44.27466" lon="1.14016">
        <ele>117.42</ele>
        <time>2015-11-29T15:21:38Z</time>
      </trkpt>
      <trkpt lat="44.27446" lon="1.14028">
        <ele>115.01</ele>
        <time>2015-11-29T15:21:57Z</time>
      </trkpt>
      <trkpt lat="44.27426" lon="1.13992">
        <ele>114.05</ele>
        <time>2015-11-29T15:22:22Z</time>
      </trkpt>
      <trkpt lat="44.27403" lon="1.13964">
        <ele>114.53</ele>
        <time>2015-11-29T15:22:45Z</time>
      </trkpt>
      <trkpt lat="44.27378" lon="1.13946">
        <ele>115.98</ele>
        <time>2015-11-29T15:23:07Z</time>
      </trkpt>
      <trkpt lat="44.27355" lon="1.13937">
        <ele>117.42</ele>
        <time>2015-11-29T15:23:28Z</time>
      </trkpt>
      <trkpt lat="44.27351" lon="1.13935">
        <ele>117.9</ele>
        <time>2015-11-29T15:23:31Z</time>
      </trkpt>
      <trkpt lat="44.27338" lon="1.13926">
        <ele>118.86</ele>
        <time>2015-11-29T15:23:42Z</time>
      </trkpt>
      <trkpt lat="44.27328" lon="1.13916">
        <ele>120.3</ele>
        <time>2015-11-29T15:24:00Z</time>
      </trkpt>
      <trkpt lat="44.27328" lon="1.13921">
        <ele>122.71</ele>
        <time>2015-11-29T15:24:22Z</time>
      </trkpt>
      <trkpt lat="44.27316" lon="1.13909">
        <ele>125.11</ele>
        <time>2015-11-29T15:24:40Z</time>
      </trkpt>
      <trkpt lat="44.27293" lon="1.13885">
        <ele>127.03</ele>
        <time>2015-11-29T15:25:04Z</time>
      </trkpt>
      <trkpt lat="44.27275" lon="1.13866">
        <ele>127.03</ele>
        <time>2015-11-29T15:25:23Z</time>
      </trkpt>
      <trkpt lat="44.2725" lon="1.13841">
        <ele>127.51</ele>
        <time>2015-11-29T15:25:48Z</time>
      </trkpt>
      <trkpt lat="44.27223" lon="1.13822">
        <ele>127.99</ele>
        <time>2015-11-29T15:26:10Z</time>
      </trkpt>
      <trkpt lat="44.27204" lon="1.13817">
        <ele>126.55</ele>
        <time>2015-11-29T15:26:24Z</time>
      </trkpt>
      <trkpt lat="44.27179" lon="1.13807">
        <ele>125.59</ele>
        <time>2015-11-29T15:26:47Z</time>
      </trkpt>
      <trkpt lat="44.27151" lon="1.13797">
        <ele>125.59</ele>
        <time>2015-11-29T15:27:10Z</time>
      </trkpt>
      <trkpt lat="44.27123" lon="1.13789">
        <ele>121.26</ele>
        <time>2015-11-29T15:27:35Z</time>
      </trkpt>
      <trkpt lat="44.27099" lon="1.13771">
        <ele>115.98</ele>
        <time>2015-11-29T15:28:00Z</time>
      </trkpt>
      <trkpt lat="44.27096" lon="1.13766">
        <ele>115.5</ele>
        <time>2015-11-29T15:28:04Z</time>
      </trkpt>
      <trkpt lat="44.2709" lon="1.13727">
        <ele>112.13</ele>
        <time>2015-11-29T15:28:26Z</time>
      </trkpt>
      <trkpt lat="44.27084" lon="1.13696">
        <ele>119.34</ele>
        <time>2015-11-29T15:28:45Z</time>
      </trkpt>
      <trkpt lat="44.2708" lon="1.13676">
        <ele>116.94</ele>
        <time>2015-11-29T15:29:00Z</time>
      </trkpt>
      <trkpt lat="44.2708" lon="1.13676">
        <ele>116.94</ele>
        <time>2015-11-29T15:29:05Z</time>
      </trkpt>
      <trkpt lat="44.27075" lon="1.13692">
        <ele>115.98</ele>
        <time>2015-11-29T15:29:17Z</time>
      </trkpt>
      <trkpt lat="44.27064" lon="1.13716">
        <ele>115.5</ele>
        <time>2015-11-29T15:29:34Z</time>
      </trkpt>
      <trkpt lat="44.27052" lon="1.13737">
        <ele>113.09</ele>
        <time>2015-11-29T15:29:51Z</time>
      </trkpt>
      <trkpt lat="44.27038" lon="1.13758">
        <ele>112.13</ele>
        <time>2015-11-29T15:30:09Z</time>
      </trkpt>
      <trkpt lat="44.27022" lon="1.13782">
        <ele>109.73</ele>
        <time>2015-11-29T15:30:29Z</time>
      </trkpt>
      <trkpt lat="44.27006" lon="1.13805">
        <ele>108.77</ele>
        <time>2015-11-29T15:30:48Z</time>
      </trkpt>
      <trkpt lat="44.2699" lon="1.1383">
        <ele>108.29</ele>
        <time>2015-11-29T15:31:08Z</time>
      </trkpt>
      <trkpt lat="44.26972" lon="1.13855">
        <ele>108.77</ele>
        <time>2015-11-29T15:31:28Z</time>
      </trkpt>
      <trkpt lat="44.26967" lon="1.13863">
        <ele>108.29</ele>
        <time>2015-11-29T15:31:35Z</time>
      </trkpt>
      <trkpt lat="44.2695" lon="1.13887">
        <ele>106.36</ele>
        <time>2015-11-29T15:31:56Z</time>
      </trkpt>
      <trkpt lat="44.26937" lon="1.13906">
        <ele>106.36</ele>
        <time>2015-11-29T15:32:13Z</time>
      </trkpt>
      <trkpt lat="44.26934" lon="1.13911">
        <ele>105.88</ele>
        <time>2015-11-29T15:32:17Z</time>
      </trkpt>
      <trkpt lat="44.26918" lon="1.13931">
        <ele>104.92</ele>
        <time>2015-11-29T15:32:36Z</time>
      </trkpt>
      <trkpt lat="44.26913" lon="1.13932">
        <ele>104.92</ele>
        <time>2015-11-29T15:32:47Z</time>
      </trkpt>
      <trkpt lat="44.26903" lon="1.13948">
        <ele>104.44</ele>
        <time>2015-11-29T15:33:02Z</time>
      </trkpt>
      <trkpt lat="44.26887" lon="1.13968">
        <ele>101.56</ele>
        <time>2015-11-29T15:33:21Z</time>
      </trkpt>
      <trkpt lat="44.26874" lon="1.13988">
        <ele>101.56</ele>
        <time>2015-11-29T15:33:39Z</time>
      </trkpt>
      <trkpt lat="44.26865" lon="1.14001">
        <ele>100.6</ele>
        <time>2015-11-29T15:33:52Z</time>
      </trkpt>
      <trkpt lat="44.2685" lon="1.14015">
        <ele>99.63</ele>
        <time>2015-11-29T15:34:07Z</time>
      </trkpt>
      <trkpt lat="44.26847" lon="1.14017">
        <ele>100.11</ele>
        <time>2015-11-29T15:34:10Z</time>
      </trkpt>
      <trkpt lat="44.26833" lon="1.14025">
        <ele>102.52</ele>
        <time>2015-11-29T15:34:24Z</time>
      </trkpt>
      <trkpt lat="44.26815" lon="1.14019">
        <ele>100.6</ele>
        <time>2015-11-29T15:34:41Z</time>
      </trkpt>
      <trkpt lat="44.26804" lon="1.14014">
        <ele>102.04</ele>
        <time>2015-11-29T15:34:54Z</time>
      </trkpt>
      <trkpt lat="44.26796" lon="1.14012">
        <ele>104.44</ele>
        <time>2015-11-29T15:35:01Z</time>
      </trkpt>
      <trkpt lat="44.26776" lon="1.13995">
        <ele>106.36</ele>
        <time>2015-11-29T15:35:20Z</time>
      </trkpt>
      <trkpt lat="44.26771" lon="1.13989">
        <ele>106.84</ele>
        <time>2015-11-29T15:35:29Z</time>
      </trkpt>
      <trkpt lat="44.26766" lon="1.13973">
        <ele>106.84</ele>
        <time>2015-11-29T15:35:42Z</time>
      </trkpt>
      <trkpt lat="44.26762" lon="1.13968">
        <ele>107.32</ele>
        <time>2015-11-29T15:35:46Z</time>
      </trkpt>
      <trkpt lat="44.2674" lon="1.13952">
        <ele>108.29</ele>
        <time>2015-11-29T15:36:06Z</time>
      </trkpt>
      <trkpt lat="44.26732" lon="1.13947">
        <ele>108.29</ele>
        <time>2015-11-29T15:36:15Z</time>
      </trkpt>
      <trkpt lat="44.26724" lon="1.13941">
        <ele>107.32</ele>
        <time>2015-11-29T15:36:29Z</time>
      </trkpt>
      <trkpt lat="44.26711" lon="1.13935">
        <ele>105.88</ele>
        <time>2015-11-29T15:36:45Z</time>
      </trkpt>
      <trkpt lat="44.2671" lon="1.13935">
        <ele>105.88</ele>
        <time>2015-11-29T15:36:46Z</time>
      </trkpt>
      <trkpt lat="44.26692" lon="1.1392">
        <ele>104.44</ele>
        <time>2015-11-29T15:37:03Z</time>
      </trkpt>
      <trkpt lat="44.26673" lon="1.13905">
        <ele>105.88</ele>
        <time>2015-11-29T15:37:20Z</time>
      </trkpt>
      <trkpt lat="44.26654" lon="1.13886">
        <ele>106.36</ele>
        <time>2015-11-29T15:37:37Z</time>
      </trkpt>
      <trkpt lat="44.26635" lon="1.13873">
        <ele>105.4</ele>
        <time>2015-11-29T15:37:56Z</time>
      </trkpt>
      <trkpt lat="44.26633" lon="1.13873">
        <ele>104.44</ele>
        <time>2015-11-29T15:38:12Z</time>
      </trkpt>
      <trkpt lat="44.26622" lon="1.13865">
        <ele>105.4</ele>
        <time>2015-11-29T15:38:26Z</time>
      </trkpt>
      <trkpt lat="44.26605" lon="1.13853">
        <ele>103</ele>
        <time>2015-11-29T15:38:42Z</time>
      </trkpt>
      <trkpt lat="44.26592" lon="1.13845">
        <ele>102.04</ele>
        <time>2015-11-29T15:38:55Z</time>
      </trkpt>
      <trkpt lat="44.26577" lon="1.13835">
        <ele>102.52</ele>
        <time>2015-11-29T15:39:08Z</time>
      </trkpt>
      <trkpt lat="44.26557" lon="1.13815">
        <ele>106.84</ele>
        <time>2015-11-29T15:39:25Z</time>
      </trkpt>
      <trkpt lat="44.26538" lon="1.138">
        <ele>105.4</ele>
        <time>2015-11-29T15:39:41Z</time>
      </trkpt>
      <trkpt lat="44.26519" lon="1.13784">
        <ele>106.84</ele>
        <time>2015-11-29T15:39:59Z</time>
      </trkpt>
      <trkpt lat="44.265" lon="1.13769">
        <ele>106.84</ele>
        <time>2015-11-29T15:40:17Z</time>
      </trkpt>
      <trkpt lat="44.26488" lon="1.13764">
        <ele>104.92</ele>
        <time>2015-11-29T15:40:28Z</time>
      </trkpt>
      <trkpt lat="44.26472" lon="1.13753">
        <ele>98.67</ele>
        <time>2015-11-29T15:40:44Z</time>
      </trkpt>
      <trkpt lat="44.26459" lon="1.13743">
        <ele>95.31</ele>
        <time>2015-11-29T15:40:56Z</time>
      </trkpt>
      <trkpt lat="44.26446" lon="1.13733">
        <ele>93.39</ele>
        <time>2015-11-29T15:41:11Z</time>
      </trkpt>
      <trkpt lat="44.26431" lon="1.13724">
        <ele>93.39</ele>
        <time>2015-11-29T15:41:26Z</time>
      </trkpt>
      <trkpt lat="44.26429" lon="1.13723">
        <ele>93.87</ele>
        <time>2015-11-29T15:41:30Z</time>
      </trkpt>
      <trkpt lat="44.26409" lon="1.13745">
        <ele>101.56</ele>
        <time>2015-11-29T15:41:49Z</time>
      </trkpt>
      <trkpt lat="44.26396" lon="1.13775">
        <ele>104.44</ele>
        <time>2015-11-29T15:42:09Z</time>
      </trkpt>
      <trkpt lat="44.26379" lon="1.13801">
        <ele>104.92</ele>
        <time>2015-11-29T15:42:28Z</time>
      </trkpt>
      <trkpt lat="44.26359" lon="1.13821">
        <ele>105.88</ele>
        <time>2015-11-29T15:42:47Z</time>
      </trkpt>
      <trkpt lat="44.26338" lon="1.13835">
        <ele>103.96</ele>
        <time>2015-11-29T15:43:07Z</time>
      </trkpt>
      <trkpt lat="44.26317" lon="1.13849">
        <ele>103</ele>
        <time>2015-11-29T15:43:24Z</time>
      </trkpt>
      <trkpt lat="44.26293" lon="1.13865">
        <ele>103.96</ele>
        <time>2015-11-29T15:43:43Z</time>
      </trkpt>
      <trkpt lat="44.26292" lon="1.13866">
        <ele>103.96</ele>
        <time>2015-11-29T15:43:44Z</time>
      </trkpt>
      <trkpt lat="44.26287" lon="1.13869">
        <ele>103.96</ele>
        <time>2015-11-29T15:43:49Z</time>
      </trkpt>
      <trkpt lat="44.26279" lon="1.13875">
        <ele>103</ele>
        <time>2015-11-29T15:43:59Z</time>
      </trkpt>
      <trkpt lat="44.26258" lon="1.13891">
        <ele>102.04</ele>
        <time>2015-11-29T15:44:17Z</time>
      </trkpt>
      <trkpt lat="44.26241" lon="1.13919">
        <ele>104.92</ele>
        <time>2015-11-29T15:44:33Z</time>
      </trkpt>
      <trkpt lat="44.2624" lon="1.13924">
        <ele>105.4</ele>
        <time>2015-11-29T15:44:36Z</time>
      </trkpt>
      <trkpt lat="44.26239" lon="1.13936">
        <ele>104.44</ele>
        <time>2015-11-29T15:44:43Z</time>
      </trkpt>
      <trkpt lat="44.26232" lon="1.13964">
        <ele>102.52</ele>
        <time>2015-11-29T15:44:59Z</time>
      </trkpt>
      <trkpt lat="44.26225" lon="1.13994">
        <ele>102.52</ele>
        <time>2015-11-29T15:45:15Z</time>
      </trkpt>
      <trkpt lat="44.26216" lon="1.14033">
        <ele>109.25</ele>
        <time>2015-11-29T15:45:36Z</time>
      </trkpt>
      <trkpt lat="44.26208" lon="1.14062">
        <ele>111.65</ele>
        <time>2015-11-29T15:45:53Z</time>
      </trkpt>
      <trkpt lat="44.26193" lon="1.14089">
        <ele>114.53</ele>
        <time>2015-11-29T15:46:11Z</time>
      </trkpt>
      <trkpt lat="44.26171" lon="1.14106">
        <ele>115.5</ele>
        <time>2015-11-29T15:46:31Z</time>
      </trkpt>
      <trkpt lat="44.26168" lon="1.14103">
        <ele>115.5</ele>
        <time>2015-11-29T15:46:43Z</time>
      </trkpt>
      <trkpt lat="44.26166" lon="1.14101">
        <ele>115.5</ele>
        <time>2015-11-29T15:46:58Z</time>
      </trkpt>
      <trkpt lat="44.26161" lon="1.14097">
        <ele>115.98</ele>
        <time>2015-11-29T15:47:12Z</time>
      </trkpt>
      <trkpt lat="44.2616" lon="1.14097">
        <ele>117.42</ele>
        <time>2015-11-29T15:47:37Z</time>
      </trkpt>
      <trkpt lat="44.26161" lon="1.14097">
        <ele>119.82</ele>
        <time>2015-11-29T15:48:01Z</time>
      </trkpt>
      <trkpt lat="44.26161" lon="1.14098">
        <ele>120.3</ele>
        <time>2015-11-29T15:48:26Z</time>
      </trkpt>
      <trkpt lat="44.26158" lon="1.14097">
        <ele>121.26</ele>
        <time>2015-11-29T15:48:52Z</time>
      </trkpt>
      <trkpt lat="44.26143" lon="1.14088">
        <ele>123.67</ele>
        <time>2015-11-29T15:49:10Z</time>
      </trkpt>
      <trkpt lat="44.26132" lon="1.1408">
        <ele>124.63</ele>
        <time>2015-11-29T15:49:25Z</time>
      </trkpt>
      <trkpt lat="44.2612" lon="1.14072">
        <ele>126.07</ele>
        <time>2015-11-29T15:49:41Z</time>
      </trkpt>
      <trkpt lat="44.26105" lon="1.14063">
        <ele>130.4</ele>
        <time>2015-11-29T15:49:58Z</time>
      </trkpt>
      <trkpt lat="44.2609" lon="1.14053">
        <ele>131.36</ele>
        <time>2015-11-29T15:50:14Z</time>
      </trkpt>
      <trkpt lat="44.26077" lon="1.14048">
        <ele>128.47</ele>
        <time>2015-11-29T15:50:29Z</time>
      </trkpt>
      <trkpt lat="44.26076" lon="1.14048">
        <ele>128.47</ele>
        <time>2015-11-29T15:50:30Z</time>
      </trkpt>
      <trkpt lat="44.26072" lon="1.14046">
        <ele>130.4</ele>
        <time>2015-11-29T15:50:44Z</time>
      </trkpt>
      <trkpt lat="44.26064" lon="1.14047">
        <ele>130.88</ele>
        <time>2015-11-29T15:51:01Z</time>
      </trkpt>
      <trkpt lat="44.26062" lon="1.14047">
        <ele>132.32</ele>
        <time>2015-11-29T15:51:18Z</time>
      </trkpt>
      <trkpt lat="44.26055" lon="1.14049">
        <ele>129.92</ele>
        <time>2015-11-29T15:51:35Z</time>
      </trkpt>
      <trkpt lat="44.26044" lon="1.14051">
        <ele>126.55</ele>
        <time>2015-11-29T15:51:50Z</time>
      </trkpt>
      <trkpt lat="44.26034" lon="1.14051">
        <ele>127.03</ele>
        <time>2015-11-29T15:52:03Z</time>
      </trkpt>
      <trkpt lat="44.26021" lon="1.14047">
        <ele>129.43</ele>
        <time>2015-11-29T15:52:19Z</time>
      </trkpt>
      <trkpt lat="44.26006" lon="1.14039">
        <ele>137.61</ele>
        <time>2015-11-29T15:52:36Z</time>
      </trkpt>
      <trkpt lat="44.25994" lon="1.14033">
        <ele>139.05</ele>
        <time>2015-11-29T15:52:49Z</time>
      </trkpt>
      <trkpt lat="44.25984" lon="1.14028">
        <ele>140.01</ele>
        <time>2015-11-29T15:53:03Z</time>
      </trkpt>
      <trkpt lat="44.2597" lon="1.14027">
        <ele>138.57</ele>
        <time>2015-11-29T15:53:19Z</time>
      </trkpt>
      <trkpt lat="44.25955" lon="1.1402">
        <ele>143.37</ele>
        <time>2015-11-29T15:53:33Z</time>
      </trkpt>
      <trkpt lat="44.25942" lon="1.14015">
        <ele>145.3</ele>
        <time>2015-11-29T15:53:47Z</time>
      </trkpt>
      <trkpt lat="44.2593" lon="1.14016">
        <ele>147.22</ele>
        <time>2015-11-29T15:54:01Z</time>
      </trkpt>
      <trkpt lat="44.25921" lon="1.14021">
        <ele>147.22</ele>
        <time>2015-11-29T15:54:12Z</time>
      </trkpt>
      <trkpt lat="44.2591" lon="1.14029">
        <ele>150.58</ele>
        <time>2015-11-29T15:54:28Z</time>
      </trkpt>
      <trkpt lat="44.259" lon="1.14037">
        <ele>152.51</ele>
        <time>2015-11-29T15:54:43Z</time>
      </trkpt>
      <trkpt lat="44.25892" lon="1.14044">
        <ele>155.39</ele>
        <time>2015-11-29T15:54:55Z</time>
      </trkpt>
      <trkpt lat="44.25888" lon="1.14047">
        <ele>155.87</ele>
        <time>2015-11-29T15:55:01Z</time>
      </trkpt>
      <trkpt lat="44.25876" lon="1.14058">
        <ele>162.12</ele>
        <time>2015-11-29T15:55:15Z</time>
      </trkpt>
      <trkpt lat="44.25869" lon="1.1406">
        <ele>165.96</ele>
        <time>2015-11-29T15:55:21Z</time>
      </trkpt>
      <trkpt lat="44.25869" lon="1.14056">
        <ele>168.37</ele>
        <time>2015-11-29T15:55:36Z</time>
      </trkpt>
      <trkpt lat="44.25869" lon="1.14061">
        <ele>170.77</ele>
        <time>2015-11-29T15:55:52Z</time>
      </trkpt>
      <trkpt lat="44.25867" lon="1.14062">
        <ele>171.73</ele>
        <time>2015-11-29T15:56:13Z</time>
      </trkpt>
      <trkpt lat="44.25869" lon="1.14059">
        <ele>171.73</ele>
        <time>2015-11-29T15:56:31Z</time>
      </trkpt>
      <trkpt lat="44.25868" lon="1.14058">
        <ele>173.17</ele>
        <time>2015-11-29T15:56:46Z</time>
      </trkpt>
      <trkpt lat="44.25868" lon="1.14058">
        <ele>173.66</ele>
        <time>2015-11-29T15:57:16Z</time>
      </trkpt>
      <trkpt lat="44.25867" lon="1.14056">
        <ele>174.62</ele>
        <time>2015-11-29T15:57:41Z</time>
      </trkpt>
      <trkpt lat="44.25867" lon="1.14054">
        <ele>174.62</ele>
        <time>2015-11-29T15:57:46Z</time>
      </trkpt>
      <trkpt lat="44.25871" lon="1.14036">
        <ele>170.77</ele>
        <time>2015-11-29T15:58:01Z</time>
      </trkpt>
      <trkpt lat="44.25875" lon="1.14014">
        <ele>170.29</ele>
        <time>2015-11-29T15:58:16Z</time>
      </trkpt>
      <trkpt lat="44.25874" lon="1.14003">
        <ele>173.66</ele>
        <time>2015-11-29T15:58:24Z</time>
      </trkpt>
      <trkpt lat="44.25873" lon="1.14">
        <ele>174.62</ele>
        <time>2015-11-29T15:58:26Z</time>
      </trkpt>
      <trkpt lat="44.25873" lon="1.13996">
        <ele>176.06</ele>
        <time>2015-11-29T15:58:29Z</time>
      </trkpt>
      <trkpt lat="44.25868" lon="1.13976">
        <ele>177.5</ele>
        <time>2015-11-29T15:58:46Z</time>
      </trkpt>
      <trkpt lat="44.25863" lon="1.13963">
        <ele>178.46</ele>
        <time>2015-11-29T15:58:57Z</time>
      </trkpt>
      <trkpt lat="44.25857" lon="1.13947">
        <ele>184.23</ele>
        <time>2015-11-29T15:59:12Z</time>
      </trkpt>
      <trkpt lat="44.25852" lon="1.1393">
        <ele>190.48</ele>
        <time>2015-11-29T15:59:28Z</time>
      </trkpt>
      <trkpt lat="44.25845" lon="1.13913">
        <ele>197.21</ele>
        <time>2015-11-29T15:59:44Z</time>
      </trkpt>
      <trkpt lat="44.25839" lon="1.13901">
        <ele>200.09</ele>
        <time>2015-11-29T16:00:00Z</time>
      </trkpt>
      <trkpt lat="44.25835" lon="1.13885">
        <ele>204.9</ele>
        <time>2015-11-29T16:00:14Z</time>
      </trkpt>
      <trkpt lat="44.25829" lon="1.13864">
        <ele>209.22</ele>
        <time>2015-11-29T16:00:33Z</time>
      </trkpt>
      <trkpt lat="44.25822" lon="1.1384">
        <ele>211.15</ele>
        <time>2015-11-29T16:00:52Z</time>
      </trkpt>
      <trkpt lat="44.25816" lon="1.13835">
        <ele>209.7</ele>
        <time>2015-11-29T16:00:59Z</time>
      </trkpt>
      <trkpt lat="44.25811" lon="1.13855">
        <ele>207.3</ele>
        <time>2015-11-29T16:01:12Z</time>
      </trkpt>
      <trkpt lat="44.25806" lon="1.1386">
        <ele>205.86</ele>
        <time>2015-11-29T16:01:24Z</time>
      </trkpt>
      <trkpt lat="44.25804" lon="1.13862">
        <ele>205.86</ele>
        <time>2015-11-29T16:01:30Z</time>
      </trkpt>
      <trkpt lat="44.25802" lon="1.13858">
        <ele>208.74</ele>
        <time>2015-11-29T16:01:43Z</time>
      </trkpt>
      <trkpt lat="44.25798" lon="1.13852">
        <ele>210.67</ele>
        <time>2015-11-29T16:01:58Z</time>
      </trkpt>
      <trkpt lat="44.25793" lon="1.13847">
        <ele>213.07</ele>
        <time>2015-11-29T16:02:11Z</time>
      </trkpt>
      <trkpt lat="44.25791" lon="1.13837">
        <ele>214.51</ele>
        <time>2015-11-29T16:02:19Z</time>
      </trkpt>
      <trkpt lat="44.25777" lon="1.13815">
        <ele>217.4</ele>
        <time>2015-11-29T16:02:36Z</time>
      </trkpt>
      <trkpt lat="44.25767" lon="1.13799">
        <ele>218.84</ele>
        <time>2015-11-29T16:02:50Z</time>
      </trkpt>
      <trkpt lat="44.25754" lon="1.13784">
        <ele>219.32</ele>
        <time>2015-11-29T16:03:05Z</time>
      </trkpt>
      <trkpt lat="44.2575" lon="1.13779">
        <ele>221.24</ele>
        <time>2015-11-29T16:03:21Z</time>
      </trkpt>
      <trkpt lat="44.25748" lon="1.13779">
        <ele>218.36</ele>
        <time>2015-11-29T16:03:39Z</time>
      </trkpt>
      <trkpt lat="44.25747" lon="1.13779">
        <ele>215.95</ele>
        <time>2015-11-29T16:03:55Z</time>
      </trkpt>
      <trkpt lat="44.25747" lon="1.13774">
        <ele>216.43</ele>
        <time>2015-11-29T16:04:07Z</time>
      </trkpt>
    </trkseg>
  </trk>
</gpx>